KL1905 / PH-BCH 7700 Squawk Report (18th of June, 2021)

Aircraft B738 Reg No. PH-BCH Age 2 years old
Model 737 Jet engines 2 First flight 22-03-19
Registered 27-03-19 Rollout N/A Delivered 27-03-19
Construction No. 62579 Line No. 7472 Series 800
ADSHEX 485A33 Airline name KLM Royal Dutch Airlines Owner N/A
Airfield based Amsterdam-Schiphol~Noord-Holland~PH First tracked N/A

Flight history for PH-BCH

Time Lat Lon Altitude Heading Speed Vertical Rate
2021-06-18 11:24:41 GMT 44.836258 20.269121 600 121 153 -896
2021-06-18 11:24:40 GMT 44.837021 20.267365 625 121 152 -768
2021-06-18 11:24:38 GMT 44.837402 20.266506 650 121 152 -768
2021-06-18 11:24:37 GMT 44.837811 20.265621 650 121 152 -832
2021-06-18 11:24:36 GMT 44.838181 20.264675 675 121 152 -832
2021-06-18 11:24:35 GMT 44.839325 20.262058 700 121 153 -704
2021-06-18 11:24:33 GMT 44.839325 20.262058 700 121 152 -704
2021-06-18 11:24:32 GMT 44.839626 20.261335 725 121 152 -768
2021-06-18 11:24:30 GMT 44.840466 20.259459 750 121 153 -832
2021-06-18 11:24:29 GMT 44.840744 20.258789 750 121 153 -832
2021-06-18 11:24:28 GMT 44.841118 20.257984 775 121 153 -768
2021-06-18 11:24:26 GMT 44.841908 20.256176 800 121 153 -832
2021-06-18 11:24:25 GMT 44.842281 20.255373 800 121 153 -832
2021-06-18 11:24:24 GMT 44.842667 20.254473 825 121 153 -768
2021-06-18 11:24:23 GMT 44.843079 20.253492 850 121 153 -640
2021-06-18 11:24:22 GMT 44.843399 20.252760 850 121 153 -576
2021-06-18 11:24:19 GMT 44.844608 20.250080 875 121 153 -704
2021-06-18 11:24:18 GMT 44.844933 20.249344 900 121 153 -704
2021-06-18 11:24:17 GMT 44.845688 20.247671 925 121 153 -576
2021-06-18 11:24:14 GMT 44.846516 20.245792 925 121 151 -512
2021-06-18 11:24:13 GMT 44.846935 20.244856 950 122 152 -448
2021-06-18 11:24:11 GMT 44.847702 20.243160 975 122 151 -640
2021-06-18 11:24:09 GMT 44.848114 20.242245 975 122 152 -768
2021-06-18 11:24:08 GMT 44.848846 20.240635 1,000 122 152 -704
2021-06-18 11:24:06 GMT 44.849960 20.238089 1,025 122 153 -640
2021-06-18 11:24:04 GMT 44.850357 20.237209 1,050 122 154 -704
2021-06-18 11:24:03 GMT 44.850586 20.236687 1,050 122 154 -768
2021-06-18 11:24:02 GMT 44.851410 20.234921 1,075 121 155 -704
2021-06-18 11:24:00 GMT 44.851776 20.234070 1,100 121 155 -704
2021-06-18 11:23:59 GMT 44.852150 20.233131 1,100 121 156 -704
2021-06-18 11:23:56 GMT 44.853409 20.230318 1,150 121 157 -832
2021-06-18 11:23:55 GMT 44.853607 20.229818 1,150 121 157 -832
2021-06-18 11:23:53 GMT 44.854523 20.227728 1,200 121 158 -832
2021-06-18 11:23:51 GMT 44.855347 20.225895 1,225 121 160 -704
2021-06-18 11:23:50 GMT 44.855942 20.224457 1,250 121 165 -768
2021-06-18 11:23:47 GMT 44.856720 20.222691 1,250 121 165 -768
2021-06-18 11:23:46 GMT 44.857319 20.221342 1,275 121 167 -768
2021-06-18 11:23:45 GMT 44.858017 20.219734 1,300 121 168 -832
2021-06-18 11:23:43 GMT 44.858437 20.218662 1,325 121 169 -896
2021-06-18 11:23:42 GMT 44.858826 20.217787 1,325 121 170 -960
2021-06-18 11:23:41 GMT 44.859226 20.216921 1,350 121 170 -896
2021-06-18 11:23:39 GMT 44.860107 20.214844 1,375 121 171 -896
2021-06-18 11:23:37 GMT 44.860931 20.212948 1,425 122 173 -896
2021-06-18 11:23:36 GMT 44.861389 20.211966 1,425 122 174 -896
2021-06-18 11:23:34 GMT 44.862167 20.210201 1,450 121 175 -1088
2021-06-18 11:23:33 GMT 44.862579 20.209284 1,475 121 175 -1088
2021-06-18 11:23:32 GMT 44.863045 20.208279 1,500 121 176 -1152
2021-06-18 11:23:30 GMT 44.864021 20.206068 1,525 121 178 -896
2021-06-18 11:23:29 GMT 44.864456 20.205034 1,550 121 178 -896
2021-06-18 11:23:28 GMT 44.864906 20.203991 1,575 121 178 -960
2021-06-18 11:23:26 GMT 44.866196 20.201111 1,625 122 180 -960
2021-06-18 11:23:25 GMT 44.866196 20.201111 1,625 122 180 -960
2021-06-18 11:23:24 GMT 44.867386 20.198429 1,650 122 182 -1024
2021-06-18 11:23:22 GMT 44.867386 20.198429 1,650 122 182 -1024
2021-06-18 11:23:21 GMT 44.867840 20.197426 1,675 122 184 -896
2021-06-18 11:23:18 GMT 44.869236 20.194210 1,725 121 185 -960
2021-06-18 11:23:17 GMT 44.869747 20.193071 1,750 122 186 -1024
2021-06-18 11:23:15 GMT 44.870728 20.190908 1,775 122 186 -1024
2021-06-18 11:23:14 GMT 44.871185 20.189863 1,800 122 188 -1024
2021-06-18 11:23:13 GMT 44.871655 20.188786 1,825 122 188 -960
2021-06-18 11:23:12 GMT 44.872585 20.186842 1,850 122 189 -896
2021-06-18 11:23:06 GMT 44.874912 20.181618 1,925 122 191 -1024
2021-06-18 11:23:04 GMT 44.875351 20.180708 1,950 122 191 -1088
2021-06-18 11:23:02 GMT 44.876266 20.178616 1,975 122 193 -1024
2021-06-18 11:23:01 GMT 44.876778 20.177530 2,000 122 193 -1024
2021-06-18 11:22:51 GMT 44.881756 20.166208 2,175 121 202 -704
2021-06-18 11:22:41 GMT 44.886749 20.154812 2,350 121 210 -1216
2021-06-18 11:22:31 GMT 44.891739 20.143106 2,525 121 215 -1088
2021-06-18 11:22:21 GMT 44.897167 20.130838 2,750 121 223 -1472
2021-06-18 11:22:09 GMT 44.903545 20.116436 2,950 122 226 -1024
2021-06-18 11:22:00 GMT 44.908630 20.105110 3,150 122 230 -1408
2021-06-18 11:21:50 GMT 44.914398 20.092098 3,350 122 233 -1024
2021-06-18 11:21:39 GMT 44.920490 20.078386 3,550 121 235 -1280
2021-06-18 11:21:30 GMT 44.925797 20.066259 3,775 121 236 -1472
2021-06-18 11:21:20 GMT 44.931709 20.052929 4,000 122 238 -1088
2021-06-18 11:21:10 GMT 44.937698 20.039324 4,150 121 244 -704
2021-06-18 11:21:00 GMT 44.943764 20.025599 4,275 122 251 -896
2021-06-18 11:20:50 GMT 44.950058 20.011597 4,500 121 255 -1472
2021-06-18 11:20:40 GMT 44.956287 19.997328 4,775 120 255 -2048
2021-06-18 11:20:29 GMT 44.962570 19.982323 5,125 119 252 -1984
2021-06-18 11:20:19 GMT 44.968414 19.967978 5,400 120 251 -1280
2021-06-18 11:20:09 GMT 44.974442 19.953785 5,550 121 256 -448
2021-06-18 11:19:59 GMT 44.980957 19.938877 5,625 121 262 -512
2021-06-18 11:19:49 GMT 44.987522 19.923973 5,700 121 269 -448
2021-06-18 11:19:39 GMT 44.994186 19.908928 5,775 121 275 -384
2021-06-18 11:19:28 GMT 45.000961 19.893494 5,875 121 281 -960
2021-06-18 11:19:18 GMT 45.007820 19.877817 6,125 121 281 -1472
2021-06-18 11:19:08 GMT 45.014740 19.861973 6,350 121 281 -1472
2021-06-18 11:18:58 GMT 45.021648 19.846333 6,625 121 281 -1600
2021-06-18 11:18:48 GMT 45.028519 19.830845 6,850 122 281 -1408
2021-06-18 11:18:38 GMT 45.035477 19.815281 7,100 122 283 -1344
2021-06-18 11:18:28 GMT 45.042736 19.798904 7,325 121 283 -1344
2021-06-18 11:18:18 GMT 45.049858 19.782492 7,550 121 284 -1344
2021-06-18 11:18:07 GMT 45.057037 19.766760 7,775 128 284 -1280
2021-06-18 11:17:56 GMT 45.066742 19.752110 8,000 141 286 -1408
2021-06-18 11:17:46 GMT 45.077511 19.741159 8,225 145 289 -1344
2021-06-18 11:17:36 GMT 45.088715 19.730333 8,475 145 289 -1600
2021-06-18 11:17:27 GMT 45.099716 19.719654 8,750 145 289 -1472
2021-06-18 11:17:17 GMT 45.110607 19.709003 8,975 145 289 -1472
2021-06-18 11:17:05 GMT 45.123093 19.696981 9,275 145 290 -1472
2021-06-18 11:16:55 GMT 45.133930 19.686562 9,500 145 292 -1344
2021-06-18 11:16:46 GMT 45.144516 19.676382 9,675 145 293 -1280
2021-06-18 11:16:36 GMT 45.156090 19.665325 9,900 146 295 -1216
2021-06-18 11:16:26 GMT 45.167404 19.654541 10,125 146 297 -1344
2021-06-18 11:16:16 GMT 45.179031 19.643620 10,325 146 300 -1216
2021-06-18 11:16:05 GMT 45.191711 19.631653 10,450 146 307 -512
2021-06-18 11:15:56 GMT 45.203110 19.620863 10,525 145 314 -384
2021-06-18 11:15:45 GMT 45.215469 19.608961 10,675 145 320 -1344
2021-06-18 11:15:35 GMT 45.228195 19.596601 10,975 145 322 -1728
2021-06-18 11:15:31 GMT 45.232498 19.592417 11,075 145 322 -1728
2021-06-18 11:15:24 GMT 45.241379 19.583717 11,250 145 324 -1728
2021-06-18 11:15:14 GMT 45.253281 19.572208 11,575 145 325 -1920
2021-06-18 11:15:05 GMT 45.266235 19.559652 11,900 145 326 -1664
2021-06-18 11:14:54 GMT 45.278290 19.548027 12,225 145 326 -2368
2021-06-18 11:14:44 GMT 45.291138 19.535566 12,575 145 327 -2048
2021-06-18 11:14:35 GMT 45.302948 19.524143 12,975 145 325 -2816
2021-06-18 11:14:33 GMT 45.304218 19.522905 13,025 145 325 -2816
2021-06-18 11:14:25 GMT 45.316681 19.510803 13,475 145 324 -2624
2021-06-18 11:14:15 GMT 45.327915 19.499996 13,850 145 325 -2304
2021-06-18 11:14:13 GMT 45.329170 19.498791 13,875 145 325 -2304
2021-06-18 11:14:04 GMT 45.341537 19.486803 14,275 145 326 -2240
2021-06-18 11:13:55 GMT 45.352936 19.475817 14,625 145 328 -2368
2021-06-18 11:13:52 GMT 45.355545 19.473267 14,700 145 328 -2368
2021-06-18 11:13:45 GMT 45.365528 19.463552 15,000 145 330 -2048
2021-06-18 11:13:42 GMT 45.368088 19.461039 15,075 145 330 -2048
2021-06-18 11:13:34 GMT 45.378159 19.451162 15,350 145 333 -2112
2021-06-18 11:13:31 GMT 45.382427 19.447006 15,450 145 333 -2176
2021-06-18 11:13:23 GMT 45.392761 19.436892 15,750 145 336 -2112
2021-06-18 11:13:17 GMT 45.400162 19.429655 15,950 145 339 -1856
2021-06-18 11:13:14 GMT 45.403839 19.426052 16,050 145 339 -1856
2021-06-18 11:13:12 GMT 45.406914 19.423092 16,100 145 340 -1856
2021-06-18 11:13:04 GMT 45.417023 19.413300 16,375 145 344 -2176
2021-06-18 11:13:01 GMT 45.421436 19.409090 16,475 145 344 -2176
2021-06-18 11:12:56 GMT 45.428238 19.402575 16,650 145 348 -2368
2021-06-18 11:12:52 GMT 45.432701 19.398306 16,775 145 347 -2112
2021-06-18 11:12:46 GMT 45.441780 19.389597 17,025 145 350 -2048
2021-06-18 11:12:42 GMT 45.446484 19.385109 17,150 145 350 -2048
2021-06-18 11:12:34 GMT 45.457809 19.374193 17,450 146 350 -2240
2021-06-18 11:12:32 GMT 45.459961 19.372166 17,525 146 350 -2240
2021-06-18 11:12:24 GMT 45.471340 19.361259 17,825 145 350 -2176
2021-06-18 11:12:21 GMT 45.474552 19.358110 17,900 145 351 -2176
2021-06-18 11:12:16 GMT 45.482468 19.350473 18,125 145 351 -2304
2021-06-18 11:12:11 GMT 45.487885 19.345158 18,300 145 351 -2368
2021-06-18 11:12:03 GMT 45.498669 19.334665 18,575 145 351 -1920
2021-06-18 11:12:00 GMT 45.502625 19.330837 18,925 145 352 -1856
2021-06-18 11:11:55 GMT 45.509235 19.324282 18,925 145 352 -1984
2021-06-18 11:11:52 GMT 45.514496 19.319189 18,975 145 353 -2112
2021-06-18 11:11:45 GMT 45.522766 19.311087 19,200 145 353 -2176
2021-06-18 11:11:42 GMT 45.526794 19.307163 19,300 145 352 -2240
2021-06-18 11:11:35 GMT 45.536362 19.297812 19,600 145 353 -2048
2021-06-18 11:11:31 GMT 45.541775 19.292528 19,675 145 353 -1984
2021-06-18 11:11:22 GMT 45.559250 19.275379 20,350 145 355 -1920
2021-06-18 11:11:13 GMT 45.565376 19.269333 20,250 145 355 -1792
2021-06-18 11:11:10 GMT 45.569706 19.265076 20,325 145 355 -1728
2021-06-18 11:11:04 GMT 45.577667 19.257179 20,500 145 357 -1728
2021-06-18 11:11:01 GMT 45.590561 19.244408 20,725 144 358 -1600
2021-06-18 11:10:55 GMT 45.590561 19.244408 20,750 144 358 -1536
2021-06-18 11:10:51 GMT 45.595867 19.239120 20,900 144 362 -1472
2021-06-18 11:10:48 GMT 45.600945 19.234039 20,950 144 362 -1408
2021-06-18 11:10:44 GMT 45.605530 19.229424 21,025 144 363 -1408
2021-06-18 11:10:41 GMT 45.609974 19.224907 21,100 144 365 -1408
2021-06-18 11:10:39 GMT 45.611938 19.222925 21,250 144 368 -1216
2021-06-18 11:10:35 GMT 45.618214 19.216599 21,250 144 368 -1216
2021-06-18 11:10:30 GMT 45.625534 19.209261 21,350 144 371 -1152
2021-06-18 11:10:23 GMT 45.635925 19.198875 21,500 145 373 -1408
2021-06-18 11:10:19 GMT 45.640278 19.194557 21,700 145 375 -1472
2021-06-18 11:10:14 GMT 45.647781 19.187220 21,700 145 377 -1472
2021-06-18 11:10:11 GMT 45.652058 19.183090 21,775 146 379 -1472
2021-06-18 11:10:09 GMT 45.654942 19.180344 21,875 146 379 -1536
2021-06-18 11:10:03 GMT 45.663834 19.172173 21,975 147 382 -1664
2021-06-18 11:09:59 GMT 45.669708 19.166855 22,150 147 383 -1728
2021-06-18 11:09:56 GMT 45.672867 19.163975 22,150 147 383 -1728
2021-06-18 11:09:54 GMT 45.677353 19.159954 22,250 147 384 -1856
2021-06-18 11:09:51 GMT 45.680969 19.156673 22,425 147 385 -2112
2021-06-18 11:09:48 GMT 45.686180 19.151985 22,450 147 385 -2112
2021-06-18 11:09:44 GMT 45.692276 19.146490 22,575 147 387 -2048
2021-06-18 11:09:39 GMT 45.698318 19.140997 22,925 147 388 -1984
2021-06-18 11:09:37 GMT 45.701477 19.138184 22,775 147 387 -1920
2021-06-18 11:09:30 GMT 45.712761 19.127953 23,025 147 389 -2112
2021-06-18 11:09:28 GMT 45.716717 19.124382 23,125 147 389 -1984
2021-06-18 11:09:24 GMT 45.724491 19.117378 23,275 147 391 -1856
2021-06-18 11:09:19 GMT 45.731243 19.111267 23,575 147 393 -2112
2021-06-18 11:09:13 GMT 45.738968 19.104286 23,600 147 393 -2112
2021-06-18 11:09:10 GMT 45.743626 19.100006 23,725 147 393 -1984
2021-06-18 11:09:07 GMT 45.748234 19.095886 23,825 147 394 -1920
2021-06-18 11:09:03 GMT 45.754566 19.090118 23,950 147 396 -1920
2021-06-18 11:09:00 GMT 45.759361 19.085793 24,050 147 396 -1920
2021-06-18 11:08:56 GMT 45.765289 19.080372 24,175 147 398 -2176
2021-06-18 11:08:52 GMT 45.771515 19.074743 24,300 147 398 -2176
2021-06-18 11:08:49 GMT 45.777142 19.069588 24,425 147 398 -2176
2021-06-18 11:08:47 GMT 45.778656 19.068247 24,475 147 399 -2176
2021-06-18 11:08:43 GMT 45.786118 19.061413 24,650 147 399 -2112
2021-06-18 11:08:40 GMT 45.791107 19.056858 24,775 147 400 -2304
2021-06-18 11:08:36 GMT 45.796417 19.052034 24,900 147 401 -2304
2021-06-18 11:08:32 GMT 45.802887 19.046173 25,050 147 401 -2240
2021-06-18 11:08:29 GMT 45.807728 19.041710 25,150 147 401 -2112
2021-06-18 11:08:26 GMT 45.811569 19.038235 25,250 147 402 -2112
2021-06-18 11:08:23 GMT 45.818161 19.032206 25,400 147 403 -2240
2021-06-18 11:08:19 GMT 45.823090 19.027702 25,550 147 403 -2176
2021-06-18 11:08:16 GMT 45.828186 19.022961 25,625 147 404 -2112
2021-06-18 11:08:12 GMT 45.834457 19.017200 25,875 147 405 -2112
2021-06-18 11:08:08 GMT 45.840363 19.011772 25,925 147 405 -2112
2021-06-18 11:08:06 GMT 45.843613 19.008825 25,975 147 405 -2304
2021-06-18 11:08:02 GMT 45.850067 19.002865 26,150 147 406 -2368
2021-06-18 11:07:58 GMT 45.855350 18.997971 26,275 147 406 -2240
2021-06-18 11:07:55 GMT 45.860237 18.993439 26,375 147 407 -2112
2021-06-18 11:07:52 GMT 45.870483 18.984039 26,500 147 408 -2112
2021-06-18 11:07:49 GMT 45.870483 18.984039 26,600 147 408 -2176
2021-06-18 11:07:47 GMT 45.874603 18.980289 26,700 147 408 -2176
2021-06-18 11:07:45 GMT 45.876114 18.978882 26,725 147 408 -2176
2021-06-18 11:07:42 GMT 45.881744 18.973724 26,900 147 409 -2176
2021-06-18 11:07:39 GMT 45.887100 18.968788 26,975 147 410 -2176
2021-06-18 11:07:35 GMT 45.891895 18.964462 27,075 147 411 -2112
2021-06-18 11:07:28 GMT 45.904930 18.952171 27,375 143 413 -2048
2021-06-18 11:07:25 GMT 45.908512 18.948532 27,450 143 413 -2048
2021-06-18 11:07:20 GMT 45.917862 18.938353 27,650 140 415 -2048
2021-06-18 11:07:17 GMT 45.920151 18.935623 27,700 139 415 -2048
2021-06-18 11:07:15 GMT 45.923904 18.931118 27,800 138 415 -1984
2021-06-18 11:07:10 GMT 45.930176 18.923079 27,950 135 417 -1984
2021-06-18 11:07:07 GMT 45.935558 18.915710 28,075 134 418 -1984
2021-06-18 11:07:05 GMT 45.937889 18.912346 28,100 133 417 -1984
2021-06-18 11:07:01 GMT 45.946976 18.898226 28,300 130 419 -1984
2021-06-18 11:06:58 GMT 45.946976 18.898226 28,350 129 420 -2048
2021-06-18 11:06:54 GMT 45.951004 18.891394 28,475 128 421 -2048
2021-06-18 11:06:48 GMT 45.959301 18.876091 28,700 127 423 -1984
2021-06-18 11:06:44 GMT 45.963364 18.868349 28,800 126 424 -1984
2021-06-18 11:06:40 GMT 45.968891 18.857826 28,950 127 424 -1856
2021-06-18 11:06:37 GMT 45.972149 18.851646 29,050 127 427 -1920
2021-06-18 11:06:34 GMT 45.975128 18.846016 29,125 126 427 -1984
2021-06-18 11:06:30 GMT 45.981834 18.833176 29,325 126 429 -1984
2021-06-18 11:06:26 GMT 45.985153 18.826815 29,400 126 429 -1920
2021-06-18 11:06:24 GMT 45.987442 18.822529 29,450 126 430 -1920
2021-06-18 11:06:20 GMT 45.992203 18.813351 29,650 126 431 -1920
2021-06-18 11:06:16 GMT 45.996368 18.805378 29,700 126 432 -1984
2021-06-18 11:06:14 GMT 45.999569 18.799255 29,775 126 433 -2048
2021-06-18 11:06:11 GMT 46.003990 18.790810 29,925 126 434 -2048
2021-06-18 11:06:07 GMT 46.007854 18.783394 30,025 126 435 -2048
2021-06-18 11:06:04 GMT 46.011429 18.776640 30,150 126 436 -2112
2021-06-18 11:05:58 GMT 46.018051 18.763893 30,400 126 437 -1984
2021-06-18 11:05:55 GMT 46.022781 18.754868 30,450 126 438 -1984
2021-06-18 11:05:53 GMT 46.024521 18.751465 30,500 126 438 -1984
2021-06-18 11:05:47 GMT 46.031891 18.737385 30,700 126 440 -2048
2021-06-18 11:05:45 GMT 46.034821 18.731756 30,800 126 440 -2048
2021-06-18 11:05:43 GMT 46.041000 18.719948 31,050 126 443 -2240
2021-06-18 11:05:39 GMT 46.041000 18.719948 30,950 126 442 -1920
2021-06-18 11:05:36 GMT 46.045376 18.711502 31,075 126 443 -1984
2021-06-18 11:05:34 GMT 46.047775 18.706903 31,325 126 444 -2240
2021-06-18 11:05:30 GMT 46.053898 18.695229 31,325 127 444 -2176
2021-06-18 11:05:26 GMT 46.057388 18.688480 31,425 126 447 -1792
2021-06-18 11:05:24 GMT 46.060638 18.682384 31,500 126 447 -1728
2021-06-18 11:05:21 GMT 46.063843 18.676222 31,575 127 448 -1792
2021-06-18 11:05:17 GMT 46.069336 18.665705 31,750 127 448 -2432
2021-06-18 11:05:14 GMT 46.072586 18.659540 31,850 126 447 -2880
2021-06-18 11:05:07 GMT 46.085274 18.635216 32,675 126 445 -3072
2021-06-18 11:05:04 GMT 46.087040 18.631920 32,475 126 445 -3200
2021-06-18 11:04:59 GMT 46.091675 18.623032 32,675 126 445 -3072
2021-06-18 11:04:56 GMT 46.095558 18.615578 32,825 126 445 -3072
2021-06-18 11:04:54 GMT 46.098167 18.610634 32,925 126 445 -3072
2021-06-18 11:04:52 GMT 46.099285 18.608505 33,175 126 444 -3072
2021-06-18 11:04:49 GMT 46.102962 18.601433 33,175 126 444 -3072
2021-06-18 11:04:46 GMT 46.106964 18.593758 33,300 126 443 -2880
2021-06-18 11:04:42 GMT 46.112457 18.583237 33,450 126 443 -3008
2021-06-18 11:04:37 GMT 46.119186 18.570444 33,800 126 443 -2816
2021-06-18 11:04:33 GMT 46.126694 18.556042 33,975 126 443 -2752
2021-06-18 11:04:30 GMT 46.126694 18.556042 34,075 126 443 -2752
2021-06-18 11:04:26 GMT 46.131405 18.546982 34,250 126 442 -2944
2021-06-18 11:04:23 GMT 46.135223 18.539635 34,450 126 443 -2816
2021-06-18 11:04:21 GMT 46.138901 18.532631 34,550 126 443 -2752
2021-06-18 11:04:16 GMT 46.144207 18.522469 34,925 126 443 -2816
2021-06-18 11:04:13 GMT 46.147705 18.515715 34,850 126 443 -2816
2021-06-18 11:04:06 GMT 46.156452 18.498848 35,225 126 443 -2816
2021-06-18 11:04:03 GMT 46.163666 18.484909 35,475 126 442 -2880
2021-06-18 11:04:00 GMT 46.163666 18.484909 36,000 126 442 -2880
2021-06-18 11:03:55 GMT 46.169861 18.472975 37,000 126 442 -2880
2021-06-18 11:03:52 GMT 46.175163 18.462730 35,900 126 441 -2880
2021-06-18 11:03:49 GMT 46.176407 18.460247 35,950 126 441 -2944
2021-06-18 11:03:45 GMT 46.185966 18.441719 36,225 126 441 -3008
2021-06-18 11:03:42 GMT 46.185966 18.441719 36,500 126 441 -3008
2021-06-18 11:03:39 GMT 46.189735 18.434441 36,575 126 440 -2816
2021-06-18 11:03:36 GMT 46.192669 18.428810 36,725 126 440 -2496
2021-06-18 11:03:32 GMT 46.198254 18.417961 36,800 126 441 -1856
2021-06-18 11:03:29 GMT 46.200760 18.413153 36,825 126 442 -960
2021-06-18 11:03:25 GMT 46.206253 18.402569 37,000 126 442 -576
2021-06-18 11:03:22 GMT 46.210876 18.393593 36,975 126 443 -320
2021-06-18 11:03:19 GMT 46.213989 18.387543 36,975 126 443 -192
2021-06-18 11:03:16 GMT 46.218925 18.377930 37,000 126 444 0
2021-06-18 11:03:13 GMT 46.221439 18.373055 37,000 126 444 0
2021-06-18 11:03:10 GMT 46.226303 18.363647 37,000 126 444 0
2021-06-18 11:03:05 GMT 46.231934 18.352728 37,000 126 444 0
2021-06-18 11:03:02 GMT 46.235031 18.346687 37,000 126 444 0
2021-06-18 11:02:59 GMT 46.238159 18.340603 37,000 126 444 0
2021-06-18 11:02:56 GMT 46.241959 18.333235 37,000 126 444 0
2021-06-18 11:02:54 GMT 46.244293 18.328747 37,000 126 444 0
2021-06-18 11:02:51 GMT 46.248299 18.321007 37,000 126 444 0
2021-06-18 11:02:48 GMT 46.251602 18.314621 37,000 126 444 0
2021-06-18 11:02:45 GMT 46.255325 18.307377 37,000 126 444 0
2021-06-18 11:02:43 GMT 46.258484 18.301146 37,000 126 444 0
2021-06-18 11:02:39 GMT 46.262787 18.292839 37,000 126 444 0
2021-06-18 11:02:35 GMT 46.267849 18.282967 37,000 126 444 0
2021-06-18 11:02:33 GMT 46.270691 18.277473 37,000 126 444 0
2021-06-18 11:02:30 GMT 46.274918 18.269258 37,000 126 444 0
2021-06-18 11:02:25 GMT 46.280701 18.257973 37,000 126 444 0
2021-06-18 11:02:22 GMT 46.283630 18.252274 37,000 126 444 0
2021-06-18 11:02:19 GMT 46.287216 18.245338 37,000 126 444 0
2021-06-18 11:02:16 GMT 46.291397 18.237104 37,000 126 444 0
2021-06-18 11:02:12 GMT 46.295837 18.228529 37,000 126 444 0
2021-06-18 11:02:09 GMT 46.299271 18.221897 37,000 126 445 0
2021-06-18 11:02:05 GMT 46.303974 18.212723 37,000 126 445 0
2021-06-18 11:02:03 GMT 46.306458 18.207829 37,000 126 445 0
2021-06-18 11:01:59 GMT 46.313324 18.194498 37,000 126 445 0
2021-06-18 11:01:55 GMT 46.316544 18.188141 37,000 126 445 0
2021-06-18 11:01:52 GMT 46.319778 18.181837 37,000 126 444 0
2021-06-18 11:01:49 GMT 46.328041 18.165756 37,000 126 444 0
2021-06-18 11:01:43 GMT 46.330673 18.160601 37,000 126 444 0
2021-06-18 11:01:40 GMT 46.334515 18.153053 37,000 126 444 0
2021-06-18 11:01:38 GMT 46.337540 18.147079 37,000 126 444 0
2021-06-18 11:01:35 GMT 46.341064 18.140303 37,000 126 444 0
2021-06-18 11:01:31 GMT 46.346054 18.130524 37,000 126 444 0
2021-06-18 11:01:28 GMT 46.350246 18.122292 37,000 126 444 0
2021-06-18 11:01:24 GMT 46.353973 18.115047 37,000 126 444 64
2021-06-18 11:01:20 GMT 46.362534 18.098301 37,000 126 444 0
2021-06-18 11:01:17 GMT 46.362534 18.098301 37,000 126 444 0
2021-06-18 11:01:14 GMT 46.366726 18.090088 37,000 126 444 0
2021-06-18 11:01:11 GMT 46.370266 18.083153 37,000 126 444 0
2021-06-18 11:01:08 GMT 46.373886 18.076059 37,000 126 444 0
2021-06-18 11:01:05 GMT 46.377712 18.068596 37,000 126 444 0
2021-06-18 11:01:01 GMT 46.382694 18.058777 37,000 126 444 0
2021-06-18 11:00:58 GMT 46.385395 18.053490 37,000 126 444 0
2021-06-18 11:00:55 GMT 46.390091 18.044308 37,000 126 445 0
2021-06-18 11:00:51 GMT 46.396290 18.032204 37,000 126 444 0
2021-06-18 11:00:48 GMT 46.399452 18.026024 37,000 126 444 0
2021-06-18 11:00:45 GMT 46.402313 18.020391 37,000 126 444 0
2021-06-18 11:00:42 GMT 46.406391 18.012360 37,000 126 444 0
2021-06-18 11:00:38 GMT 46.415794 17.993958 37,000 126 444 0
2021-06-18 11:00:35 GMT 46.415794 17.993958 37,000 126 445 0
2021-06-18 11:00:31 GMT 46.418884 17.987835 37,000 126 445 0
2021-06-18 11:00:28 GMT 46.422729 17.980293 37,000 126 446 0
2021-06-18 11:00:24 GMT 46.427444 17.971087 37,000 126 446 64
2021-06-18 11:00:20 GMT 46.436142 17.954073 37,000 126 447 0
2021-06-18 11:00:17 GMT 46.436142 17.954073 37,000 126 447 0
2021-06-18 11:00:13 GMT 46.440903 17.944693 37,000 126 447 -64
2021-06-18 11:00:10 GMT 46.445709 17.935314 37,000 126 447 -64
2021-06-18 11:00:05 GMT 46.451405 17.924126 37,000 126 447 0
2021-06-18 11:00:02 GMT 46.455547 17.915886 37,000 126 447 64
2021-06-18 10:59:59 GMT 46.457874 17.911354 37,000 126 447 64
2021-06-18 10:59:57 GMT 46.460175 17.906912 37,000 126 447 64
2021-06-18 10:59:53 GMT 46.465164 17.896996 37,000 126 447 64
2021-06-18 10:59:49 GMT 46.470119 17.887253 37,000 126 447 0
2021-06-18 10:59:46 GMT 46.473938 17.879768 37,000 126 447 0
2021-06-18 10:59:43 GMT 46.477337 17.872971 37,000 126 447 0
2021-06-18 10:59:40 GMT 46.481152 17.865486 37,000 126 447 0
2021-06-18 10:59:37 GMT 46.484894 17.858143 37,000 126 447 0
2021-06-18 10:59:34 GMT 46.489624 17.848801 37,000 126 447 0
2021-06-18 10:59:31 GMT 46.492584 17.842936 37,000 126 447 0
2021-06-18 10:59:28 GMT 46.495651 17.836840 37,000 126 447 0
2021-06-18 10:59:25 GMT 46.500473 17.827309 37,000 126 447 0
2021-06-18 10:59:22 GMT 46.502937 17.822502 37,000 126 447 0
2021-06-18 10:59:19 GMT 46.507645 17.813192 37,000 126 447 0
2021-06-18 10:59:17 GMT 46.509018 17.810579 37,000 126 447 0
2021-06-18 10:59:14 GMT 46.513367 17.801971 37,000 126 447 0
2021-06-18 10:59:09 GMT 46.518814 17.791286 37,000 126 447 0
2021-06-18 10:59:06 GMT 46.523003 17.782951 37,000 126 447 0
2021-06-18 10:59:03 GMT 46.527969 17.773199 37,000 126 447 0
2021-06-18 10:58:59 GMT 46.532867 17.763487 37,000 126 447 -64
2021-06-18 10:58:55 GMT 46.536549 17.756172 37,000 126 447 64
2021-06-18 10:58:52 GMT 46.540226 17.748894 37,000 126 447 64
2021-06-18 10:58:49 GMT 46.543392 17.742645 37,000 126 446 0
2021-06-18 10:58:46 GMT 46.547024 17.735367 37,000 126 446 0
2021-06-18 10:58:42 GMT 46.552517 17.724518 37,000 126 446 0
2021-06-18 10:58:38 GMT 46.557499 17.714630 37,000 126 446 0
2021-06-18 10:58:34 GMT 46.561432 17.706745 37,000 126 446 0
2021-06-18 10:58:31 GMT 46.565273 17.699112 37,000 126 446 0
2021-06-18 10:58:28 GMT 46.572647 17.684572 37,000 126 446 0
2021-06-18 10:58:25 GMT 46.572647 17.684572 37,000 126 446 0
2021-06-18 10:58:22 GMT 46.577702 17.674530 37,000 126 446 0
2021-06-18 10:58:18 GMT 46.580822 17.668213 37,000 126 446 0
2021-06-18 10:58:15 GMT 46.586105 17.657709 37,000 126 446 -64
2021-06-18 10:58:12 GMT 46.588440 17.653154 37,000 126 446 -64
2021-06-18 10:58:10 GMT 46.592365 17.645279 37,000 125 446 0
2021-06-18 10:58:07 GMT 46.595947 17.638147 37,000 126 445 0
2021-06-18 10:58:04 GMT 46.598789 17.632507 37,000 126 445 0
2021-06-18 10:58:01 GMT 46.601761 17.626558 37,000 126 445 0
2021-06-18 10:57:58 GMT 46.606750 17.616577 37,000 126 445 0
2021-06-18 10:57:54 GMT 46.613781 17.602570 37,000 126 445 0
2021-06-18 10:57:51 GMT 46.613781 17.602570 37,000 126 445 0
2021-06-18 10:57:48 GMT 46.618423 17.593266 37,000 126 445 0
2021-06-18 10:57:46 GMT 46.620296 17.589523 37,000 126 445 0
2021-06-18 10:57:43 GMT 46.623276 17.583618 37,000 126 445 0
2021-06-18 10:57:40 GMT 46.627762 17.574642 37,000 126 445 0
2021-06-18 10:57:37 GMT 46.634903 17.560440 37,000 126 445 0
2021-06-18 10:57:34 GMT 46.634903 17.560440 37,000 126 445 0
2021-06-18 10:57:31 GMT 46.637985 17.554298 37,000 126 445 0
2021-06-18 10:57:28 GMT 46.642967 17.544411 37,000 126 444 0
2021-06-18 10:57:23 GMT 46.648647 17.533081 37,000 126 444 0
2021-06-18 10:57:19 GMT 46.654541 17.521385 37,000 126 444 0
2021-06-18 10:57:16 GMT 46.657726 17.515022 37,000 126 444 0
2021-06-18 10:57:13 GMT 46.660675 17.509127 37,000 126 444 0
2021-06-18 10:57:10 GMT 46.663544 17.503418 37,000 126 443 0
2021-06-18 10:57:07 GMT 46.667953 17.494656 37,000 126 443 0
2021-06-18 10:57:02 GMT 46.677567 17.475363 37,000 126 443 0
2021-06-18 10:56:59 GMT 46.677567 17.475363 37,000 126 443 0
2021-06-18 10:56:56 GMT 46.685844 17.458855 37,000 126 443 0
2021-06-18 10:56:52 GMT 46.690842 17.448835 37,000 126 443 64
2021-06-18 10:56:49 GMT 46.690842 17.448835 37,000 125 443 64
2021-06-18 10:56:46 GMT 46.692684 17.445122 37,000 125 443 0
2021-06-18 10:56:42 GMT 46.697762 17.435028 37,000 125 443 0
2021-06-18 10:56:40 GMT 46.701111 17.428299 37,000 125 443 0
2021-06-18 10:56:37 GMT 46.706745 17.416901 37,000 125 443 0
2021-06-18 10:56:34 GMT 46.706745 17.416901 37,000 125 443 0
2021-06-18 10:56:31 GMT 46.710297 17.409847 37,000 125 443 -64
2021-06-18 10:56:28 GMT 46.715561 17.399195 37,000 125 443 0
2021-06-18 10:56:25 GMT 46.719040 17.392227 37,000 125 442 0
2021-06-18 10:56:22 GMT 46.722851 17.384628 37,000 125 442 0
2021-06-18 10:56:18 GMT 46.726501 17.377291 37,000 125 442 0
2021-06-18 10:56:15 GMT 46.729385 17.371529 37,000 125 442 0
2021-06-18 10:56:12 GMT 46.733887 17.362518 37,000 125 442 0
2021-06-18 10:56:09 GMT 46.741470 17.347212 37,000 125 442 0
2021-06-18 10:56:06 GMT 46.741470 17.347212 37,000 125 442 0
2021-06-18 10:56:03 GMT 46.748268 17.333611 37,000 125 442 0
2021-06-18 10:56:00 GMT 46.748268 17.333611 37,000 125 442 0
2021-06-18 10:55:57 GMT 46.751816 17.326511 37,000 125 442 0
2021-06-18 10:55:54 GMT 46.755295 17.319544 37,000 125 442 0
2021-06-18 10:55:51 GMT 46.758839 17.312462 37,000 125 442 0
2021-06-18 10:55:48 GMT 46.763725 17.302574 37,000 125 443 0
2021-06-18 10:55:45 GMT 46.766006 17.297974 37,000 125 443 0
2021-06-18 10:55:41 GMT 46.771133 17.287724 37,000 125 443 0
2021-06-18 10:55:39 GMT 46.774246 17.281494 37,000 125 443 0
2021-06-18 10:55:35 GMT 46.778412 17.273052 37,000 125 442 0
2021-06-18 10:55:31 GMT 46.783417 17.263023 37,000 125 442 0
2021-06-18 10:55:27 GMT 46.788536 17.252655 37,000 125 442 0
2021-06-18 10:55:24 GMT 46.791000 17.247663 37,000 125 442 0
2021-06-18 10:55:20 GMT 46.796631 17.236277 37,000 125 442 0
2021-06-18 10:55:16 GMT 46.800476 17.228573 37,000 125 443 0
2021-06-18 10:55:13 GMT 46.804047 17.221336 37,000 125 443 0
2021-06-18 10:55:10 GMT 46.807575 17.214203 37,000 125 443 0
2021-06-18 10:55:07 GMT 46.811829 17.205595 37,000 125 443 0
2021-06-18 10:55:04 GMT 46.815399 17.198294 37,000 125 443 0
2021-06-18 10:55:01 GMT 46.819473 17.190121 37,000 125 442 0
2021-06-18 10:54:57 GMT 46.827267 17.174240 37,000 125 443 0
2021-06-18 10:54:54 GMT 46.827267 17.174240 37,000 125 443 0
2021-06-18 10:54:51 GMT 46.830917 17.166876 37,000 125 443 0
2021-06-18 10:54:48 GMT 46.838425 17.151602 37,000 125 443 0
2021-06-18 10:54:45 GMT 46.838425 17.151602 37,000 125 443 0
2021-06-18 10:54:40 GMT 46.844650 17.139008 37,000 125 443 0
2021-06-18 10:54:37 GMT 46.848358 17.131504 37,000 125 443 0
2021-06-18 10:54:34 GMT 46.851013 17.126211 37,000 125 443 0
2021-06-18 10:54:31 GMT 46.854813 17.118441 37,000 125 443 0
2021-06-18 10:54:27 GMT 46.860901 17.106049 37,000 125 443 0
2021-06-18 10:54:24 GMT 46.862732 17.102430 37,000 125 443 0
2021-06-18 10:54:21 GMT 46.866898 17.093924 37,000 125 443 0
2021-06-18 10:54:19 GMT 46.870239 17.087173 37,000 125 443 0
2021-06-18 10:54:16 GMT 46.872070 17.083534 37,000 125 443 0
2021-06-18 10:54:13 GMT 46.876465 17.074539 37,000 125 443 0
2021-06-18 10:54:10 GMT 46.880852 17.065710 37,000 125 443 0
2021-06-18 10:54:07 GMT 46.883652 17.059982 37,000 125 443 0
2021-06-18 10:54:03 GMT 46.888092 17.050987 37,000 125 443 0
2021-06-18 10:53:59 GMT 46.893951 17.039108 37,000 125 443 0
2021-06-18 10:53:56 GMT 46.896835 17.033272 37,000 125 443 0
2021-06-18 10:53:53 GMT 46.900681 17.025358 37,000 125 443 -64
2021-06-18 10:53:50 GMT 46.903656 17.019470 37,000 125 443 0
2021-06-18 10:53:47 GMT 46.907593 17.011436 37,000 125 443 0
2021-06-18 10:53:44 GMT 46.910568 17.005325 37,000 125 444 0
2021-06-18 10:53:42 GMT 46.916138 16.994019 37,000 125 444 0
2021-06-18 10:53:39 GMT 46.916138 16.994019 37,000 125 444 0
2021-06-18 10:53:36 GMT 46.920650 16.984793 37,000 125 444 0
2021-06-18 10:53:33 GMT 46.925213 16.975567 37,000 125 444 64
2021-06-18 10:53:30 GMT 46.928375 16.969139 37,000 125 444 64
2021-06-18 10:53:27 GMT 46.930664 16.964539 37,000 125 444 0
2021-06-18 10:53:24 GMT 46.935059 16.955475 37,000 125 444 0
2021-06-18 10:53:21 GMT 46.938110 16.949299 37,000 125 444 0
2021-06-18 10:53:18 GMT 46.943298 16.938652 37,000 125 445 0
2021-06-18 10:53:14 GMT 46.946815 16.931480 37,000 125 445 0
2021-06-18 10:53:12 GMT 46.948792 16.927460 37,000 125 445 0
2021-06-18 10:53:09 GMT 46.955750 16.913315 37,000 125 445 0
2021-06-18 10:53:06 GMT 46.960373 16.903770 37,000 125 445 0
2021-06-18 10:53:03 GMT 46.960373 16.903770 37,000 125 445 0
2021-06-18 10:53:00 GMT 46.964039 16.896339 37,000 125 445 0
2021-06-18 10:52:57 GMT 46.967018 16.890211 37,000 125 445 0
2021-06-18 10:52:54 GMT 46.970974 16.882183 37,000 125 445 0
2021-06-18 10:52:51 GMT 46.973488 16.877043 37,000 125 445 0
2021-06-18 10:52:48 GMT 46.977814 16.868134 37,000 125 444 0
2021-06-18 10:52:45 GMT 46.981293 16.861061 37,000 125 444 0
2021-06-18 10:52:42 GMT 46.985405 16.852606 37,000 125 444 0
2021-06-18 10:52:38 GMT 46.992371 16.838333 37,000 125 444 0
2021-06-18 10:52:36 GMT 46.992371 16.838333 37,000 125 444 0
2021-06-18 10:52:33 GMT 46.996159 16.830631 37,000 125 445 0
2021-06-18 10:52:30 GMT 46.999191 16.824394 37,000 125 445 0
2021-06-18 10:52:26 GMT 47.003281 16.815912 37,000 125 445 0
2021-06-18 10:52:23 GMT 47.007523 16.807228 37,000 125 444 0
2021-06-18 10:52:20 GMT 47.011288 16.799503 37,000 125 444 0
2021-06-18 10:52:16 GMT 47.016724 16.788414 37,000 125 444 0
2021-06-18 10:52:13 GMT 47.019699 16.782303 37,000 125 445 0
2021-06-18 10:52:11 GMT 47.022041 16.777533 37,000 125 445 0
2021-06-18 10:52:08 GMT 47.024689 16.772003 37,000 125 445 0
2021-06-18 10:52:06 GMT 47.027397 16.766544 37,000 125 445 0
2021-06-18 10:52:03 GMT 47.031509 16.758064 37,000 125 445 0
2021-06-18 10:52:00 GMT 47.036335 16.748163 37,000 125 445 0
2021-06-18 10:51:56 GMT 47.039520 16.741722 37,000 125 444 0
2021-06-18 10:51:53 GMT 47.043823 16.732864 37,000 125 444 64
2021-06-18 10:51:51 GMT 47.046570 16.727303 37,000 125 444 64
2021-06-18 10:51:47 GMT 47.050068 16.720064 37,000 125 444 0
2021-06-18 10:51:44 GMT 47.053940 16.712128 37,000 125 444 0
2021-06-18 10:51:41 GMT 47.056915 16.705948 37,000 125 444 0
2021-06-18 10:51:38 GMT 47.062042 16.695442 37,000 125 444 0
2021-06-18 10:51:35 GMT 47.064926 16.689537 37,000 125 444 0
2021-06-18 10:51:32 GMT 47.068222 16.682810 37,000 125 444 0
2021-06-18 10:51:30 GMT 47.071667 16.675697 37,000 125 444 0
2021-06-18 10:51:27 GMT 47.077255 16.664217 37,000 125 442 0
2021-06-18 10:51:24 GMT 47.077255 16.664217 37,000 125 442 0
2021-06-18 10:51:21 GMT 47.081535 16.655415 37,000 125 443 0
2021-06-18 10:51:18 GMT 47.084473 16.649368 37,000 125 444 64
2021-06-18 10:51:15 GMT 47.091934 16.633919 37,000 125 445 0
2021-06-18 10:51:12 GMT 47.094524 16.628653 37,000 125 445 0
2021-06-18 10:51:07 GMT 47.098251 16.620941 37,000 125 445 0
2021-06-18 10:51:04 GMT 47.101879 16.613441 37,000 125 445 0
2021-06-18 10:51:01 GMT 47.106487 16.604004 37,000 125 445 -64
2021-06-18 10:50:58 GMT 47.108139 16.600548 37,000 125 446 0
2021-06-18 10:50:55 GMT 47.112354 16.591820 37,000 125 446 0
2021-06-18 10:50:52 GMT 47.117065 16.582077 37,000 125 446 0
2021-06-18 10:50:49 GMT 47.120041 16.575966 37,000 125 446 0
2021-06-18 10:50:46 GMT 47.123978 16.567795 37,000 125 446 0
2021-06-18 10:50:43 GMT 47.127762 16.560059 37,000 125 446 0
2021-06-18 10:50:40 GMT 47.130836 16.553650 37,000 125 446 0
2021-06-18 10:50:34 GMT 47.137398 16.540058 37,000 125 446 0
2021-06-18 10:50:31 GMT 47.140705 16.533087 37,000 125 445 0
2021-06-18 10:50:28 GMT 47.144852 16.524605 37,000 125 446 0
2021-06-18 10:50:25 GMT 47.149178 16.515551 37,000 125 446 64
2021-06-18 10:50:21 GMT 47.153503 16.506546 37,000 125 445 0
2021-06-18 10:50:18 GMT 47.157837 16.497520 37,000 125 446 0
2021-06-18 10:50:15 GMT 47.159317 16.494392 37,000 125 446 0
2021-06-18 10:50:12 GMT 47.163563 16.485689 37,000 125 446 0
2021-06-18 10:50:08 GMT 47.167786 16.476883 37,000 125 446 0
2021-06-18 10:50:05 GMT 47.171520 16.469069 37,000 125 446 -64
2021-06-18 10:50:02 GMT 47.175980 16.459854 37,000 125 446 0
2021-06-18 10:49:59 GMT 47.180237 16.450928 37,000 125 445 0
2021-06-18 10:49:55 GMT 47.188515 16.433786 37,000 125 445 0
2021-06-18 10:49:51 GMT 47.188515 16.433786 37,000 125 445 0
2021-06-18 10:49:49 GMT 47.191120 16.428364 37,000 125 445 0
2021-06-18 10:49:46 GMT 47.198151 16.413857 37,000 125 445 0
2021-06-18 10:49:43 GMT 47.198151 16.413857 37,000 125 445 0
2021-06-18 10:49:40 GMT 47.201614 16.406570 37,000 125 444 0
2021-06-18 10:49:37 GMT 47.205364 16.398785 37,000 125 444 0
2021-06-18 10:49:33 GMT 47.210255 16.388714 37,000 125 444 0
2021-06-18 10:49:30 GMT 47.217003 16.374701 37,000 125 444 0
2021-06-18 10:49:27 GMT 47.217003 16.374701 37,000 125 444 0
2021-06-18 10:49:24 GMT 47.221378 16.365616 37,000 125 444 0
2021-06-18 10:49:21 GMT 47.224274 16.359535 37,000 125 444 0
2021-06-18 10:49:19 GMT 47.227665 16.352587 37,000 125 444 64
2021-06-18 10:49:16 GMT 47.229900 16.347868 37,000 125 444 64
2021-06-18 10:49:13 GMT 47.234646 16.338078 37,000 125 444 64
2021-06-18 10:49:10 GMT 47.237022 16.333149 37,000 125 444 0
2021-06-18 10:49:08 GMT 47.239582 16.327797 37,000 125 444 0
2021-06-18 10:49:05 GMT 47.243771 16.319134 37,000 125 444 0
2021-06-18 10:49:02 GMT 47.248306 16.309616 37,000 125 444 0
2021-06-18 10:48:59 GMT 47.249496 16.307144 37,000 125 442 0
2021-06-18 10:48:56 GMT 47.253616 16.298561 37,000 125 443 0
2021-06-18 10:48:53 GMT 47.261765 16.281601 37,000 125 443 0
2021-06-18 10:48:50 GMT 47.261765 16.281601 37,000 125 442 0
2021-06-18 10:48:47 GMT 47.264694 16.275421 37,000 125 443 0
2021-06-18 10:48:44 GMT 47.268631 16.267231 37,000 125 442 0
2021-06-18 10:48:41 GMT 47.271702 16.260822 37,000 125 442 0
2021-06-18 10:48:38 GMT 47.276173 16.251455 37,000 125 441 0
2021-06-18 10:48:34 GMT 47.279892 16.243698 37,000 125 442 0
2021-06-18 10:48:31 GMT 47.283482 16.236244 37,000 125 442 0
2021-06-18 10:48:29 GMT 47.286346 16.230171 37,000 125 442 0
2021-06-18 10:48:24 GMT 47.291611 16.219116 37,000 125 442 0
2021-06-18 10:48:21 GMT 47.295677 16.210678 37,000 125 442 0
2021-06-18 10:48:18 GMT 47.298470 16.204763 37,000 125 442 0
2021-06-18 10:48:15 GMT 47.301590 16.198242 37,000 125 442 0
2021-06-18 10:48:11 GMT 47.306992 16.186981 37,000 124 441 0
2021-06-18 10:48:09 GMT 47.310574 16.179482 37,000 124 441 0
2021-06-18 10:48:06 GMT 47.312851 16.174690 37,000 124 441 0
2021-06-18 10:48:03 GMT 47.319324 16.161030 37,000 124 441 0
2021-06-18 10:48:00 GMT 47.319324 16.161030 37,000 124 441 0
2021-06-18 10:47:58 GMT 47.321793 16.155888 37,000 124 440 0
2021-06-18 10:47:54 GMT 47.327911 16.142967 37,000 124 441 0
2021-06-18 10:47:51 GMT 47.336132 16.125534 37,000 124 441 0
2021-06-18 10:47:47 GMT 47.336132 16.125534 37,000 124 440 0
2021-06-18 10:47:43 GMT 47.338623 16.120377 37,000 124 440 0
2021-06-18 10:47:40 GMT 47.342789 16.111588 37,000 124 440 0
2021-06-18 10:47:38 GMT 47.345207 16.106520 37,000 124 440 0
2021-06-18 10:47:35 GMT 47.348095 16.100393 37,000 124 440 0
2021-06-18 10:47:32 GMT 47.352516 16.091097 37,000 124 440 0
2021-06-18 10:47:29 GMT 47.354984 16.085957 37,000 124 440 0
2021-06-18 10:47:27 GMT 47.357483 16.080688 37,000 124 439 0
2021-06-18 10:47:24 GMT 47.360962 16.073341 37,000 124 440 0
2021-06-18 10:47:21 GMT 47.364807 16.065239 37,000 124 439 0
2021-06-18 10:47:18 GMT 47.369476 16.055420 37,000 124 439 0
2021-06-18 10:47:15 GMT 47.372498 16.049034 37,000 124 439 0
2021-06-18 10:47:12 GMT 47.376434 16.040726 37,000 124 439 0
2021-06-18 10:47:09 GMT 47.381378 16.030319 37,000 124 439 0
2021-06-18 10:47:07 GMT 47.384949 16.022873 37,000 124 439 0
2021-06-18 10:47:04 GMT 47.384949 16.022873 37,000 124 439 0
2021-06-18 10:47:00 GMT 47.389759 16.012714 37,000 124 439 0
2021-06-18 10:46:58 GMT 47.392136 16.007698 37,000 124 438 0
2021-06-18 10:46:54 GMT 47.400055 15.991013 37,000 124 439 0
2021-06-18 10:46:51 GMT 47.400055 15.991013 37,000 124 439 0
2021-06-18 10:46:48 GMT 47.403027 15.984826 37,000 124 438 0
2021-06-18 10:46:45 GMT 47.406784 15.976868 37,000 124 438 0
2021-06-18 10:46:42 GMT 47.413826 15.962008 37,000 124 438 0
2021-06-18 10:46:39 GMT 47.413826 15.962008 37,000 124 438 0
2021-06-18 10:46:36 GMT 47.418365 15.952354 37,000 124 438 0
2021-06-18 10:46:33 GMT 47.420856 15.947078 37,000 124 438 0
2021-06-18 10:46:29 GMT 47.425373 15.937500 37,000 124 438 0
2021-06-18 10:46:26 GMT 47.428940 15.930038 37,000 124 438 0
2021-06-18 10:46:23 GMT 47.432449 15.922570 37,000 124 438 0
2021-06-18 10:46:19 GMT 47.437042 15.912872 37,000 124 438 0
2021-06-18 10:46:17 GMT 47.442783 15.900738 37,000 124 438 0
2021-06-18 10:46:14 GMT 47.442783 15.900738 37,000 124 438 0
2021-06-18 10:46:11 GMT 47.445530 15.894822 37,000 124 438 0
2021-06-18 10:46:08 GMT 47.449081 15.887329 37,000 124 438 0
2021-06-18 10:46:06 GMT 47.452652 15.879776 37,000 124 438 0
2021-06-18 10:46:03 GMT 47.456654 15.871300 37,000 124 438 0
2021-06-18 10:45:59 GMT 47.460159 15.863777 37,000 124 438 0
2021-06-18 10:45:56 GMT 47.467346 15.848602 37,000 124 438 0
2021-06-18 10:45:53 GMT 47.467346 15.848602 37,000 124 438 0
2021-06-18 10:45:50 GMT 47.470825 15.841255 37,000 124 438 0
2021-06-18 10:45:47 GMT 47.474762 15.832878 37,000 124 438 -64
2021-06-18 10:45:44 GMT 47.477978 15.826017 37,000 124 438 -64
2021-06-18 10:45:40 GMT 47.482910 15.815594 37,000 124 438 0
2021-06-18 10:45:37 GMT 47.485703 15.809601 37,000 124 437 0
2021-06-18 10:45:34 GMT 47.488544 15.803622 37,000 124 437 0
2021-06-18 10:45:31 GMT 47.493439 15.793190 37,000 124 437 0
2021-06-18 10:45:28 GMT 47.495247 15.789325 37,000 124 437 0
2021-06-18 10:45:25 GMT 47.499115 15.781174 37,000 124 437 0
2021-06-18 10:45:22 GMT 47.503693 15.771355 37,000 124 437 0
2021-06-18 10:45:19 GMT 47.506210 15.765930 37,000 124 437 0
2021-06-18 10:45:16 GMT 47.510147 15.757553 37,000 124 437 0
2021-06-18 10:45:13 GMT 47.513401 15.750592 37,000 124 437 0
2021-06-18 10:45:10 GMT 47.517452 15.742000 37,000 124 437 0
2021-06-18 10:45:07 GMT 47.521545 15.733246 37,000 124 437 0
2021-06-18 10:45:04 GMT 47.523285 15.729607 37,000 124 437 0
2021-06-18 10:45:01 GMT 47.526531 15.722562 37,000 124 438 0
2021-06-18 10:44:58 GMT 47.530975 15.713127 37,000 124 438 0
2021-06-18 10:44:55 GMT 47.533997 15.706741 37,000 124 437 0
2021-06-18 10:44:52 GMT 47.538116 15.697952 37,000 124 437 0
2021-06-18 10:44:49 GMT 47.541687 15.690331 37,000 124 437 0
2021-06-18 10:44:46 GMT 47.544205 15.684906 37,000 124 437 0
2021-06-18 10:44:43 GMT 47.547245 15.678406 37,000 124 437 0
2021-06-18 10:44:40 GMT 47.551254 15.669937 37,000 124 437 0
2021-06-18 10:44:37 GMT 47.555603 15.660599 37,000 124 437 0
2021-06-18 10:44:34 GMT 47.561920 15.647072 37,000 124 436 0
2021-06-18 10:44:30 GMT 47.565811 15.638695 37,000 124 438 0
2021-06-18 10:44:27 GMT 47.565811 15.638695 37,000 124 438 0
2021-06-18 10:44:24 GMT 47.570007 15.629742 37,000 124 437 0
2021-06-18 10:44:21 GMT 47.574478 15.620094 37,000 124 437 0
2021-06-18 10:44:17 GMT 47.576900 15.614953 37,000 124 437 0
2021-06-18 10:44:14 GMT 47.580414 15.607452 37,000 124 437 0
2021-06-18 10:44:11 GMT 47.588257 15.590586 37,000 124 437 0
2021-06-18 10:44:08 GMT 47.588257 15.590586 37,000 124 437 0
2021-06-18 10:44:05 GMT 47.595100 15.576008 37,000 124 437 0
2021-06-18 10:44:02 GMT 47.598679 15.568382 37,000 124 437 0
2021-06-18 10:43:59 GMT 47.598679 15.568382 37,000 124 437 0
2021-06-18 10:43:56 GMT 47.600967 15.563438 37,000 124 437 0
2021-06-18 10:43:53 GMT 47.609711 15.544762 37,000 124 437 0
2021-06-18 10:43:50 GMT 47.609711 15.544762 37,000 124 437 0
2021-06-18 10:43:47 GMT 47.612652 15.538541 37,000 124 437 0
2021-06-18 10:43:44 GMT 47.616714 15.529793 37,000 124 437 0
2021-06-18 10:43:40 GMT 47.620239 15.522273 37,000 124 436 0
2021-06-18 10:43:36 GMT 47.624542 15.513107 37,000 124 437 0
2021-06-18 10:43:33 GMT 47.628155 15.505301 37,000 124 437 0
2021-06-18 10:43:30 GMT 47.635071 15.490448 37,000 124 437 0
2021-06-18 10:43:27 GMT 47.635071 15.490448 37,000 124 437 0
2021-06-18 10:43:24 GMT 47.638641 15.482826 37,000 124 437 0
2021-06-18 10:43:22 GMT 47.640957 15.477764 37,000 124 437 0
2021-06-18 10:43:19 GMT 47.644402 15.470370 37,000 124 437 0
2021-06-18 10:43:16 GMT 47.647705 15.463257 37,000 124 437 0
2021-06-18 10:43:13 GMT 47.652374 15.453232 37,000 124 437 0
2021-06-18 10:43:10 GMT 47.654755 15.448082 37,000 124 437 0
2021-06-18 10:43:06 GMT 47.659103 15.438744 37,000 124 437 0
2021-06-18 10:43:03 GMT 47.662537 15.431328 37,000 124 437 0
2021-06-18 10:43:00 GMT 47.666744 15.422340 37,000 124 437 0
2021-06-18 10:42:56 GMT 47.670609 15.413959 37,000 124 437 0
2021-06-18 10:42:53 GMT 47.673889 15.406952 37,000 124 437 0
2021-06-18 10:42:51 GMT 47.676567 15.401142 37,000 124 437 0
2021-06-18 10:42:46 GMT 47.682953 15.387451 37,000 124 437 0
2021-06-18 10:42:42 GMT 47.686531 15.379733 37,000 124 437 0
2021-06-18 10:42:39 GMT 47.690140 15.371933 37,000 124 437 0
2021-06-18 10:42:35 GMT 47.695084 15.361359 37,000 124 437 0
2021-06-18 10:42:32 GMT 47.697887 15.355295 37,000 124 437 0
2021-06-18 10:42:29 GMT 47.701565 15.347407 37,000 124 437 0
2021-06-18 10:42:26 GMT 47.704639 15.340787 37,000 124 437 0
2021-06-18 10:42:23 GMT 47.708084 15.333393 37,000 124 437 0
2021-06-18 10:42:21 GMT 47.710224 15.328674 37,000 124 437 0
2021-06-18 10:42:18 GMT 47.713669 15.321280 37,000 124 437 0
2021-06-18 10:42:15 GMT 47.717674 15.312617 37,000 124 437 0
2021-06-18 10:42:11 GMT 47.721634 15.304092 37,000 124 437 0
2021-06-18 10:42:08 GMT 47.726303 15.293999 37,000 124 437 0
2021-06-18 10:42:04 GMT 47.729141 15.287819 37,000 124 437 0
2021-06-18 10:42:01 GMT 47.733173 15.279025 37,000 124 437 0
2021-06-18 10:41:58 GMT 47.736481 15.271841 37,000 124 437 0
2021-06-18 10:41:54 GMT 47.741367 15.261207 37,000 124 437 0
2021-06-18 10:41:51 GMT 47.745045 15.253319 37,000 124 437 0
2021-06-18 10:41:48 GMT 47.747955 15.247032 37,000 124 437 0
2021-06-18 10:41:45 GMT 47.752396 15.237350 37,000 124 436 0
2021-06-18 10:41:42 GMT 47.754776 15.232132 37,000 124 437 0
2021-06-18 10:41:40 GMT 47.761200 15.218177 37,000 124 437 0
2021-06-18 10:41:37 GMT 47.761200 15.218177 37,000 124 437 0
2021-06-18 10:41:34 GMT 47.764038 15.211980 37,000 124 436 0
2021-06-18 10:41:31 GMT 47.767502 15.204460 37,000 124 437 0
2021-06-18 10:41:28 GMT 47.772308 15.194023 37,000 124 436 0
2021-06-18 10:41:24 GMT 47.775909 15.186275 37,000 124 436 0
2021-06-18 10:41:21 GMT 47.780594 15.175964 37,000 124 436 0
2021-06-18 10:41:18 GMT 47.782745 15.171295 37,000 124 436 0
2021-06-18 10:41:15 GMT 47.786407 15.163330 37,000 124 436 0
2021-06-18 10:41:12 GMT 47.789932 15.155708 37,000 124 436 0
2021-06-18 10:41:09 GMT 47.793091 15.148773 37,000 124 436 0
2021-06-18 10:41:05 GMT 47.798161 15.137752 37,000 124 436 0
2021-06-18 10:41:02 GMT 47.800598 15.132431 37,000 124 436 0
2021-06-18 10:41:00 GMT 47.802910 15.127329 37,000 124 436 0
2021-06-18 10:40:57 GMT 47.805515 15.121624 37,000 124 436 0
2021-06-18 10:40:54 GMT 47.809940 15.111976 37,000 124 436 0
2021-06-18 10:40:51 GMT 47.813644 15.103935 37,000 124 436 0
2021-06-18 10:40:47 GMT 47.817993 15.094370 37,000 124 436 0
2021-06-18 10:40:44 GMT 47.822323 15.084933 37,000 124 437 0
2021-06-18 10:40:40 GMT 47.825722 15.077538 37,000 124 436 0
2021-06-18 10:40:37 GMT 47.829121 15.070073 37,000 124 437 0
2021-06-18 10:40:34 GMT 47.832687 15.062256 37,000 124 436 0
2021-06-18 10:40:31 GMT 47.840012 15.046269 37,000 124 436 0
2021-06-18 10:40:28 GMT 47.840012 15.046269 37,000 124 436 0
2021-06-18 10:40:24 GMT 47.844452 15.036507 37,000 124 435 64
2021-06-18 10:40:21 GMT 47.846970 15.031082 37,000 124 436 0
2021-06-18 10:40:19 GMT 47.849442 15.025589 37,000 124 436 0
2021-06-18 10:40:16 GMT 47.852829 15.018173 37,000 124 436 0
2021-06-18 10:40:13 GMT 47.860657 15.001076 37,000 124 436 0
2021-06-18 10:40:10 GMT 47.860657 15.001076 37,000 124 436 0
2021-06-18 10:40:07 GMT 47.867386 14.986338 37,000 124 436 0
2021-06-18 10:40:04 GMT 47.867386 14.986338 37,000 124 436 0
2021-06-18 10:40:01 GMT 47.869759 14.981126 37,000 124 435 0
2021-06-18 10:39:57 GMT 47.874275 14.971267 37,000 124 435 0
2021-06-18 10:39:54 GMT 47.877674 14.963801 37,000 124 435 0
2021-06-18 10:39:51 GMT 47.880978 14.956618 37,000 124 435 64
2021-06-18 10:39:48 GMT 47.884377 14.949223 37,000 124 435 0
2021-06-18 10:39:45 GMT 47.887711 14.941956 37,000 124 435 0
2021-06-18 10:39:42 GMT 47.892471 14.931519 37,000 124 435 0
2021-06-18 10:39:38 GMT 47.898880 14.917442 37,000 124 434 0
2021-06-18 10:39:34 GMT 47.900299 14.914363 37,000 124 434 0
2021-06-18 10:39:31 GMT 47.904346 14.905489 37,000 124 434 0
2021-06-18 10:39:28 GMT 47.907349 14.898903 37,000 124 434 0
2021-06-18 10:39:24 GMT 47.912354 14.887883 37,000 124 434 0
2021-06-18 10:39:20 GMT 47.918243 14.874870 37,000 124 434 0
2021-06-18 10:39:16 GMT 47.924038 14.862178 37,000 124 434 0
2021-06-18 10:39:13 GMT 47.924038 14.862178 37,000 124 434 0
2021-06-18 10:39:10 GMT 47.926971 14.855769 37,000 124 434 0
2021-06-18 10:39:07 GMT 47.931580 14.845558 37,000 124 434 0
2021-06-18 10:39:04 GMT 47.934467 14.839149 37,000 124 434 0
2021-06-18 10:39:01 GMT 47.937698 14.832092 37,000 124 434 0
2021-06-18 10:38:58 GMT 47.941498 14.823715 37,000 124 434 0
2021-06-18 10:38:54 GMT 47.946213 14.813278 37,000 124 434 0
2021-06-18 10:38:51 GMT 47.949005 14.807098 37,000 124 434 0
2021-06-18 10:38:49 GMT 47.950527 14.803795 37,000 124 434 0
2021-06-18 10:38:46 GMT 47.954903 14.794147 37,000 124 433 0
2021-06-18 10:38:43 GMT 47.957291 14.788834 37,000 124 433 0
2021-06-18 10:38:40 GMT 47.964340 14.773247 37,000 123 432 0
2021-06-18 10:38:37 GMT 47.967041 14.767342 37,000 123 432 0
2021-06-18 10:38:34 GMT 47.967041 14.767342 37,000 123 432 0
2021-06-18 10:38:31 GMT 47.971527 14.757454 37,000 123 431 0
2021-06-18 10:38:29 GMT 47.972626 14.754982 37,000 123 431 0
2021-06-18 10:38:26 GMT 47.976196 14.747086 37,000 123 431 0
2021-06-18 10:38:23 GMT 47.983246 14.731567 37,000 123 432 0
2021-06-18 10:38:20 GMT 47.983246 14.731567 37,000 123 432 0
2021-06-18 10:38:17 GMT 47.987907 14.721328 37,000 123 432 0
2021-06-18 10:38:14 GMT 47.989517 14.717697 37,000 123 432 0
2021-06-18 10:38:11 GMT 47.993820 14.708228 37,000 123 432 0
2021-06-18 10:38:08 GMT 47.996056 14.703299 37,000 123 432 0
2021-06-18 10:38:05 GMT 47.999920 14.694636 37,000 123 432 0
2021-06-18 10:38:02 GMT 48.003738 14.686256 37,000 123 432 0
2021-06-18 10:37:59 GMT 48.006622 14.679847 37,000 123 432 0
2021-06-18 10:37:56 GMT 48.009796 14.672859 37,000 123 431 0
2021-06-18 10:37:53 GMT 48.013779 14.663933 37,000 123 431 0
2021-06-18 10:37:50 GMT 48.017189 14.656396 37,000 123 431 0
2021-06-18 10:37:46 GMT 48.020962 14.648015 37,000 123 431 0
2021-06-18 10:37:43 GMT 48.024811 14.639488 37,000 123 431 0
2021-06-18 10:37:40 GMT 48.027618 14.633226 37,000 123 431 0
2021-06-18 10:37:38 GMT 48.030807 14.626236 37,000 123 431 0
2021-06-18 10:37:34 GMT 48.034927 14.617035 37,000 123 431 0
2021-06-18 10:37:30 GMT 48.038418 14.609281 37,000 123 431 0
2021-06-18 10:37:28 GMT 48.044357 14.596092 37,000 123 431 0
2021-06-18 10:37:25 GMT 48.044357 14.596092 37,000 123 431 0
2021-06-18 10:37:21 GMT 48.048889 14.585999 37,000 123 431 0
2021-06-18 10:37:18 GMT 48.052368 14.578377 37,000 123 431 0
2021-06-18 10:37:15 GMT 48.055664 14.570961 37,000 123 431 0
2021-06-18 10:37:12 GMT 48.058914 14.563820 37,000 123 431 0
2021-06-18 10:37:09 GMT 48.066162 14.547729 37,000 123 431 -64
2021-06-18 10:37:06 GMT 48.066162 14.547729 37,000 123 430 0
2021-06-18 10:37:03 GMT 48.069004 14.541462 37,000 123 430 0
2021-06-18 10:37:00 GMT 48.071640 14.535530 37,000 123 430 0
2021-06-18 10:36:58 GMT 48.074615 14.528870 37,000 123 429 0
2021-06-18 10:36:55 GMT 48.078049 14.521248 37,000 123 429 0
2021-06-18 10:36:52 GMT 48.081116 14.514313 37,000 123 429 0
2021-06-18 10:36:49 GMT 48.084412 14.507094 37,000 123 429 0
2021-06-18 10:36:46 GMT 48.088463 14.498009 37,000 123 429 0
2021-06-18 10:36:43 GMT 48.091255 14.491812 37,000 123 429 0
2021-06-18 10:36:40 GMT 48.093842 14.486023 37,000 123 429 0
2021-06-18 10:36:38 GMT 48.097595 14.477646 37,000 123 429 0
2021-06-18 10:36:35 GMT 48.099960 14.472375 37,000 123 429 0
2021-06-18 10:36:32 GMT 48.103867 14.463638 37,000 123 429 0
2021-06-18 10:36:29 GMT 48.106384 14.457939 37,000 123 429 0
2021-06-18 10:36:26 GMT 48.110550 14.448601 37,000 123 429 0
2021-06-18 10:36:23 GMT 48.113461 14.442092 37,000 123 429 0
2021-06-18 10:36:20 GMT 48.116180 14.436035 37,000 123 429 0
2021-06-18 10:36:18 GMT 48.118534 14.430753 37,000 123 429 0
2021-06-18 10:36:15 GMT 48.121902 14.423195 37,000 123 429 -64
2021-06-18 10:36:12 GMT 48.124329 14.417839 37,000 123 429 -64
2021-06-18 10:36:09 GMT 48.128952 14.407471 37,000 123 429 -64
2021-06-18 10:36:06 GMT 48.132313 14.399977 37,000 123 429 0
2021-06-18 10:36:03 GMT 48.135269 14.393394 37,000 123 429 0
2021-06-18 10:36:00 GMT 48.138737 14.385681 37,000 123 429 0
2021-06-18 10:35:58 GMT 48.140350 14.382065 37,000 123 429 0
2021-06-18 10:35:55 GMT 48.144558 14.372582 37,000 123 429 64
2021-06-18 10:35:52 GMT 48.146324 14.368638 37,000 123 429 0
2021-06-18 10:35:49 GMT 48.150188 14.360046 37,000 123 429 0
2021-06-18 10:35:46 GMT 48.153442 14.352745 37,000 123 429 0
2021-06-18 10:35:43 GMT 48.157928 14.342651 37,000 123 429 0
2021-06-18 10:35:39 GMT 48.162292 14.332894 37,000 123 430 0
2021-06-18 10:35:36 GMT 48.169884 14.315836 37,000 123 430 0
2021-06-18 10:35:33 GMT 48.169884 14.315836 37,000 123 430 0
2021-06-18 10:35:30 GMT 48.174911 14.304622 37,000 123 430 0
2021-06-18 10:35:28 GMT 48.174911 14.304622 37,000 123 430 0
2021-06-18 10:35:25 GMT 48.176632 14.300802 37,000 123 430 0
2021-06-18 10:35:22 GMT 48.180084 14.293002 37,000 123 430 0
2021-06-18 10:35:19 GMT 48.183102 14.286202 37,000 123 430 0
2021-06-18 10:35:17 GMT 48.185486 14.280888 37,000 123 430 0
2021-06-18 10:35:14 GMT 48.192764 14.264620 37,000 123 430 0
2021-06-18 10:35:11 GMT 48.192764 14.264620 37,000 123 430 0
2021-06-18 10:35:08 GMT 48.196232 14.256857 37,000 123 432 0
2021-06-18 10:35:05 GMT 48.199951 14.248563 37,000 123 430 0
2021-06-18 10:35:02 GMT 48.202423 14.242979 37,000 123 430 0
2021-06-18 10:34:59 GMT 48.205353 14.236380 37,000 123 430 0
2021-06-18 10:34:57 GMT 48.207092 14.232436 37,000 123 432 0
2021-06-18 10:34:54 GMT 48.212105 14.221151 37,000 123 430 0
2021-06-18 10:34:51 GMT 48.213684 14.217576 37,000 123 431 0
2021-06-18 10:34:48 GMT 48.217758 14.208351 37,000 123 431 0
2021-06-18 10:34:45 GMT 48.220436 14.202287 37,000 123 431 0
2021-06-18 10:34:42 GMT 48.224628 14.192818 37,000 123 430 0
2021-06-18 10:34:39 GMT 48.228104 14.185040 37,000 123 431 0
2021-06-18 10:34:36 GMT 48.231033 14.178279 37,000 123 431 0
2021-06-18 10:34:33 GMT 48.234146 14.171307 37,000 123 432 0
2021-06-18 10:34:29 GMT 48.238403 14.161659 37,000 123 432 0
2021-06-18 10:34:27 GMT 48.241928 14.153630 37,000 123 432 0
2021-06-18 10:34:24 GMT 48.245636 14.145179 37,000 123 432 0
2021-06-18 10:34:21 GMT 48.248199 14.139475 37,000 123 432 0
2021-06-18 10:34:18 GMT 48.251862 14.131092 37,000 123 432 0
2021-06-18 10:34:15 GMT 48.257446 14.118371 37,000 123 432 0
2021-06-18 10:34:12 GMT 48.257446 14.118371 37,000 123 432 0
2021-06-18 10:34:09 GMT 48.260925 14.110530 37,000 123 432 0
2021-06-18 10:34:05 GMT 48.264381 14.102615 37,000 123 432 0
2021-06-18 10:34:02 GMT 48.267975 14.094543 37,000 123 432 0
2021-06-18 10:33:59 GMT 48.272369 14.084543 37,000 123 432 0
2021-06-18 10:33:56 GMT 48.277138 14.073703 37,000 123 432 0
2021-06-18 10:33:53 GMT 48.278732 14.070106 37,000 123 432 0
2021-06-18 10:33:50 GMT 48.281616 14.063627 37,000 123 432 0
2021-06-18 10:33:47 GMT 48.284866 14.056212 37,000 123 432 0
2021-06-18 10:33:44 GMT 48.287659 14.049996 37,000 123 432 0
2021-06-18 10:33:41 GMT 48.290825 14.042768 37,000 123 432 0
2021-06-18 10:33:38 GMT 48.295807 14.031493 37,000 123 432 0
2021-06-18 10:33:35 GMT 48.297501 14.027640 37,000 123 432 0
2021-06-18 10:33:32 GMT 48.306473 14.007428 37,000 123 432 0
2021-06-18 10:33:28 GMT 48.306473 14.007428 37,000 123 433 0
2021-06-18 10:33:25 GMT 48.309025 14.001569 37,000 123 432 0
2021-06-18 10:33:22 GMT 48.313354 13.991812 37,000 123 432 0
2021-06-18 10:33:18 GMT 48.316753 13.984078 37,000 123 432 0
2021-06-18 10:33:15 GMT 48.321407 13.973525 37,000 123 433 0
2021-06-18 10:33:11 GMT 48.324417 13.966651 37,000 123 433 0
2021-06-18 10:33:08 GMT 48.327301 13.960172 37,000 123 433 0
2021-06-18 10:33:06 GMT 48.330139 13.953623 37,000 123 433 0
2021-06-18 10:33:03 GMT 48.333023 13.947144 37,000 123 433 0
2021-06-18 10:33:00 GMT 48.337555 13.936861 37,000 123 433 0
2021-06-18 10:32:57 GMT 48.340683 13.929724 37,000 123 433 -64
2021-06-18 10:32:54 GMT 48.343754 13.922713 37,000 123 433 -64
2021-06-18 10:32:50 GMT 48.347153 13.914907 37,000 123 433 0
2021-06-18 10:32:46 GMT 48.353394 13.900733 37,000 123 433 0
2021-06-18 10:32:43 GMT 48.355042 13.897001 37,000 123 433 0
2021-06-18 10:32:40 GMT 48.358513 13.889104 37,000 123 433 0
2021-06-18 10:32:37 GMT 48.361816 13.881587 37,000 123 433 64
2021-06-18 10:32:34 GMT 48.366005 13.872046 37,000 123 433 0
2021-06-18 10:32:30 GMT 48.370056 13.862722 37,000 123 433 0
2021-06-18 10:32:27 GMT 48.372803 13.856434 37,000 123 434 0
2021-06-18 10:32:24 GMT 48.375961 13.849323 37,000 123 434 0
2021-06-18 10:32:21 GMT 48.380264 13.839534 37,000 123 434 0
2021-06-18 10:32:18 GMT 48.383278 13.832582 37,000 123 434 0
2021-06-18 10:32:15 GMT 48.387047 13.824053 37,000 123 434 0
2021-06-18 10:32:12 GMT 48.390747 13.815589 37,000 123 434 0
2021-06-18 10:32:08 GMT 48.393333 13.809742 37,000 123 434 0
2021-06-18 10:32:06 GMT 48.396172 13.803165 37,000 123 434 0
2021-06-18 10:32:03 GMT 48.400036 13.794347 37,000 123 434 0
2021-06-18 10:32:00 GMT 48.403519 13.786433 37,000 123 434 0
2021-06-18 10:31:57 GMT 48.405853 13.781151 37,000 123 434 0
2021-06-18 10:31:54 GMT 48.410000 13.771724 37,000 123 434 0
2021-06-18 10:31:51 GMT 48.411667 13.767841 37,000 123 434 0
2021-06-18 10:31:48 GMT 48.416283 13.757340 37,000 123 434 0
2021-06-18 10:31:45 GMT 48.419773 13.749317 37,000 123 434 0
2021-06-18 10:31:41 GMT 48.423080 13.741728 37,000 123 434 0
2021-06-18 10:31:37 GMT 48.429062 13.727980 37,000 123 434 0
2021-06-18 10:31:34 GMT 48.431808 13.721713 37,000 123 434 0
2021-06-18 10:31:31 GMT 48.435425 13.713402 37,000 123 434 0
2021-06-18 10:31:28 GMT 48.438908 13.705444 37,000 123 434 0
2021-06-18 10:31:25 GMT 48.441746 13.698867 37,000 123 434 0
2021-06-18 10:31:21 GMT 48.445450 13.690444 37,000 123 434 0
2021-06-18 10:31:17 GMT 48.449848 13.680219 37,000 123 434 0
2021-06-18 10:31:14 GMT 48.453060 13.672919 37,000 123 434 0
2021-06-18 10:31:11 GMT 48.456875 13.664101 37,000 123 434 0
2021-06-18 10:31:08 GMT 48.459763 13.657524 37,000 123 434 0
2021-06-18 10:31:06 GMT 48.462662 13.650865 37,000 123 434 0
2021-06-18 10:31:03 GMT 48.465675 13.643935 37,000 123 434 0
2021-06-18 10:31:00 GMT 48.468513 13.637358 37,000 123 434 0
2021-06-18 10:30:57 GMT 48.472549 13.628188 36,875 123 434 1216
2021-06-18 10:30:54 GMT 48.476429 13.619216 37,000 123 434 0
2021-06-18 10:30:51 GMT 48.478134 13.615300 37,000 123 434 -64
2021-06-18 10:30:48 GMT 48.481842 13.606708 37,000 123 434 0
2021-06-18 10:30:45 GMT 48.484909 13.599595 37,000 123 434 -64
2021-06-18 10:30:42 GMT 48.488297 13.591778 37,000 123 434 0
2021-06-18 10:30:39 GMT 48.492863 13.581270 37,000 123 434 512
2021-06-18 10:30:36 GMT 48.495514 13.575054 36,975 123 434 576
2021-06-18 10:30:33 GMT 48.497890 13.569633 36,950 123 434 1344
2021-06-18 10:30:30 GMT 48.501846 13.560526 36,850 123 434 1280
2021-06-18 10:30:27 GMT 48.506058 13.550791 36,750 123 434 1344
2021-06-18 10:30:24 GMT 48.508179 13.545853 36,750 122 435 1408
2021-06-18 10:30:21 GMT 48.511093 13.539170 36,675 123 436 1344
2021-06-18 10:30:18 GMT 48.519196 13.520367 36,500 123 436 1088
2021-06-18 10:30:14 GMT 48.519196 13.520367 36,525 123 437 1216
2021-06-18 10:30:11 GMT 48.522400 13.512972 36,100 123 437 1088
2021-06-18 10:30:08 GMT 48.525867 13.504944 36,450 123 436 1088
2021-06-18 10:30:06 GMT 48.527985 13.500014 36,375 122 437 1088
2021-06-18 10:30:03 GMT 48.531128 13.492729 36,350 122 437 1088
2021-06-18 10:30:00 GMT 48.534851 13.484239 36,300 123 437 1088
2021-06-18 10:29:57 GMT 48.538239 13.476281 36,250 123 437 1088
2021-06-18 10:29:53 GMT 48.546116 13.458107 36,075 123 437 1088
2021-06-18 10:29:49 GMT 48.546116 13.458107 36,050 123 437 1088
2021-06-18 10:29:46 GMT 48.550369 13.448252 36,050 123 437 1088
2021-06-18 10:29:44 GMT 48.551983 13.444591 35,975 123 437 1088
2021-06-18 10:29:41 GMT 48.559570 13.426955 35,950 123 437 1152
2021-06-18 10:29:38 GMT 48.559570 13.426955 35,875 123 437 1088
2021-06-18 10:29:35 GMT 48.561756 13.421896 35,825 123 437 1088
2021-06-18 10:29:32 GMT 48.565659 13.412828 35,775 123 437 1152
2021-06-18 10:29:29 GMT 48.568771 13.405644 35,700 123 438 1280
2021-06-18 10:29:26 GMT 48.571114 13.400140 35,675 123 438 1216
2021-06-18 10:29:23 GMT 48.574951 13.391348 35,500 122 440 1408
2021-06-18 10:29:20 GMT 48.578190 13.383805 35,475 123 438 1280
2021-06-18 10:29:17 GMT 48.581589 13.375854 35,450 123 438 1280
2021-06-18 10:29:14 GMT 48.585983 13.365784 35,400 122 439 1280
2021-06-18 10:29:11 GMT 48.588272 13.360361 35,300 122 439 1408
2021-06-18 10:29:08 GMT 48.591412 13.353014 35,250 122 439 1408
2021-06-18 10:29:05 GMT 48.595741 13.343040 35,175 122 440 1280
2021-06-18 10:29:02 GMT 48.599140 13.335017 35,125 122 440 1280
2021-06-18 10:28:59 GMT 48.601467 13.329669 35,050 122 441 1664
2021-06-18 10:28:56 GMT 48.604446 13.322658 34,975 122 440 1600
2021-06-18 10:28:53 GMT 48.608231 13.313739 34,925 122 441 1856
2021-06-18 10:28:50 GMT 48.615463 13.296978 34,800 122 442 1536
2021-06-18 10:28:47 GMT 48.615463 13.296978 34,625 122 444 1600
2021-06-18 10:28:42 GMT 48.621067 13.283844 34,550 122 445 1600
2021-06-18 10:28:39 GMT 48.623161 13.278929 34,525 122 444 1664
2021-06-18 10:28:36 GMT 48.627457 13.268949 34,300 122 446 1408
2021-06-18 10:28:33 GMT 48.630424 13.262016 34,375 122 445 1600
2021-06-18 10:28:30 GMT 48.633774 13.254210 34,325 122 446 1536
2021-06-18 10:28:27 GMT 48.637127 13.246331 33,700 122 446 1152
2021-06-18 10:28:25 GMT 48.639542 13.240779 34,125 122 446 1344
2021-06-18 10:28:22 GMT 48.643021 13.232680 34,100 122 446 1344
2021-06-18 10:28:19 GMT 48.646763 13.223925 34,050 122 446 1344
2021-06-18 10:28:16 GMT 48.653698 13.207662 33,550 122 446 1280
2021-06-18 10:28:13 GMT 48.653698 13.207662 33,775 122 446 1152
2021-06-18 10:28:10 GMT 48.657516 13.198772 33,850 122 446 1216
2021-06-18 10:28:07 GMT 48.659611 13.193785 33,825 122 446 1152
2021-06-18 10:28:04 GMT 48.667011 13.176510 33,725 122 446 1152
2021-06-18 10:28:00 GMT 48.667011 13.176510 33,650 122 446 1152
2021-06-18 10:27:57 GMT 48.670830 13.167620 33,600 122 446 1216
2021-06-18 10:27:55 GMT 48.672832 13.162922 33,550 122 446 1216
2021-06-18 10:27:52 GMT 48.676647 13.154032 33,500 122 446 1152
2021-06-18 10:27:49 GMT 48.678909 13.148663 33,450 122 446 1152
2021-06-18 10:27:46 GMT 48.683445 13.138131 33,350 122 446 1216
2021-06-18 10:27:43 GMT 48.686417 13.131197 33,275 122 444 0
2021-06-18 10:27:40 GMT 48.690617 13.121362 33,275 122 445 1216
2021-06-18 10:27:37 GMT 48.693008 13.115774 33,225 122 445 1216
2021-06-18 10:27:34 GMT 48.696350 13.107957 31,500 122 446 1728
2021-06-18 10:27:31 GMT 48.701019 13.096971 33,075 122 444 1216
2021-06-18 10:27:28 GMT 48.703419 13.091366 33,025 122 444 1280
2021-06-18 10:27:24 GMT 48.708862 13.078573 32,900 122 444 1280
2021-06-18 10:27:21 GMT 48.711044 13.073449 32,850 122 444 1280
2021-06-18 10:27:18 GMT 48.714542 13.065274 32,750 122 444 1280
2021-06-18 10:27:15 GMT 48.717819 13.057533 32,750 122 444 1280
2021-06-18 10:27:12 GMT 48.721619 13.048659 32,675 122 444 1280
2021-06-18 10:27:09 GMT 48.725052 13.040560 32,625 122 444 1408
2021-06-18 10:27:06 GMT 48.727856 13.033905 32,575 122 444 1344
2021-06-18 10:27:03 GMT 48.732239 13.023588 32,475 122 444 1408
2021-06-18 10:27:00 GMT 48.734421 13.018510 32,400 122 444 1408
2021-06-18 10:26:57 GMT 48.737686 13.010770 32,375 122 444 1344
2021-06-18 10:26:53 GMT 48.742195 13.000223 32,225 122 444 1472
2021-06-18 10:26:50 GMT 48.745560 12.992249 32,175 122 444 1472
2021-06-18 10:26:47 GMT 48.748901 12.984431 32,125 122 444 1472
2021-06-18 10:26:44 GMT 48.752747 12.975276 32,025 122 444 1472
2021-06-18 10:26:41 GMT 48.755135 12.969649 31,950 122 444 1472
2021-06-18 10:26:38 GMT 48.759140 12.960253 31,850 122 445 1472
2021-06-18 10:26:35 GMT 48.762405 12.952529 31,800 122 445 1472
2021-06-18 10:26:32 GMT 48.766205 12.943655 31,675 122 445 1472
2021-06-18 10:26:29 GMT 48.768776 12.937486 31,675 122 445 1536
2021-06-18 10:26:26 GMT 48.771744 12.930556 31,600 122 445 1536
2021-06-18 10:26:22 GMT 48.777374 12.917175 31,475 122 445 1536
2021-06-18 10:26:18 GMT 48.783005 12.903795 31,350 122 445 1664
2021-06-18 10:26:15 GMT 48.784744 12.899684 31,350 122 445 1664
2021-06-18 10:26:12 GMT 48.788376 12.891083 31,225 122 446 1728
2021-06-18 10:26:08 GMT 48.791656 12.883301 31,050 122 446 1728
2021-06-18 10:26:05 GMT 48.795124 12.875037 30,975 122 446 1728
2021-06-18 10:26:02 GMT 48.799129 12.865568 30,900 122 446 1728
2021-06-18 10:25:59 GMT 48.801727 12.859356 30,725 122 446 1792
2021-06-18 10:25:55 GMT 48.808437 12.843379 29,775 122 452 1856
2021-06-18 10:25:51 GMT 48.810673 12.838103 30,375 122 448 1792
2021-06-18 10:25:48 GMT 48.813885 12.830513 30,500 122 448 1792
2021-06-18 10:25:45 GMT 48.817005 12.823069 30,375 122 448 1920
2021-06-18 10:25:42 GMT 48.820953 12.813721 30,300 122 449 1856
2021-06-18 10:25:39 GMT 48.824219 12.805866 30,200 122 449 1856
2021-06-18 10:25:36 GMT 48.827728 12.797523 29,700 122 451 1856
2021-06-18 10:25:32 GMT 48.833084 12.784846 30,000 122 450 1856
2021-06-18 10:25:28 GMT 48.836044 12.777822 29,900 122 450 1856
2021-06-18 10:25:25 GMT 48.839905 12.768578 29,775 122 452 1856
2021-06-18 10:25:20 GMT 48.845947 12.754211 29,600 122 451 1856
2021-06-18 10:25:17 GMT 48.849884 12.744915 29,500 122 452 1856
2021-06-18 10:25:14 GMT 48.857224 12.727372 29,425 122 452 1728
2021-06-18 10:25:10 GMT 48.857224 12.727372 29,275 122 452 1472
2021-06-18 10:25:07 GMT 48.860435 12.719638 29,275 122 451 1280
2021-06-18 10:25:03 GMT 48.864952 12.708941 29,150 122 451 1280
2021-06-18 10:25:00 GMT 48.868332 12.700829 29,100 122 451 1280
2021-06-18 10:24:57 GMT 48.871658 12.692967 29,000 122 450 1216
2021-06-18 10:24:54 GMT 48.874512 12.686110 28,975 122 450 1280
2021-06-18 10:24:51 GMT 48.881516 12.669349 28,900 122 450 1280
2021-06-18 10:24:48 GMT 48.881516 12.669349 28,875 122 449 1280
2021-06-18 10:24:44 GMT 48.886181 12.658346 28,775 122 449 1280
2021-06-18 10:24:41 GMT 48.889023 12.651602 28,650 122 447 1280
2021-06-18 10:24:38 GMT 48.892185 12.644035 28,650 122 447 1280
2021-06-18 10:24:35 GMT 48.895630 12.635795 28,400 122 446 1216
2021-06-18 10:24:32 GMT 48.902939 12.618304 28,175 122 447 1344
2021-06-18 10:24:29 GMT 48.902939 12.618304 28,450 122 446 1280
2021-06-18 10:24:26 GMT 48.905220 12.612811 28,375 122 446 1216
2021-06-18 10:24:23 GMT 48.908993 12.603776 28,300 122 445 1280
2021-06-18 10:24:20 GMT 48.912064 12.596403 28,200 122 444 1344
2021-06-18 10:24:17 GMT 48.916161 12.586646 28,175 122 444 1344
2021-06-18 10:24:14 GMT 48.918907 12.580068 28,125 122 444 1344
2021-06-18 10:24:11 GMT 48.922211 12.572190 28,050 122 443 1280
2021-06-18 10:24:08 GMT 48.925144 12.565107 28,000 122 442 1280
2021-06-18 10:24:05 GMT 48.927933 12.558359 28,000 122 442 1280
2021-06-18 10:24:02 GMT 48.932739 12.546809 27,875 122 442 1408
2021-06-18 10:23:59 GMT 48.934845 12.541880 27,750 122 441 1408
2021-06-18 10:23:56 GMT 48.938324 12.533499 27,725 122 441 1472
2021-06-18 10:23:53 GMT 48.942123 12.524344 27,675 122 441 1472
2021-06-18 10:23:50 GMT 48.945740 12.515681 27,550 122 440 1472
2021-06-18 10:23:47 GMT 48.949539 12.506526 27,400 122 438 1280
2021-06-18 10:23:44 GMT 48.951920 12.500822 27,375 122 438 1344
2021-06-18 10:23:41 GMT 48.956039 12.490892 27,350 122 438 1344
2021-06-18 10:23:38 GMT 48.958153 12.485817 27,300 122 436 1408
2021-06-18 10:23:35 GMT 48.961761 12.477159 27,200 122 437 1472
2021-06-18 10:23:32 GMT 48.967182 12.463989 27,150 122 437 1472
2021-06-18 10:23:29 GMT 48.967182 12.463989 26,075 122 436 1472
2021-06-18 10:23:26 GMT 48.971184 12.454448 27,025 122 436 1472
2021-06-18 10:23:22 GMT 48.974628 12.446136 26,850 122 434 1472
2021-06-18 10:23:19 GMT 48.978493 12.436813 26,825 122 434 1472
2021-06-18 10:23:16 GMT 48.982407 12.427439 26,725 122 433 1536
2021-06-18 10:23:13 GMT 48.985245 12.420622 26,725 122 433 1536
2021-06-18 10:23:09 GMT 48.990692 12.407467 26,600 122 432 1600
2021-06-18 10:23:06 GMT 48.991760 12.404938 26,550 122 432 1536
2021-06-18 10:23:03 GMT 48.995346 12.396192 26,425 122 431 1344
2021-06-18 10:23:00 GMT 48.998650 12.388241 26,325 122 430 1472
2021-06-18 10:22:57 GMT 49.001724 12.380797 26,300 122 430 1600
2021-06-18 10:22:54 GMT 49.005478 12.371732 24,525 122 429 1664
2021-06-18 10:22:51 GMT 49.011780 12.356583 26,125 122 428 1536
2021-06-18 10:22:48 GMT 49.011780 12.356583 26,025 122 427 1536
2021-06-18 10:22:45 GMT 49.014942 12.348922 25,975 122 427 1600
2021-06-18 10:22:42 GMT 49.017551 12.342561 25,925 122 427 1600
2021-06-18 10:22:38 GMT 49.021694 12.332659 25,775 122 426 1600
2021-06-18 10:22:35 GMT 49.024979 12.324688 25,725 122 426 1536
2021-06-18 10:22:32 GMT 49.028305 12.316686 25,650 122 425 1536
2021-06-18 10:22:28 GMT 49.032078 12.307579 25,525 122 425 1664
2021-06-18 10:22:25 GMT 49.036125 12.297676 25,125 122 420 1792
2021-06-18 10:22:22 GMT 49.038731 12.291388 25,375 122 423 1664
2021-06-18 10:22:18 GMT 49.043564 12.279616 25,225 122 422 1664
2021-06-18 10:22:15 GMT 49.045528 12.274981 25,175 122 422 1728
2021-06-18 10:22:12 GMT 49.049423 12.265531 25,100 122 421 1728
2021-06-18 10:22:09 GMT 49.051666 12.260038 24,825 122 420 1728
2021-06-18 10:22:06 GMT 49.055328 12.251235 24,875 122 419 1728
2021-06-18 10:22:03 GMT 49.058945 12.242502 24,775 122 420 1728
2021-06-18 10:22:00 GMT 49.061737 12.235741 24,700 122 419 1728
2021-06-18 10:21:57 GMT 49.065445 12.226727 24,550 122 418 1792
2021-06-18 10:21:54 GMT 49.068329 12.219755 24,550 122 418 1792
2021-06-18 10:21:51 GMT 49.070854 12.213617 24,450 122 417 1728
2021-06-18 10:21:48 GMT 49.074158 12.205666 24,400 122 417 1728
2021-06-18 10:21:45 GMT 49.076717 12.199450 24,325 122 417 1728
2021-06-18 10:21:42 GMT 49.080139 12.191162 24,200 122 415 1856
2021-06-18 10:21:39 GMT 49.083191 12.183838 24,100 122 415 1920
2021-06-18 10:21:36 GMT 49.086411 12.176021 24,025 122 415 1920
2021-06-18 10:21:32 GMT 49.093712 12.158396 23,875 122 414 1728
2021-06-18 10:21:29 GMT 49.093712 12.158396 23,550 122 412 1984
2021-06-18 10:21:26 GMT 49.097305 12.149611 23,700 122 413 1728
2021-06-18 10:21:22 GMT 49.099808 12.143579 23,650 122 413 1856
2021-06-18 10:21:19 GMT 49.106140 12.128202 23,425 122 412 2048
2021-06-18 10:21:16 GMT 49.106140 12.128202 23,375 122 412 1984
2021-06-18 10:21:13 GMT 49.109913 12.119004 23,275 121 411 1728
2021-06-18 10:21:10 GMT 49.112000 12.113976 23,250 122 410 1728
2021-06-18 10:21:06 GMT 49.119919 12.094609 23,075 122 409 1792
2021-06-18 10:21:03 GMT 49.119919 12.094609 23,025 122 409 1984
2021-06-18 10:21:00 GMT 49.122940 12.087285 22,925 122 408 2048
2021-06-18 10:20:57 GMT 49.126297 12.079179 22,800 121 407 1920
2021-06-18 10:20:54 GMT 49.128391 12.074047 22,700 122 407 1856
2021-06-18 10:20:51 GMT 49.131886 12.065518 22,500 122 404 1664
2021-06-18 10:20:48 GMT 49.134842 12.058340 22,525 122 404 1728
2021-06-18 10:20:45 GMT 49.137890 12.050990 22,400 121 404 1408
2021-06-18 10:20:42 GMT 49.140308 12.044919 22,375 118 400 1664
2021-06-18 10:20:39 GMT 49.143661 12.036390 22,325 119 401 1472
2021-06-18 10:20:35 GMT 49.147247 12.026649 22,200 116 399 1728
2021-06-18 10:20:32 GMT 49.150543 12.016930 22,025 115 397 1664
2021-06-18 10:20:29 GMT 49.152180 12.011743 22,000 115 397 1664
2021-06-18 10:20:26 GMT 49.155029 12.002493 21,925 115 396 1728
2021-06-18 10:20:23 GMT 49.156311 11.998408 21,850 115 395 1792
2021-06-18 10:20:20 GMT 49.159443 11.988180 21,725 115 394 1792
2021-06-18 10:20:17 GMT 49.161255 11.982281 21,550 115 393 1856
2021-06-18 10:20:14 GMT 49.164471 11.971845 21,575 115 392 1856
2021-06-18 10:20:10 GMT 49.167637 11.961582 21,425 115 390 1984
2021-06-18 10:20:07 GMT 49.169037 11.956998 21,350 115 390 1984
2021-06-18 10:20:04 GMT 49.171219 11.949872 21,300 115 390 2048
2021-06-18 10:20:00 GMT 49.174347 11.939815 21,025 115 389 2240
2021-06-18 10:19:57 GMT 49.176666 11.932237 20,975 115 389 2304
2021-06-18 10:19:54 GMT 49.178947 11.924792 20,850 115 389 2560
2021-06-18 10:19:51 GMT 49.181881 11.915396 20,725 115 389 2560
2021-06-18 10:19:48 GMT 49.183788 11.909180 20,600 115 389 2560
2021-06-18 10:19:45 GMT 49.186340 11.900870 20,475 115 389 2560
2021-06-18 10:19:42 GMT 49.188164 11.894941 20,300 115 389 2688
2021-06-18 10:19:39 GMT 49.190678 11.886846 20,150 115 390 3072
2021-06-18 10:19:36 GMT 49.193298 11.878263 20,000 115 390 3200
2021-06-18 10:19:33 GMT 49.194763 11.873545 19,850 115 391 3136
2021-06-18 10:19:30 GMT 49.197334 11.865234 19,725 115 393 3072
2021-06-18 10:19:27 GMT 49.202454 11.848544 19,550 115 393 3072
2021-06-18 10:19:24 GMT 49.202454 11.848544 19,400 115 394 3136
2021-06-18 10:19:21 GMT 49.206459 11.835600 19,200 115 395 3136
2021-06-18 10:19:18 GMT 49.206459 11.835600 19,200 115 395 3136
2021-06-18 10:19:14 GMT 49.209961 11.824106 18,850 114 395 3136
2021-06-18 10:19:11 GMT 49.212067 11.817275 18,800 115 396 3200
2021-06-18 10:19:08 GMT 49.214001 11.810809 18,675 115 397 3136
2021-06-18 10:19:05 GMT 49.216919 11.801288 18,425 114 397 2944
2021-06-18 10:19:02 GMT 49.218891 11.794835 18,100 114 398 2560
2021-06-18 10:18:59 GMT 49.221680 11.785513 18,200 114 398 2688
2021-06-18 10:18:56 GMT 49.223732 11.778717 18,025 114 397 2560
2021-06-18 10:18:53 GMT 49.226166 11.770724 17,775 114 396 2560
2021-06-18 10:18:50 GMT 49.228729 11.762061 17,775 114 396 2560
2021-06-18 10:18:47 GMT 49.230991 11.754504 17,650 114 396 2560
2021-06-18 10:18:44 GMT 49.233322 11.746625 17,425 113 393 2176
2021-06-18 10:18:39 GMT 49.237000 11.734121 17,225 113 394 2304
2021-06-18 10:18:36 GMT 49.238537 11.728773 17,225 113 394 2240
2021-06-18 10:18:33 GMT 49.241821 11.717412 17,050 113 393 2176
2021-06-18 10:18:28 GMT 49.244724 11.707378 16,975 113 392 2176
2021-06-18 10:18:24 GMT 49.247589 11.697341 16,800 113 390 2240
2021-06-18 10:18:21 GMT 49.250061 11.688467 16,700 112 389 2368
2021-06-18 10:18:18 GMT 49.255005 11.670509 16,475 112 387 2496
2021-06-18 10:18:13 GMT 49.255005 11.670509 16,325 112 387 2368
2021-06-18 10:18:09 GMT 49.258133 11.658952 16,200 112 385 2048
2021-06-18 10:18:06 GMT 49.262238 11.643465 16,150 111 384 1920
2021-06-18 10:18:03 GMT 49.262238 11.643465 16,025 111 377 1024
2021-06-18 10:18:00 GMT 49.263931 11.636986 15,950 111 379 1408
2021-06-18 10:17:57 GMT 49.265808 11.629733 15,950 111 379 1408
2021-06-18 10:17:54 GMT 49.267914 11.621493 15,825 111 371 704
2021-06-18 10:17:51 GMT 49.270283 11.612549 15,825 112 369 640
2021-06-18 10:17:48 GMT 49.271542 11.607706 15,800 112 366 640
2021-06-18 10:17:45 GMT 49.273449 11.600478 15,775 113 362 768
2021-06-18 10:17:42 GMT 49.275192 11.594168 15,750 114 359 896
2021-06-18 10:17:39 GMT 49.277252 11.586984 15,425 141 340 960
2021-06-18 10:17:36 GMT 49.279362 11.580529 15,650 121 353 832
2021-06-18 10:17:33 GMT 49.282242 11.573181 15,550 132 345 1024
2021-06-18 10:17:30 GMT 49.285767 11.565787 15,550 132 345 1024
2021-06-18 10:17:27 GMT 49.287872 11.562124 15,500 137 342 1024
2021-06-18 10:17:24 GMT 49.290955 11.557400 15,450 145 337 768
2021-06-18 10:17:21 GMT 49.295887 11.551401 15,425 163 324 2560
2021-06-18 10:17:17 GMT 49.301376 11.546349 15,375 155 329 704
2021-06-18 10:17:13 GMT 49.305847 11.543089 15,225 161 325 2240
2021-06-18 10:17:10 GMT 49.311390 11.539909 15,125 162 325 2496
2021-06-18 10:17:07 GMT 49.314369 11.538463 15,025 163 324 2560
2021-06-18 10:17:04 GMT 49.318634 11.536560 14,900 163 322 2560
2021-06-18 10:17:01 GMT 49.323944 11.534166 14,750 163 322 2560
2021-06-18 10:16:58 GMT 49.326920 11.532828 14,700 163 321 2560
2021-06-18 10:16:55 GMT 49.332291 11.530440 14,500 163 320 2816
2021-06-18 10:16:51 GMT 49.338017 11.527911 14,200 164 320 3008
2021-06-18 10:16:48 GMT 49.341934 11.526208 14,125 163 320 3008
2021-06-18 10:16:45 GMT 49.346329 11.524306 13,775 163 319 3200
2021-06-18 10:16:42 GMT 49.351376 11.522056 13,175 163 319 3072
2021-06-18 10:16:38 GMT 49.357616 11.519237 13,625 162 320 3648
2021-06-18 10:16:34 GMT 49.366013 11.515362 13,200 162 321 3648
2021-06-18 10:16:31 GMT 49.366013 11.515362 13,175 162 321 3712
2021-06-18 10:16:28 GMT 49.370407 11.513320 13,000 162 321 3712
2021-06-18 10:16:25 GMT 49.376190 11.510564 12,825 162 323 3840
2021-06-18 10:16:21 GMT 49.380424 11.508468 12,550 162 324 3776
2021-06-18 10:16:18 GMT 49.384567 11.506444 11,375 148 321 3008
2021-06-18 10:16:15 GMT 49.388809 11.504376 12,225 162 325 3392
2021-06-18 10:16:12 GMT 49.393066 11.502263 12,125 162 325 3200
2021-06-18 10:16:08 GMT 49.398239 11.499728 11,475 151 320 2816
2021-06-18 10:16:04 GMT 49.404446 11.496614 11,675 160 324 3072
2021-06-18 10:16:01 GMT 49.408218 11.494657 11,575 159 324 2816
2021-06-18 10:15:58 GMT 49.413254 11.491699 11,425 154 322 2688
2021-06-18 10:15:54 GMT 49.418694 11.487652 11,225 148 321 3008
2021-06-18 10:15:51 GMT 49.421951 11.484657 11,100 129 320 2368
2021-06-18 10:15:48 GMT 49.425442 11.481002 10,800 137 321 3264
2021-06-18 10:15:45 GMT 49.429493 11.475962 10,700 131 320 2816
2021-06-18 10:15:42 GMT 49.432709 11.471028 10,525 128 319 2240
2021-06-18 10:15:39 GMT 49.435963 11.464753 10,525 121 314 1088
2021-06-18 10:15:36 GMT 49.438477 11.458889 10,475 119 311 768
2021-06-18 10:15:33 GMT 49.439941 11.454982 10,450 118 308 832
2021-06-18 10:15:29 GMT 49.443283 11.445586 10,325 118 302 1984
2021-06-18 10:15:25 GMT 49.445553 11.439069 10,150 118 298 2432
2021-06-18 10:15:22 GMT 49.447632 11.433154 10,075 118 298 2432
2021-06-18 10:15:19 GMT 49.448997 11.429344 9,950 118 295 2496
2021-06-18 10:15:16 GMT 49.453747 11.415908 9,750 118 294 2816
2021-06-18 10:15:13 GMT 49.453747 11.415908 9,650 118 293 3072
2021-06-18 10:15:10 GMT 49.454819 11.412916 9,575 118 293 3200
2021-06-18 10:15:07 GMT 49.457096 11.406629 9,350 119 288 2624
2021-06-18 10:15:04 GMT 49.459240 11.400691 9,225 119 290 2624
2021-06-18 10:15:01 GMT 49.461147 11.395420 9,125 119 288 2624
2021-06-18 10:14:57 GMT 49.463802 11.388368 8,775 119 284 2816
2021-06-18 10:14:53 GMT 49.466537 11.380896 8,725 119 284 2944
2021-06-18 10:14:49 GMT 49.468964 11.374464 8,475 119 281 3200
2021-06-18 10:14:46 GMT 49.471062 11.368994 8,375 117 280 3264
2021-06-18 10:14:41 GMT 49.473904 11.360903 8,100 112 280 3456
2021-06-18 10:14:38 GMT 49.475418 11.355960 7,725 112 280 3456
2021-06-18 10:14:35 GMT 49.476974 11.350467 7,800 110 280 3456
2021-06-18 10:14:31 GMT 49.479069 11.341380 7,525 104 280 3264
2021-06-18 10:14:27 GMT 49.480270 11.334349 7,150 100 279 3136
2021-06-18 10:14:24 GMT 49.481140 11.327699 7,150 96 278 3136
2021-06-18 10:14:21 GMT 49.481628 11.321708 6,950 92 278 3200
2021-06-18 10:14:18 GMT 49.481827 11.316713 6,850 91 278 3200
2021-06-18 10:14:14 GMT 49.482056 11.306811 6,550 91 276 3264
2021-06-18 10:14:10 GMT 49.482098 11.302185 6,450 91 276 3264
2021-06-18 10:14:06 GMT 49.482193 11.294307 6,225 91 275 3200
2021-06-18 10:14:03 GMT 49.482281 11.287561 5,875 91 273 3200
2021-06-18 10:14:00 GMT 49.482376 11.281441 5,875 91 273 3200
2021-06-18 10:13:56 GMT 49.482513 11.272117 5,625 91 272 3264
2021-06-18 10:13:50 GMT 49.482655 11.262991 5,375 93 270 3072
2021-06-18 10:13:46 GMT 49.483028 11.254157 5,050 97 268 3328
2021-06-18 10:13:43 GMT 49.483353 11.249258 4,950 97 267 3520
2021-06-18 10:13:40 GMT 49.483864 11.243022 4,800 98 267 3584
2021-06-18 10:13:37 GMT 49.484299 11.238580 4,650 97 267 3712
2021-06-18 10:13:34 GMT 49.484844 11.232704 4,475 97 268 3584
2021-06-18 10:13:30 GMT 49.485588 11.224019 4,225 97 266 3072
2021-06-18 10:13:25 GMT 49.486496 11.213427 3,950 98 264 2816
2021-06-18 10:13:22 GMT 49.486843 11.209618 3,875 98 262 2688
2021-06-18 10:13:18 GMT 49.487732 11.200851 3,650 98 258 2560
2021-06-18 10:13:14 GMT 49.488281 11.195068 3,525 98 255 2240
2021-06-18 10:13:10 GMT 49.489079 11.187051 3,375 98 249 1984
2021-06-18 10:13:07 GMT 49.489517 11.182926 3,250 98 242 1856
2021-06-18 10:13:04 GMT 49.490112 11.176854 3,175 98 239 1792
2021-06-18 10:13:01 GMT 49.490616 11.171650 3,050 98 233 1792
2021-06-18 10:12:57 GMT 49.491268 11.165227 2,950 98 226 1344
2021-06-18 10:12:54 GMT 49.491825 11.159140 2,900 98 222 1216
2021-06-18 10:12:50 GMT 49.492355 11.153436 2,800 97 213 1344
2021-06-18 10:12:45 GMT 49.493034 11.145704 2,675 97 204 1728
2021-06-18 10:12:42 GMT 49.493454 11.141076 2,575 97 203 1856
2021-06-18 10:12:39 GMT 49.493683 11.138041 2,525 96 200 1728
2021-06-18 10:12:35 GMT 49.494106 11.132342 2,425 96 190 1088
2021-06-18 10:12:31 GMT 49.494526 11.127220 2,350 96 186 1344
2021-06-18 10:12:27 GMT 49.494991 11.120614 2,200 96 181 2176
2021-06-18 10:12:23 GMT 49.495331 11.115707 2,025 96 179 2944
2021-06-18 10:12:19 GMT 49.495651 11.111659 1,875 97 179 3136
We lost coverage of the aircraft here for a total of 95 minutes
2021-06-18 08:37:31 GMT 49.499634 11.068653 925 98 140 64
2021-06-18 08:37:27 GMT 49.500000 11.064533 950 98 147 -256
2021-06-18 08:37:22 GMT 49.500504 11.059691 1,000 98 147 -512
2021-06-18 08:37:19 GMT 49.500858 11.056032 1,075 98 146 -704
2021-06-18 08:37:16 GMT 49.501190 11.052824 1,075 98 148 -768
2021-06-18 08:37:09 GMT 49.501877 11.045741 1,175 98 148 -832
2021-06-18 08:37:05 GMT 49.502209 11.042373 1,200 98 149 -768
2021-06-18 08:36:59 GMT 49.502907 11.035247 1,300 98 149 -832
2021-06-18 08:36:56 GMT 49.503250 11.031647 1,350 98 149 -832
2021-06-18 08:36:51 GMT 49.503662 11.027382 1,400 98 149 -576
2021-06-18 08:36:47 GMT 49.504211 11.021889 1,450 98 148 -576
2021-06-18 08:36:43 GMT 49.504440 11.019213 1,500 98 148 -576
2021-06-18 08:36:40 GMT 49.504768 11.016169 1,550 98 148 -768
2021-06-18 08:36:37 GMT 49.505093 11.012903 1,575 98 150 -640
2021-06-18 08:36:34 GMT 49.505421 11.009637 1,600 98 149 -640
2021-06-18 08:36:27 GMT 49.506165 11.001843 1,675 98 160 -768
2021-06-18 08:36:24 GMT 49.506489 10.998873 1,700 98 159 -704
2021-06-18 08:36:18 GMT 49.507187 10.991896 1,825 98 161 -896
2021-06-18 08:36:15 GMT 49.507645 10.987485 1,850 98 163 -896
2021-06-18 08:36:08 GMT 49.508331 10.980474 1,950 98 167 -896
2021-06-18 08:36:05 GMT 49.508583 10.977643 2,025 98 169 -768
2021-06-18 08:36:02 GMT 49.508926 10.974041 2,025 98 169 -768
2021-06-18 08:35:58 GMT 49.509468 10.968067 2,100 98 172 -960
2021-06-18 08:35:53 GMT 49.510029 10.962054 2,175 98 174 -896
2021-06-18 08:35:50 GMT 49.510353 10.958862 2,200 98 177 -832
2021-06-18 08:35:46 GMT 49.510986 10.952574 2,300 99 180 -1024
2021-06-18 08:35:42 GMT 49.511471 10.947802 2,350 98 183 -960
2021-06-18 08:35:38 GMT 49.511948 10.942889 2,425 98 185 -1088
2021-06-18 08:35:34 GMT 49.512402 10.938374 2,475 98 188 -960
2021-06-18 08:35:31 GMT 49.512821 10.934143 2,550 98 191 -960
2021-06-18 08:35:28 GMT 49.513321 10.928650 2,600 98 194 -1024
2021-06-18 08:35:23 GMT 49.513916 10.922362 2,675 98 197 -1024
2021-06-18 08:35:20 GMT 49.514236 10.919326 2,700 98 199 -1024
2021-06-18 08:35:17 GMT 49.514637 10.915065 2,750 98 201 -1024
2021-06-18 08:35:14 GMT 49.514969 10.911448 2,800 98 204 -896
2021-06-18 08:35:11 GMT 49.515564 10.905593 2,875 98 207 -1088
2021-06-18 08:35:07 GMT 49.516068 10.900317 2,925 98 209 -1088
2021-06-18 08:35:02 GMT 49.516708 10.893233 3,025 98 212 -1152
2021-06-18 08:34:57 GMT 49.517429 10.885595 3,125 98 215 -1152
2021-06-18 08:34:52 GMT 49.518219 10.877621 3,225 98 218 -1216
2021-06-18 08:34:45 GMT 49.519154 10.867928 3,375 98 223 -1216
2021-06-18 08:34:42 GMT 49.519821 10.861142 3,450 98 226 -1152
2021-06-18 08:34:37 GMT 49.520596 10.853527 3,525 98 230 -1088
2021-06-18 08:34:34 GMT 49.521015 10.849444 3,575 99 232 -1088
2021-06-18 08:34:30 GMT 49.521526 10.844397 3,650 98 236 -1152
2021-06-18 08:34:25 GMT 49.522503 10.834672 3,775 98 243 -1216
2021-06-18 08:34:21 GMT 49.523300 10.826593 3,875 97 246 -1472
2021-06-18 08:34:17 GMT 49.523849 10.820304 3,975 96 248 -1664
2021-06-18 08:34:14 GMT 49.524124 10.816618 4,100 95 251 -1984
2021-06-18 08:34:10 GMT 49.524693 10.808394 4,175 95 251 -2048
2021-06-18 08:34:04 GMT 49.525269 10.798693 4,400 94 252 -2560
2021-06-18 08:33:59 GMT 49.525772 10.789875 4,675 94 253 -2368
2021-06-18 08:33:56 GMT 49.526089 10.783526 4,775 95 256 -1984
2021-06-18 08:33:53 GMT 49.526459 10.777082 4,850 96 257 -1792
2021-06-18 08:33:48 GMT 49.527161 10.767864 5,000 104 260 -2240
2021-06-18 08:33:45 GMT 49.527531 10.764375 5,050 102 261 -2048
2021-06-18 08:33:42 GMT 49.528229 10.759104 5,175 107 261 -2368
2021-06-18 08:33:38 GMT 49.529709 10.751857 5,325 113 263 -2240
2021-06-18 08:33:35 GMT 49.531219 10.746580 5,500 121 269 -1216
2021-06-18 08:33:32 GMT 49.532978 10.741437 5,475 123 271 -1024
2021-06-18 08:33:29 GMT 49.535385 10.735883 5,550 131 274 -1216
2021-06-18 08:33:24 GMT 49.539726 10.728372 5,650 133 275 -1408
2021-06-18 08:33:19 GMT 49.544586 10.720488 5,775 133 277 -1408
2021-06-18 08:33:14 GMT 49.548294 10.714489 5,875 133 277 -1408
2021-06-18 08:33:11 GMT 49.550262 10.711381 5,925 133 278 -1536
2021-06-18 08:33:05 GMT 49.556114 10.702020 6,175 136 281 -1600
2021-06-18 08:33:02 GMT 49.559921 10.696130 6,225 137 282 -1536
2021-06-18 08:32:58 GMT 49.563332 10.691330 6,300 142 285 -1152
2021-06-18 08:32:54 GMT 49.566914 10.687173 6,375 151 291 -1024
2021-06-18 08:32:51 GMT 49.570175 10.683915 6,425 150 290 -1088
2021-06-18 08:32:47 GMT 49.574551 10.680047 6,475 151 292 -1024
2021-06-18 08:32:44 GMT 49.577854 10.677301 6,600 151 296 -1024
2021-06-18 08:32:40 GMT 49.582558 10.673440 6,600 151 297 -1024
2021-06-18 08:32:34 GMT 49.590042 10.667291 6,700 151 302 -1152
2021-06-18 08:32:30 GMT 49.595718 10.662593 6,800 151 308 -1152
2021-06-18 08:32:25 GMT 49.602665 10.656961 6,900 151 309 -1152
2021-06-18 08:32:20 GMT 49.607971 10.652581 7,000 152 313 -1216
2021-06-18 08:32:17 GMT 49.612675 10.648647 7,050 152 315 -1216
2021-06-18 08:32:13 GMT 49.617470 10.644787 7,125 152 322 -1344
2021-06-18 08:32:09 GMT 49.623550 10.639897 7,225 152 322 -1344
2021-06-18 08:32:04 GMT 49.629089 10.635416 7,325 152 325 -1280
2021-06-18 08:31:59 GMT 49.635773 10.630140 7,425 152 330 -1280
2021-06-18 08:31:54 GMT 49.642548 10.624719 7,525 152 334 -1280
2021-06-18 08:31:50 GMT 49.647869 10.620513 7,925 152 337 -1344
2021-06-18 08:31:45 GMT 49.656372 10.613733 7,775 152 342 -1664
2021-06-18 08:31:42 GMT 49.659832 10.611011 7,875 152 345 -2048
2021-06-18 08:31:39 GMT 49.673798 10.599728 7,975 152 347 -2688
2021-06-18 08:31:31 GMT 49.673798 10.599728 8,125 152 346 -2304
2021-06-18 08:31:28 GMT 49.678299 10.596169 8,325 152 347 -2688
2021-06-18 08:31:22 GMT 49.687344 10.588890 8,550 152 348 -2752
2021-06-18 08:31:19 GMT 49.691116 10.585833 8,750 152 351 -2496
2021-06-18 08:31:13 GMT 49.699860 10.578750 9,000 152 351 -2496
2021-06-18 08:31:09 GMT 49.705765 10.573979 9,850 152 373 -1536
2021-06-18 08:31:02 GMT 49.715649 10.566027 9,475 152 358 -1728
2021-06-18 08:30:59 GMT 49.720825 10.561837 9,525 152 359 -1664
2021-06-18 08:30:54 GMT 49.728470 10.555621 9,650 152 364 -1280
2021-06-18 08:30:51 GMT 49.731522 10.553185 9,750 152 368 -1344
2021-06-18 08:30:48 GMT 49.735931 10.549622 9,850 152 377 -1600
2021-06-18 08:30:44 GMT 49.746513 10.541085 9,975 152 375 -1536
2021-06-18 08:30:41 GMT 49.746513 10.541085 9,975 152 380 -1792
2021-06-18 08:30:39 GMT 49.751308 10.537225 10,025 152 380 -1792
2021-06-18 08:30:38 GMT 49.752098 10.536631 10,050 152 380 -1792
2021-06-18 08:30:35 GMT 49.757126 10.532564 10,150 152 382 -2112
2021-06-18 08:30:34 GMT 49.758865 10.531191 10,200 152 382 -2112
2021-06-18 08:30:32 GMT 49.761841 10.528805 10,225 152 382 -2176
2021-06-18 08:30:28 GMT 49.766949 10.524754 10,475 152 385 -3264
2021-06-18 08:30:24 GMT 49.779007 10.515178 10,725 152 385 -3264
2021-06-18 08:30:21 GMT 49.779007 10.515178 10,850 152 386 -3264
2021-06-18 08:30:18 GMT 49.783035 10.511964 10,975 152 386 -3328
2021-06-18 08:30:15 GMT 49.789352 10.506833 13,775 152 386 -3776
2021-06-18 08:30:12 GMT 49.792694 10.504158 11,700 152 386 -3648
2021-06-18 08:30:09 GMT 49.796814 10.500834 11,500 152 385 -3840
2021-06-18 08:30:06 GMT 49.801910 10.496620 12,000 152 385 -3712
2021-06-18 08:30:03 GMT 49.807709 10.491943 12,000 152 384 -3712
2021-06-18 08:30:00 GMT 49.811687 10.488677 13,250 152 384 -3584
2021-06-18 08:29:56 GMT 49.817780 10.483704 12,300 152 385 -3712
2021-06-18 08:29:53 GMT 49.823090 10.479367 12,575 152 384 -3776
2021-06-18 08:29:50 GMT 49.827747 10.475612 12,700 152 384 -3712
2021-06-18 08:29:47 GMT 49.831703 10.472420 13,025 152 384 -3648
2021-06-18 08:29:44 GMT 49.837196 10.467966 13,150 152 384 -3648
2021-06-18 08:29:41 GMT 49.841858 10.464188 13,300 152 384 -3712
2021-06-18 08:29:38 GMT 49.847439 10.459727 13,450 152 384 -3584
2021-06-18 08:29:34 GMT 49.852249 10.455804 13,725 152 385 -3200
2021-06-18 08:29:31 GMT 49.857819 10.451264 13,975 152 386 -3072
2021-06-18 08:29:28 GMT 49.862366 10.447637 14,050 152 387 -3200
2021-06-18 08:29:25 GMT 49.867126 10.443806 14,200 152 386 -3456
2021-06-18 08:29:22 GMT 49.871784 10.440055 14,625 152 390 -3008
2021-06-18 08:29:19 GMT 49.878304 10.434785 14,625 152 390 -3008
2021-06-18 08:29:16 GMT 49.881088 10.432603 14,625 152 390 -3008
2021-06-18 08:29:14 GMT 49.889477 10.425803 14,900 152 390 -3008
2021-06-18 08:29:11 GMT 49.889477 10.425803 14,900 152 391 -2944
2021-06-18 08:29:09 GMT 49.892826 10.423130 15,000 152 391 -2944
2021-06-18 08:29:06 GMT 49.897015 10.419716 15,125 152 392 -3136
2021-06-18 08:29:05 GMT 49.899250 10.417934 15,200 152 392 -3136
2021-06-18 08:29:04 GMT 49.900227 10.417118 15,225 152 394 -3200
2021-06-18 08:29:02 GMT 49.904419 10.413777 15,375 152 394 -3264
2021-06-18 08:28:59 GMT 49.909012 10.409980 15,575 152 394 -3264
2021-06-18 08:28:58 GMT 49.910477 10.408823 15,575 152 395 -3264
2021-06-18 08:28:57 GMT 49.915405 10.404795 15,650 152 395 -3264
2021-06-18 08:28:55 GMT 49.915405 10.404795 15,750 152 396 -3264
2021-06-18 08:28:54 GMT 49.916931 10.403547 15,800 152 396 -3200
2021-06-18 08:28:52 GMT 49.919495 10.401451 15,900 152 398 -3328
2021-06-18 08:28:51 GMT 49.921875 10.399525 15,975 152 398 -3328
2021-06-18 08:28:49 GMT 49.926903 10.395442 16,225 152 398 -3328
2021-06-18 08:28:46 GMT 49.929245 10.393500 16,225 152 398 -3328
2021-06-18 08:28:45 GMT 49.931141 10.392027 16,275 152 398 -3328
2021-06-18 08:28:44 GMT 49.934464 10.389308 16,400 152 399 -3328
2021-06-18 08:28:41 GMT 49.941650 10.383453 16,600 152 400 -3200
2021-06-18 08:28:39 GMT 49.941650 10.383453 16,625 152 400 -3200
2021-06-18 08:28:38 GMT 49.943298 10.382152 16,675 152 402 -3136
2021-06-18 08:28:37 GMT 49.944874 10.380818 16,725 152 402 -3008
2021-06-18 08:28:36 GMT 49.949020 10.377454 16,850 152 403 -2944
2021-06-18 08:28:33 GMT 49.951675 10.375286 16,950 152 404 -2944
2021-06-18 08:28:30 GMT 49.956696 10.371168 17,100 152 405 -3136
2021-06-18 08:28:29 GMT 49.958267 10.369937 17,150 152 405 -3328
2021-06-18 08:28:27 GMT 49.960514 10.368124 17,200 152 405 -3328
2021-06-18 08:28:24 GMT 49.966984 10.362854 17,450 152 405 -3584
2021-06-18 08:28:21 GMT 49.971542 10.359168 17,625 152 406 -3648
2021-06-18 08:28:19 GMT 49.974701 10.356566 17,825 152 407 -3584
2021-06-18 08:28:16 GMT 49.980297 10.352016 17,925 152 407 -3456
2021-06-18 08:28:14 GMT 49.982765 10.350012 18,000 152 407 -3456
2021-06-18 08:28:12 GMT 49.985790 10.347562 18,125 152 409 -3392
2021-06-18 08:28:11 GMT 49.988388 10.345435 18,200 152 410 -3392
2021-06-18 08:28:07 GMT 49.995148 10.339916 18,525 152 410 -3520
2021-06-18 08:28:04 GMT 49.998734 10.336978 18,550 152 410 -3520
2021-06-18 08:28:02 GMT 50.002178 10.334126 18,675 152 410 -3712
2021-06-18 08:28:00 GMT 50.005714 10.331231 18,925 152 410 -3776
2021-06-18 08:27:57 GMT 50.011185 10.326787 19,125 152 411 -3968
2021-06-18 08:27:54 GMT 50.015446 10.323288 19,225 152 411 -3904
2021-06-18 08:27:51 GMT 50.022335 10.317647 19,525 152 412 -3392
2021-06-18 08:27:48 GMT 50.025223 10.315271 19,525 152 413 -3200
2021-06-18 08:27:46 GMT 50.031052 10.310524 19,750 152 413 -3456
2021-06-18 08:27:43 GMT 50.034576 10.307633 19,950 152 414 -3840
2021-06-18 08:27:40 GMT 50.040257 10.302949 20,275 152 414 -3840
2021-06-18 08:27:37 GMT 50.044682 10.299386 20,225 152 416 -3648
2021-06-18 08:27:35 GMT 50.048126 10.296575 20,475 152 416 -3648
2021-06-18 08:27:32 GMT 50.055618 10.290404 20,625 152 416 -3776
2021-06-18 08:27:29 GMT 50.059948 10.286915 20,875 152 416 -3776
2021-06-18 08:27:26 GMT 50.062508 10.284836 20,875 152 416 -3776
2021-06-18 08:27:24 GMT 50.068542 10.279878 21,075 152 416 -3776
2021-06-18 08:27:23 GMT 50.068542 10.279878 21,100 152 416 -3712
2021-06-18 08:27:21 GMT 50.071678 10.277265 21,225 152 417 -3584
2021-06-18 08:27:19 GMT 50.080853 10.269619 21,425 152 418 -3200
2021-06-18 08:27:16 GMT 50.080853 10.269619 21,650 151 421 -2624
2021-06-18 08:27:13 GMT 50.086159 10.265239 21,650 151 421 -2560
2021-06-18 08:27:11 GMT 50.088821 10.263110 21,725 151 423 -2560
2021-06-18 08:27:08 GMT 50.094444 10.258410 21,875 152 424 -2880
2021-06-18 08:27:05 GMT 50.099659 10.254178 22,025 152 424 -3712
2021-06-18 08:27:04 GMT 50.101135 10.252991 22,075 152 424 -4160
2021-06-18 08:27:03 GMT 50.103561 10.250967 22,175 152 423 -4480
2021-06-18 08:27:01 GMT 50.109787 10.245835 22,450 152 423 -4736
2021-06-18 08:26:58 GMT 50.111664 10.244245 22,550 152 423 -4736
2021-06-18 08:26:56 GMT 50.115143 10.241426 22,700 152 421 -4608
2021-06-18 08:26:54 GMT 50.119629 10.237740 22,975 152 421 -4608
2021-06-18 08:26:51 GMT 50.124516 10.233690 23,100 152 421 -4416
2021-06-18 08:26:49 GMT 50.128418 10.230512 23,350 152 421 -4032
2021-06-18 08:26:46 GMT 50.132290 10.227306 23,750 152 422 -3840
2021-06-18 08:26:43 GMT 50.136574 10.223743 23,750 152 424 -3008
2021-06-18 08:26:40 GMT 50.143616 10.218008 23,750 152 424 -3008
2021-06-18 08:26:39 GMT 50.145233 10.216617 23,825 152 424 -3776
2021-06-18 08:26:37 GMT 50.148972 10.213599 24,125 152 424 -3776
2021-06-18 08:26:34 GMT 50.153378 10.209936 24,125 152 424 -4224
2021-06-18 08:26:33 GMT 50.155197 10.208467 24,200 152 422 -4416
2021-06-18 08:26:32 GMT 50.156872 10.207115 24,275 152 422 -4672
2021-06-18 08:26:31 GMT 50.159290 10.205111 24,375 152 421 -4928
2021-06-18 08:26:30 GMT 50.162659 10.202396 24,550 152 420 -5184
2021-06-18 08:26:28 GMT 50.164398 10.200950 24,650 152 420 -5376
2021-06-18 08:26:27 GMT 50.166092 10.199577 24,725 152 418 -5440
2021-06-18 08:26:25 GMT 50.171490 10.195164 25,025 152 416 -5504
2021-06-18 08:26:22 GMT 50.173397 10.193605 25,125 152 415 -5504
2021-06-18 08:26:20 GMT 50.177399 10.190325 25,475 152 412 -5504
2021-06-18 08:26:17 GMT 50.182381 10.186256 25,825 152 409 -5440
2021-06-18 08:26:14 GMT 50.186325 10.183025 25,825 152 409 -5440
2021-06-18 08:26:13 GMT 50.188156 10.181507 25,925 152 407 -5376
2021-06-18 08:26:12 GMT 50.190109 10.179946 26,000 152 407 -5376
2021-06-18 08:26:10 GMT 50.194199 10.176592 26,600 152 403 -5120
2021-06-18 08:26:07 GMT 50.198868 10.172834 26,600 152 403 -5120
2021-06-18 08:26:04 GMT 50.211758 10.162279 27,250 152 396 -4608
2021-06-18 08:26:00 GMT 50.211758 10.162279 27,250 152 396 -4608
2021-06-18 08:25:57 GMT 50.215202 10.159458 27,375 152 396 -4608
2021-06-18 08:25:54 GMT 50.221115 10.154547 27,675 152 396 -4352
2021-06-18 08:25:51 GMT 50.223724 10.152451 27,675 152 396 -4096
2021-06-18 08:25:50 GMT 50.225582 10.150922 27,750 152 396 -4032
2021-06-18 08:25:49 GMT 50.228073 10.148837 27,825 152 395 -3904
2021-06-18 08:25:48 GMT 50.229858 10.147392 27,925 152 395 -3392
2021-06-18 08:25:47 GMT 50.231400 10.146097 27,975 152 395 -3328
2021-06-18 08:25:43 GMT 50.238098 10.140598 28,175 152 396 -3008
2021-06-18 08:25:42 GMT 50.239780 10.139193 28,225 152 396 -3008
2021-06-18 08:25:40 GMT 50.242493 10.136984 28,325 152 396 -3008
2021-06-18 08:25:38 GMT 50.247414 10.132958 28,550 152 397 -2944
2021-06-18 08:25:35 GMT 50.249836 10.130953 28,550 152 397 -2944
2021-06-18 08:25:34 GMT 50.252117 10.129023 28,600 152 397 -3008
2021-06-18 08:25:32 GMT 50.256958 10.125015 28,800 152 398 -2944
2021-06-18 08:25:29 GMT 50.261902 10.120938 29,025 152 398 -2944
2021-06-18 08:25:26 GMT 50.265839 10.117758 29,025 152 398 -2944
2021-06-18 08:25:24 GMT 50.268265 10.115734 29,100 152 398 -2944
2021-06-18 08:25:23 GMT 50.270691 10.113710 29,175 152 398 -2944
2021-06-18 08:25:21 GMT 50.274124 10.110891 29,275 152 399 -2880
2021-06-18 08:25:20 GMT 50.275810 10.109500 29,325 152 399 -2816
2021-06-18 08:25:19 GMT 50.276649 10.108832 29,350 152 399 -2816
2021-06-18 08:25:18 GMT 50.279072 10.106754 29,425 152 399 -2816
2021-06-18 08:25:15 GMT 50.283051 10.103447 29,700 152 400 -2944
2021-06-18 08:25:12 GMT 50.291126 10.096807 29,775 152 400 -2944
2021-06-18 08:25:08 GMT 50.294388 10.094060 29,875 152 400 -2816
2021-06-18 08:25:06 GMT 50.298344 10.090794 30,250 151 403 -2752
2021-06-18 08:25:03 GMT 50.307838 10.082925 30,250 151 403 -2752
2021-06-18 08:25:00 GMT 50.307838 10.082925 30,250 151 403 -2752
2021-06-18 08:24:59 GMT 50.308819 10.082109 30,275 151 403 -2752
2021-06-18 08:24:58 GMT 50.310883 10.080390 30,325 151 403 -2752
2021-06-18 08:24:56 GMT 50.315243 10.076764 30,450 151 404 -2688
2021-06-18 08:24:55 GMT 50.316605 10.075547 30,500 151 404 -2752
2021-06-18 08:24:54 GMT 50.318436 10.074101 30,550 151 404 -2752
2021-06-18 08:24:51 GMT 50.323380 10.069909 30,675 151 405 -2688
2021-06-18 08:24:49 GMT 50.326859 10.067018 30,775 151 406 -2560
2021-06-18 08:24:47 GMT 50.330154 10.064272 30,850 151 408 -2496
2021-06-18 08:24:46 GMT 50.331985 10.062754 30,900 151 408 -2432
2021-06-18 08:24:45 GMT 50.333584 10.061472 30,950 151 408 -2432
2021-06-18 08:24:43 GMT 50.335785 10.059574 31,000 151 408 -2432
2021-06-18 08:24:42 GMT 50.338303 10.057477 31,050 151 410 -2432
2021-06-18 08:24:40 GMT 50.342243 10.054198 31,150 152 411 -2368
2021-06-18 08:24:38 GMT 50.345081 10.051822 31,225 152 412 -2368
2021-06-18 08:24:36 GMT 50.348511 10.049021 31,300 152 413 -2368
2021-06-18 08:24:34 GMT 50.351715 10.046347 31,375 152 414 -2368
2021-06-18 08:24:33 GMT 50.353546 10.044829 31,425 152 416 -2432
2021-06-18 08:24:32 GMT 50.355240 10.043383 31,450 152 416 -2432
2021-06-18 08:24:30 GMT 50.357697 10.041355 31,600 152 416 -2432
2021-06-18 08:24:27 GMT 50.362259 10.037570 31,625 151 416 -2496
2021-06-18 08:24:24 GMT 50.367519 10.033190 31,750 152 417 -2560
2021-06-18 08:24:23 GMT 50.369057 10.031928 31,800 152 417 -2560
2021-06-18 08:24:21 GMT 50.379112 10.023540 32,100 151 420 -2496
2021-06-18 08:24:18 GMT 50.384537 10.019025 32,100 151 421 -2368
2021-06-18 08:24:15 GMT 50.384537 10.019025 32,350 151 423 -2368
2021-06-18 08:24:12 GMT 50.392704 10.012182 32,350 151 424 -2496
2021-06-18 08:24:10 GMT 50.392704 10.012182 32,350 151 424 -2496
2021-06-18 08:24:08 GMT 50.395264 10.010030 32,400 151 424 -2496
2021-06-18 08:24:07 GMT 50.397079 10.008473 32,450 151 425 -2496
2021-06-18 08:24:06 GMT 50.398636 10.007172 32,500 151 425 -2496
2021-06-18 08:24:04 GMT 50.402527 10.003943 32,600 151 427 -2432
2021-06-18 08:24:01 GMT 50.408524 9.998860 32,725 151 428 -2432
2021-06-18 08:23:59 GMT 50.412506 9.995463 32,900 151 429 -2496
2021-06-18 08:23:56 GMT 50.415665 9.992860 32,900 151 429 -2496
2021-06-18 08:23:55 GMT 50.417469 9.991249 32,950 151 430 -2560
2021-06-18 08:23:54 GMT 50.419327 9.989753 33,000 151 430 -2496
2021-06-18 08:23:53 GMT 50.421146 9.988205 33,050 151 431 -2432
2021-06-18 08:23:50 GMT 50.427200 9.983031 33,175 151 432 -2432
2021-06-18 08:23:48 GMT 50.429123 9.981440 33,225 151 432 -2368
2021-06-18 08:23:47 GMT 50.433701 9.977610 33,325 152 434 -2496
2021-06-18 08:23:46 GMT 50.433701 9.977610 33,325 152 434 -2496
2021-06-18 08:23:44 GMT 50.436462 9.975289 33,375 152 434 -2496
2021-06-18 08:23:42 GMT 50.442169 9.970454 33,550 152 435 -2048
2021-06-18 08:23:39 GMT 50.447708 9.965901 33,650 150 438 -1152
2021-06-18 08:23:36 GMT 50.451126 9.963041 33,650 150 438 -1152
2021-06-18 08:23:33 GMT 50.456993 9.957993 33,775 149 440 -1024
2021-06-18 08:23:30 GMT 50.461441 9.953902 33,775 149 440 -1024
2021-06-18 08:23:29 GMT 50.463364 9.952095 33,800 147 442 -1344
2021-06-18 08:23:27 GMT 50.467575 9.948048 33,875 146 443 -2304
2021-06-18 08:23:26 GMT 50.474312 9.940994 33,975 145 443 -2944
2021-06-18 08:23:24 GMT 50.474312 9.940994 34,100 144 443 -3456
2021-06-18 08:23:21 GMT 50.477921 9.937062 34,400 143 442 -3648
2021-06-18 08:23:18 GMT 50.482727 9.931568 34,400 142 442 -3648
2021-06-18 08:23:15 GMT 50.489182 9.923690 34,725 140 441 -3648
2021-06-18 08:23:12 GMT 50.492466 9.919615 34,725 139 441 -3648
2021-06-18 08:23:11 GMT 50.494080 9.917402 34,800 138 440 -3712
2021-06-18 08:23:09 GMT 50.496330 9.914419 34,875 138 440 -3776
2021-06-18 08:23:07 GMT 50.501770 9.906921 35,125 137 439 -3968
2021-06-18 08:23:06 GMT 50.501770 9.906921 35,125 135 438 -4032
2021-06-18 08:23:03 GMT 50.506622 9.899766 35,325 134 437 -3968
2021-06-18 08:23:01 GMT 50.509552 9.895357 35,475 134 437 -3968
2021-06-18 08:22:58 GMT 50.513741 9.888735 35,700 132 434 -4096
2021-06-18 08:22:54 GMT 50.522446 9.873888 36,075 129 433 -3584
2021-06-18 08:22:51 GMT 50.522446 9.873888 36,075 129 433 -3584
2021-06-18 08:22:49 GMT 50.525253 9.868758 36,250 128 431 -3200
2021-06-18 08:22:46 GMT 50.528549 9.862470 36,350 127 431 -3008
2021-06-18 08:22:45 GMT 50.529922 9.859724 36,400 124 431 -2496
2021-06-18 08:22:43 GMT 50.534866 9.849532 36,575 124 431 -2496
2021-06-18 08:22:41 GMT 50.534866 9.849532 36,575 124 431 -2496
2021-06-18 08:22:39 GMT 50.537155 9.844473 36,725 122 430 -2176
2021-06-18 08:22:36 GMT 50.541595 9.834065 36,875 121 430 -1664
2021-06-18 08:22:33 GMT 50.547180 9.819681 36,925 120 430 -1024
2021-06-18 08:22:30 GMT 50.549835 9.812743 36,975 120 434 0
2021-06-18 08:22:27 GMT 50.549835 9.812743 36,975 120 431 -448
2021-06-18 08:22:25 GMT 50.552856 9.804647 37,000 120 432 -64
2021-06-18 08:22:22 GMT 50.555923 9.796624 37,000 120 432 0
2021-06-18 08:22:19 GMT 50.558670 9.789324 37,000 120 432 0
2021-06-18 08:22:16 GMT 50.564110 9.774863 37,000 120 432 64
2021-06-18 08:22:13 GMT 50.564110 9.774863 37,000 120 432 64
2021-06-18 08:22:10 GMT 50.567093 9.766918 37,000 120 432 -64
2021-06-18 08:22:07 GMT 50.570393 9.758161 37,000 120 432 0
2021-06-18 08:22:05 GMT 50.572350 9.753039 37,000 120 433 0
2021-06-18 08:22:02 GMT 50.575840 9.743834 37,000 120 433 0
2021-06-18 08:21:59 GMT 50.579224 9.734826 37,000 120 433 -64
2021-06-18 08:21:56 GMT 50.582542 9.726018 37,000 120 433 0
2021-06-18 08:21:53 GMT 50.584534 9.720804 37,000 120 433 64
2021-06-18 08:21:50 GMT 50.588425 9.710468 37,000 120 433 64
2021-06-18 08:21:47 GMT 50.591343 9.702784 37,000 120 433 64
2021-06-18 08:21:43 GMT 50.595440 9.692020 37,000 120 433 0
2021-06-18 08:21:40 GMT 50.601864 9.674947 37,000 120 433 0
2021-06-18 08:21:37 GMT 50.601864 9.674947 37,000 120 434 0
2021-06-18 08:21:34 GMT 50.604584 9.667752 37,000 120 434 0
2021-06-18 08:21:31 GMT 50.610901 9.650983 37,000 120 434 64
2021-06-18 08:21:28 GMT 50.610901 9.650983 37,000 120 434 64
2021-06-18 08:21:25 GMT 50.613647 9.643683 37,000 120 434 0
2021-06-18 08:21:22 GMT 50.616348 9.636600 37,000 120 434 0
2021-06-18 08:21:19 GMT 50.619461 9.628329 37,000 120 434 0
2021-06-18 08:21:16 GMT 50.622849 9.619253 37,000 120 434 0
2021-06-18 08:21:13 GMT 50.626144 9.610580 37,000 120 434 -64
2021-06-18 08:21:09 GMT 50.630074 9.600121 37,000 120 434 0
2021-06-18 08:21:06 GMT 50.633194 9.591860 37,000 120 434 0
2021-06-18 08:21:02 GMT 50.637314 9.581018 37,000 120 434 -64
2021-06-18 08:20:59 GMT 50.640381 9.572850 37,000 120 434 0
2021-06-18 08:20:56 GMT 50.643951 9.563310 37,000 120 434 0
2021-06-18 08:20:53 GMT 50.646881 9.555656 37,000 120 434 0
2021-06-18 08:20:50 GMT 50.648788 9.550460 37,000 120 434 0
2021-06-18 08:20:47 GMT 50.652649 9.540253 37,000 120 434 0
2021-06-18 08:20:44 GMT 50.654709 9.534832 37,000 120 434 0
2021-06-18 08:20:42 GMT 50.657776 9.526664 37,000 120 435 0
2021-06-18 08:20:39 GMT 50.660843 9.518497 37,000 120 435 0
2021-06-18 08:20:36 GMT 50.663498 9.511414 37,000 120 435 0
2021-06-18 08:20:33 GMT 50.669724 9.494862 37,000 120 435 0
2021-06-18 08:20:30 GMT 50.673706 9.484245 37,000 120 435 0
2021-06-18 08:20:26 GMT 50.676590 9.476599 37,000 120 435 0
2021-06-18 08:20:23 GMT 50.676590 9.476599 37,000 120 435 0
2021-06-18 08:20:20 GMT 50.679790 9.468002 37,000 120 435 0
2021-06-18 08:20:17 GMT 50.687054 9.448624 37,000 120 436 64
2021-06-18 08:20:14 GMT 50.687054 9.448624 37,000 120 436 64
2021-06-18 08:20:11 GMT 50.688721 9.444159 37,000 120 436 64
2021-06-18 08:20:08 GMT 50.693298 9.431837 37,000 120 436 0
2021-06-18 08:20:05 GMT 50.695805 9.425201 37,000 120 436 0
2021-06-18 08:20:02 GMT 50.697762 9.420013 37,000 120 436 -64
2021-06-18 08:19:59 GMT 50.700417 9.412842 37,000 120 436 -64
2021-06-18 08:19:56 GMT 50.705521 9.399101 37,000 120 435 -64
2021-06-18 08:19:53 GMT 50.708496 9.391158 37,000 120 434 0
2021-06-18 08:19:50 GMT 50.713730 9.377136 37,000 120 434 0
2021-06-18 08:19:47 GMT 50.713730 9.377136 37,000 120 434 64
2021-06-18 08:19:44 GMT 50.717148 9.367997 37,000 120 434 64
2021-06-18 08:19:41 GMT 50.719574 9.361465 37,000 120 434 64
2021-06-18 08:19:38 GMT 50.723503 9.350967 37,000 120 434 64
2021-06-18 08:19:35 GMT 50.725506 9.345551 37,000 120 434 0
2021-06-18 08:19:32 GMT 50.728672 9.337082 37,000 120 434 -64
2021-06-18 08:19:29 GMT 50.732895 9.325759 37,000 120 434 0
2021-06-18 08:19:26 GMT 50.735138 9.319747 37,000 120 434 0
2021-06-18 08:19:23 GMT 50.737797 9.312515 37,000 120 434 64
2021-06-18 08:19:20 GMT 50.740402 9.305568 37,000 120 435 0
2021-06-18 08:19:17 GMT 50.744659 9.294137 37,000 120 435 0
2021-06-18 08:19:14 GMT 50.747292 9.287109 37,000 120 434 0
2021-06-18 08:19:11 GMT 50.750832 9.277573 37,000 120 434 64
2021-06-18 08:19:08 GMT 50.752880 9.272156 37,000 120 434 0
2021-06-18 08:19:05 GMT 50.757023 9.260941 37,000 120 434 0
2021-06-18 08:19:02 GMT 50.760002 9.253082 37,000 120 435 -64
2021-06-18 08:18:59 GMT 50.762466 9.246331 37,000 120 435 -64
2021-06-18 08:18:56 GMT 50.765076 9.239426 37,000 120 435 0
2021-06-18 08:18:53 GMT 50.769218 9.228134 37,000 120 435 0
2021-06-18 08:18:50 GMT 50.771175 9.223022 37,000 120 437 0
2021-06-18 08:18:47 GMT 50.775192 9.212185 37,000 120 437 0
2021-06-18 08:18:44 GMT 50.777180 9.206848 37,000 120 436 0
2021-06-18 08:18:41 GMT 50.780624 9.197540 37,000 120 437 0
2021-06-18 08:18:38 GMT 50.783371 9.190140 37,000 120 437 0
2021-06-18 08:18:35 GMT 50.787598 9.178706 37,000 120 437 0
2021-06-18 08:18:32 GMT 50.789841 9.172693 37,000 120 437 0
2021-06-18 08:18:29 GMT 50.793091 9.163934 37,000 120 437 0
2021-06-18 08:18:26 GMT 50.795708 9.156876 37,000 120 437 0
2021-06-18 08:18:23 GMT 50.799385 9.146957 37,000 120 437 0
2021-06-18 08:18:20 GMT 50.802036 9.139786 37,000 120 437 0
2021-06-18 08:18:17 GMT 50.804947 9.131940 37,000 120 437 0
2021-06-18 08:18:14 GMT 50.808369 9.122772 37,000 120 437 -64
2021-06-18 08:18:11 GMT 50.811584 9.114050 37,000 120 437 -64
2021-06-18 08:18:08 GMT 50.814049 9.107361 37,000 120 437 -64
2021-06-18 08:18:05 GMT 50.817673 9.097570 37,000 120 437 -64
2021-06-18 08:18:03 GMT 50.820419 9.090073 37,000 120 437 0
2021-06-18 08:18:00 GMT 50.821930 9.085990 37,000 120 438 0
2021-06-18 08:17:57 GMT 50.825874 9.075317 37,000 120 438 64
2021-06-18 08:17:54 GMT 50.828339 9.068620 37,000 120 438 64
2021-06-18 08:17:51 GMT 50.832157 9.058228 37,000 120 437 0
2021-06-18 08:17:48 GMT 50.835159 9.050136 37,000 120 437 0
2021-06-18 08:17:45 GMT 50.837509 9.043579 37,000 120 438 0
2021-06-18 08:17:42 GMT 50.840958 9.034195 37,000 120 438 0
2021-06-18 08:17:39 GMT 50.844269 9.025269 37,000 120 437 0
2021-06-18 08:17:36 GMT 50.849056 9.012146 37,000 120 437 0
2021-06-18 08:17:33 GMT 50.849056 9.012146 37,000 120 436 0
2021-06-18 08:17:30 GMT 50.852921 9.001617 37,000 120 436 0
2021-06-18 08:17:27 GMT 50.855988 8.993200 37,000 120 436 0
2021-06-18 08:17:24 GMT 50.859146 8.984664 37,000 120 436 0
2021-06-18 08:17:21 GMT 50.862324 8.975983 37,000 120 436 0
2021-06-18 08:17:18 GMT 50.865005 8.968704 37,000 120 436 0
2021-06-18 08:17:15 GMT 50.868759 8.958460 37,000 120 436 -64
2021-06-18 08:17:12 GMT 50.871727 8.950348 37,000 120 436 0
2021-06-18 08:17:09 GMT 50.874474 8.942871 37,000 120 436 -64
2021-06-18 08:17:06 GMT 50.877174 8.935471 37,000 120 436 -64
2021-06-18 08:17:03 GMT 50.879654 8.928693 37,000 120 435 0
2021-06-18 08:17:00 GMT 50.886200 8.910803 37,000 120 435 0
2021-06-18 08:16:57 GMT 50.886200 8.910803 37,000 120 435 64
2021-06-18 08:16:54 GMT 50.889221 8.902563 37,000 120 435 0
2021-06-18 08:16:51 GMT 50.893188 8.891678 37,000 120 435 0
2021-06-18 08:16:48 GMT 50.894760 8.887420 37,000 120 435 64
2021-06-18 08:16:45 GMT 50.898869 8.876266 37,000 119 434 -64
2021-06-18 08:16:42 GMT 50.901306 8.869530 37,000 120 435 0
2021-06-18 08:16:39 GMT 50.904236 8.861587 37,000 120 435 0
2021-06-18 08:16:36 GMT 50.908318 8.850403 37,000 120 435 0
2021-06-18 08:16:33 GMT 50.910225 8.845215 37,000 120 435 0
2021-06-18 08:16:30 GMT 50.913437 8.836497 37,000 120 435 0
2021-06-18 08:16:27 GMT 50.915997 8.829498 37,000 120 435 0
2021-06-18 08:16:24 GMT 50.919815 8.819046 37,000 120 435 0
2021-06-18 08:16:21 GMT 50.922455 8.811777 37,000 119 434 0
2021-06-18 08:16:18 GMT 50.925568 8.803241 37,000 119 434 0
2021-06-18 08:16:15 GMT 50.929184 8.793368 37,000 119 434 0
2021-06-18 08:16:12 GMT 50.931290 8.787578 37,000 119 434 0
2021-06-18 08:16:09 GMT 50.935551 8.775864 37,000 119 434 0
2021-06-18 08:16:06 GMT 50.938019 8.769168 37,000 119 434 0
2021-06-18 08:16:03 GMT 50.940067 8.763580 37,000 119 434 0
2021-06-18 08:16:00 GMT 50.944244 8.752169 37,000 119 434 0
2021-06-18 08:15:57 GMT 50.946121 8.746899 37,000 119 434 0
2021-06-18 08:15:54 GMT 50.950401 8.735275 37,000 119 434 -64
2021-06-18 08:15:51 GMT 50.955799 8.720398 37,000 119 434 -64
2021-06-18 08:15:48 GMT 50.955799 8.720398 37,000 119 432 64
2021-06-18 08:15:45 GMT 50.958221 8.713837 37,000 119 432 0
2021-06-18 08:15:42 GMT 50.962410 8.702316 37,000 119 432 64
2021-06-18 08:15:39 GMT 50.964878 8.695450 37,000 119 432 64
2021-06-18 08:15:36 GMT 50.967670 8.687744 37,000 119 432 64
2021-06-18 08:15:33 GMT 50.970612 8.679645 37,000 119 432 0
2021-06-18 08:15:30 GMT 50.973770 8.671036 37,000 119 432 -64
2021-06-18 08:15:27 GMT 50.977169 8.661728 37,000 119 432 0
2021-06-18 08:15:24 GMT 50.979961 8.654022 37,000 119 432 -64
2021-06-18 08:15:21 GMT 50.982941 8.645782 37,000 119 432 0
2021-06-18 08:15:18 GMT 50.989132 8.628769 37,000 119 432 0
2021-06-18 08:15:15 GMT 50.989132 8.628769 37,000 119 432 0
2021-06-18 08:15:12 GMT 50.991165 8.623154 37,000 119 432 0
2021-06-18 08:15:09 GMT 50.994762 8.613129 37,000 119 431 0
2021-06-18 08:15:06 GMT 50.996952 8.607101 37,000 119 432 0
2021-06-18 08:15:03 GMT 51.001560 8.594437 37,000 119 432 0
2021-06-18 08:15:00 GMT 51.003662 8.588562 37,000 119 432 0
2021-06-18 08:14:57 GMT 51.007286 8.578568 37,000 119 430 0
2021-06-18 08:14:54 GMT 51.010208 8.570449 37,000 119 432 0
2021-06-18 08:14:51 GMT 51.012547 8.564072 37,000 119 431 64
2021-06-18 08:14:48 GMT 51.016159 8.554044 37,000 119 431 64
2021-06-18 08:14:45 GMT 51.022018 8.537862 37,000 119 431 0
2021-06-18 08:14:42 GMT 51.022018 8.537862 37,000 119 430 0
2021-06-18 08:14:39 GMT 51.024559 8.530884 37,000 119 430 0
2021-06-18 08:14:36 GMT 51.027630 8.522415 37,000 119 430 0
2021-06-18 08:14:33 GMT 51.030563 8.514175 37,000 119 430 0
2021-06-18 08:14:30 GMT 51.032936 8.507614 37,000 119 430 0
2021-06-18 08:14:27 GMT 51.036346 8.498148 37,000 119 431 0
2021-06-18 08:14:24 GMT 51.042389 8.481445 37,000 119 430 0
2021-06-18 08:14:21 GMT 51.042389 8.481445 37,000 119 430 0
2021-06-18 08:14:18 GMT 51.045090 8.474096 37,000 119 430 0
2021-06-18 08:14:15 GMT 51.047653 8.466970 37,000 119 430 0
2021-06-18 08:14:12 GMT 51.051407 8.456578 37,000 119 430 0
2021-06-18 08:14:09 GMT 51.054909 8.446808 37,000 119 430 0
2021-06-18 08:14:06 GMT 51.056866 8.441391 37,000 119 430 0
2021-06-18 08:14:03 GMT 51.062683 8.425217 37,000 119 430 0
2021-06-18 08:14:00 GMT 51.066128 8.415680 37,000 119 430 -64
2021-06-18 08:13:57 GMT 51.066128 8.415680 37,000 119 430 -64
2021-06-18 08:13:54 GMT 51.068687 8.408508 37,000 119 429 -64
2021-06-18 08:13:51 GMT 51.071671 8.400345 37,000 119 429 -64
2021-06-18 08:13:48 GMT 51.074600 8.392105 37,000 119 429 64
2021-06-18 08:13:45 GMT 51.077728 8.383533 37,000 119 429 64
2021-06-18 08:13:42 GMT 51.080658 8.375294 37,000 119 429 64
2021-06-18 08:13:39 GMT 51.083038 8.368761 37,000 119 429 0
2021-06-18 08:13:37 GMT 51.085915 8.360672 37,000 119 429 -64
2021-06-18 08:13:34 GMT 51.088028 8.354806 37,000 119 429 -64
2021-06-18 08:13:31 GMT 51.091499 8.345032 37,000 119 429 -64
2021-06-18 08:13:28 GMT 51.094208 8.337510 37,000 119 428 0
2021-06-18 08:13:25 GMT 51.097599 8.328094 37,000 119 429 0
2021-06-18 08:13:22 GMT 51.099792 8.321921 37,000 119 429 0
2021-06-18 08:13:19 GMT 51.104069 8.310013 37,000 119 428 0
2021-06-18 08:13:16 GMT 51.106396 8.303452 37,000 119 428 0
2021-06-18 08:13:13 GMT 51.108673 8.297053 37,000 119 428 0
2021-06-18 08:13:10 GMT 51.111656 8.288727 37,000 119 428 0
2021-06-18 08:13:07 GMT 51.114624 8.280351 37,000 119 428 0
2021-06-18 08:13:04 GMT 51.117710 8.271790 37,000 119 428 0
2021-06-18 08:13:01 GMT 51.121292 8.261642 37,000 119 428 0
2021-06-18 08:12:58 GMT 51.123871 8.254444 37,000 119 428 0
2021-06-18 08:12:55 GMT 51.126801 8.246204 37,000 119 428 0
2021-06-18 08:12:52 GMT 51.129951 8.237305 37,000 119 428 0
2021-06-18 08:12:49 GMT 51.132019 8.231432 37,000 119 428 0
2021-06-18 08:12:46 GMT 51.135818 8.220743 37,000 119 428 0
2021-06-18 08:12:43 GMT 51.138191 8.214035 37,000 119 428 0
2021-06-18 08:12:40 GMT 51.141171 8.205566 37,000 119 428 0
2021-06-18 08:12:37 GMT 51.144516 8.196098 37,000 119 428 0
2021-06-18 08:12:33 GMT 51.147877 8.186646 37,000 119 427 0
2021-06-18 08:12:30 GMT 51.154175 8.168780 37,000 119 427 0
2021-06-18 08:12:27 GMT 51.154175 8.168780 37,000 119 427 64
2021-06-18 08:12:24 GMT 51.156693 8.161654 37,000 119 427 0
2021-06-18 08:12:21 GMT 51.159988 8.152375 37,000 119 427 64
2021-06-18 08:12:18 GMT 51.161888 8.146973 37,000 119 428 0
2021-06-18 08:12:16 GMT 51.164703 8.138939 37,000 119 427 0
2021-06-18 08:12:13 GMT 51.166763 8.133149 37,000 119 428 0
2021-06-18 08:12:10 GMT 51.170361 8.122940 37,000 119 428 0
2021-06-18 08:12:07 GMT 51.172440 8.117041 37,000 119 428 -64
2021-06-18 08:12:04 GMT 51.176056 8.106871 37,000 119 427 -64
2021-06-18 08:12:01 GMT 51.179485 8.097153 37,000 119 427 -64
2021-06-18 08:11:58 GMT 51.181961 8.090243 37,000 119 427 0
2021-06-18 08:11:55 GMT 51.184479 8.083117 37,000 119 427 0
2021-06-18 08:11:52 GMT 51.187317 8.075174 37,000 119 426 64
2021-06-18 08:11:49 GMT 51.193169 8.059006 37,000 120 427 64
2021-06-18 08:11:46 GMT 51.193169 8.059006 37,000 120 427 0
2021-06-18 08:11:43 GMT 51.196655 8.049341 37,000 120 427 0
2021-06-18 08:11:40 GMT 51.200153 8.039703 37,000 120 427 0
2021-06-18 08:11:37 GMT 51.202286 8.033901 37,000 120 427 0
2021-06-18 08:11:34 GMT 51.205692 8.024521 37,000 120 427 0
2021-06-18 08:11:31 GMT 51.207600 8.019333 37,000 120 427 0
2021-06-18 08:11:28 GMT 51.214645 7.999903 37,000 119 426 0
2021-06-18 08:11:25 GMT 51.214645 7.999903 37,000 119 426 0
2021-06-18 08:11:22 GMT 51.217564 7.991867 37,000 119 427 0
2021-06-18 08:11:19 GMT 51.223297 7.975926 37,000 119 427 0
2021-06-18 08:11:16 GMT 51.223297 7.975926 37,000 119 427 0
2021-06-18 08:11:13 GMT 51.225861 7.968874 37,000 119 427 0
2021-06-18 08:11:10 GMT 51.228226 7.962189 37,000 119 427 0
2021-06-18 08:11:07 GMT 51.231537 7.953062 37,000 119 427 0
2021-06-18 08:11:04 GMT 51.237347 7.936783 37,000 119 427 0
2021-06-18 08:11:01 GMT 51.237347 7.936783 37,000 119 427 0
2021-06-18 08:10:57 GMT 51.241333 7.925745 37,000 119 427 0
2021-06-18 08:10:54 GMT 51.244949 7.915649 37,000 119 428 0
2021-06-18 08:10:51 GMT 51.247101 7.909637 37,000 119 427 0
2021-06-18 08:10:49 GMT 51.250122 7.901174 37,000 119 427 0
2021-06-18 08:10:46 GMT 51.252010 7.895889 37,000 119 427 0
2021-06-18 08:10:43 GMT 51.255203 7.886996 37,000 119 427 0
2021-06-18 08:10:40 GMT 51.257721 7.879870 37,000 119 427 0
2021-06-18 08:10:37 GMT 51.261089 7.870407 37,000 119 427 0
2021-06-18 08:10:34 GMT 51.264908 7.859604 37,000 119 427 0
2021-06-18 08:10:31 GMT 51.267471 7.852478 37,000 119 427 0
2021-06-18 08:10:28 GMT 51.269470 7.846909 37,000 119 427 0
2021-06-18 08:10:25 GMT 51.273193 7.836370 37,000 119 427 0
2021-06-18 08:10:22 GMT 51.275757 7.829243 37,000 119 428 0
2021-06-18 08:10:19 GMT 51.278732 7.820892 37,000 119 427 0
2021-06-18 08:10:16 GMT 51.281666 7.812653 37,000 119 427 0
2021-06-18 08:10:13 GMT 51.284508 7.804718 37,000 119 427 0
2021-06-18 08:10:10 GMT 51.287338 7.796656 37,000 119 427 0
2021-06-18 08:10:07 GMT 51.291302 7.785568 37,000 119 427 0
2021-06-18 08:10:04 GMT 51.293793 7.778617 37,000 119 427 0
2021-06-18 08:10:01 GMT 51.296310 7.771491 37,000 119 427 -64
2021-06-18 08:09:58 GMT 51.299744 7.761915 37,000 119 427 0
2021-06-18 08:09:55 GMT 51.301636 7.756577 37,000 119 427 0
2021-06-18 08:09:52 GMT 51.305595 7.745285 37,000 119 427 0
2021-06-18 08:09:49 GMT 51.310993 7.730255 37,000 119 427 0
2021-06-18 08:09:46 GMT 51.310993 7.730255 37,000 119 427 0
2021-06-18 08:09:43 GMT 51.313320 7.723694 37,000 119 427 0
2021-06-18 08:09:40 GMT 51.316177 7.715669 37,000 119 426 -64
2021-06-18 08:09:37 GMT 51.319702 7.705796 37,000 119 426 -64
2021-06-18 08:09:34 GMT 51.322166 7.698822 37,000 119 426 -64
2021-06-18 08:09:31 GMT 51.326172 7.687607 37,000 119 425 768
2021-06-18 08:09:28 GMT 51.329197 7.679138 36,550 120 423 704
2021-06-18 08:09:25 GMT 51.331055 7.673802 36,900 119 425 640
2021-06-18 08:09:22 GMT 51.333893 7.665859 36,900 119 425 768
2021-06-18 08:09:19 GMT 51.336823 7.657693 36,875 119 425 704
2021-06-18 08:09:16 GMT 51.340393 7.647672 36,825 119 425 640
2021-06-18 08:09:13 GMT 51.342728 7.641065 36,800 119 425 640
2021-06-18 08:09:10 GMT 51.346512 7.630615 36,800 119 425 704
2021-06-18 08:09:07 GMT 51.348934 7.623825 36,750 119 425 704
2021-06-18 08:09:04 GMT 51.351929 7.615530 36,725 119 425 640
2021-06-18 08:09:01 GMT 51.355171 7.606430 36,675 119 424 640
2021-06-18 08:08:58 GMT 51.358013 7.598572 36,650 119 424 704
2021-06-18 08:08:55 GMT 51.360489 7.591627 36,600 120 423 704
2021-06-18 08:08:52 GMT 51.363876 7.582321 36,575 120 423 704
2021-06-18 08:08:49 GMT 51.365982 7.576484 36,475 120 423 704
2021-06-18 08:08:46 GMT 51.369003 7.568021 36,500 120 423 768
2021-06-18 08:08:43 GMT 51.372677 7.557907 36,450 120 423 768
2021-06-18 08:08:40 GMT 51.375191 7.550888 36,450 120 423 832
2021-06-18 08:08:37 GMT 51.378204 7.542634 36,400 120 423 832
2021-06-18 08:08:34 GMT 51.381382 7.533875 36,250 119 423 832
2021-06-18 08:08:31 GMT 51.383896 7.526855 36,300 119 423 832
2021-06-18 08:08:28 GMT 51.387680 7.516430 36,250 119 423 832
2021-06-18 08:08:25 GMT 51.390038 7.509766 36,175 119 423 832
2021-06-18 08:08:22 GMT 51.392601 7.502747 35,950 119 423 896
2021-06-18 08:08:19 GMT 51.395920 7.493418 36,100 119 423 896
2021-06-18 08:08:16 GMT 51.398884 7.485199 36,050 119 423 960
2021-06-18 08:08:13 GMT 51.401871 7.476864 36,050 119 423 896
2021-06-18 08:08:10 GMT 51.404663 7.468996 36,000 119 423 832
2021-06-18 08:08:07 GMT 51.408474 7.458267 35,950 119 423 896
2021-06-18 08:08:04 GMT 51.410431 7.452739 35,900 119 423 960
2021-06-18 08:08:01 GMT 51.412766 7.446207 35,850 119 423 1024
2021-06-18 08:07:58 GMT 51.416199 7.436408 35,775 119 422 1088
2021-06-18 08:07:55 GMT 51.419083 7.428242 35,750 119 423 1088
2021-06-18 08:07:52 GMT 51.421185 7.422409 35,750 119 423 1088
2021-06-18 08:07:49 GMT 51.424534 7.412872 35,625 119 424 1088
2021-06-18 08:07:46 GMT 51.428329 7.402113 35,500 119 424 1152
2021-06-18 08:07:43 GMT 51.430344 7.396397 35,525 119 424 1152
2021-06-18 08:07:40 GMT 51.432770 7.389642 35,475 119 424 1152
2021-06-18 08:07:37 GMT 51.436157 7.380066 35,425 119 424 1152
2021-06-18 08:07:35 GMT 51.440826 7.366867 35,375 119 424 1216
2021-06-18 08:07:32 GMT 51.440826 7.366867 35,300 119 424 1216
2021-06-18 08:07:29 GMT 51.443848 7.358242 35,275 119 424 1216
2021-06-18 08:07:26 GMT 51.446732 7.350002 34,350 119 428 1344
2021-06-18 08:07:23 GMT 51.449661 7.341836 35,125 119 425 1152
2021-06-18 08:07:20 GMT 51.455585 7.324982 35,050 119 425 1152
2021-06-18 08:07:17 GMT 51.455585 7.324982 35,025 119 425 1216
2021-06-18 08:07:15 GMT 51.457447 7.319794 34,850 119 427 1152
2021-06-18 08:07:12 GMT 51.459778 7.313034 34,225 119 427 1152
2021-06-18 08:07:09 GMT 51.462849 7.304382 34,875 119 427 1216
2021-06-18 08:07:06 GMT 51.466709 7.293396 34,800 119 427 1280
2021-06-18 08:07:03 GMT 51.469482 7.285643 34,700 119 427 1280
2021-06-18 08:07:00 GMT 51.472870 7.275993 34,675 119 428 1280
2021-06-18 08:06:57 GMT 51.474438 7.271423 34,575 119 428 1280
2021-06-18 08:06:54 GMT 51.477310 7.263299 34,575 119 428 1344
2021-06-18 08:06:52 GMT 51.479977 7.255707 34,350 119 428 1344
2021-06-18 08:06:49 GMT 51.482346 7.248972 34,425 119 428 1344
2021-06-18 08:06:46 GMT 51.486191 7.237912 34,325 119 428 1280
2021-06-18 08:06:43 GMT 51.488159 7.232419 34,250 119 428 1408
2021-06-18 08:06:40 GMT 51.491730 7.222175 34,225 119 428 1472
2021-06-18 08:06:37 GMT 51.493652 7.216607 34,075 119 430 1472
2021-06-18 08:06:34 GMT 51.497955 7.204433 34,000 119 430 1408
2021-06-18 08:06:31 GMT 51.502899 7.190255 33,975 119 431 1344
2021-06-18 08:06:28 GMT 51.502899 7.190255 33,950 119 431 1344
2021-06-18 08:06:25 GMT 51.506104 7.181124 33,800 119 431 1472
2021-06-18 08:06:22 GMT 51.508888 7.173157 33,750 119 432 1664
2021-06-18 08:06:19 GMT 51.512329 7.163234 33,675 119 433 1728
2021-06-18 08:06:16 GMT 51.514206 7.157964 33,650 119 433 1792
2021-06-18 08:06:14 GMT 51.517227 7.149279 33,525 119 434 1792
2021-06-18 08:06:11 GMT 51.519196 7.143711 33,450 119 434 1792
2021-06-18 08:06:08 GMT 51.522537 7.134135 33,375 119 435 1728
2021-06-18 08:06:05 GMT 51.525558 7.125450 33,275 119 436 1728
2021-06-18 08:06:02 GMT 51.528069 7.118225 33,225 119 436 1728
2021-06-18 08:05:59 GMT 51.531048 7.109756 33,100 119 437 1664
2021-06-18 08:05:56 GMT 51.533886 7.101593 32,950 119 438 1600
2021-06-18 08:05:53 GMT 51.537285 7.091980 32,975 119 438 1600
2021-06-18 08:05:51 GMT 51.539795 7.084771 32,350 119 438 1664
2021-06-18 08:05:48 GMT 51.541801 7.078934 32,825 119 440 1664
2021-06-18 08:05:45 GMT 51.544964 7.069855 32,700 119 440 1536
2021-06-18 08:05:42 GMT 51.547665 7.062225 32,650 119 440 1536
2021-06-18 08:05:39 GMT 51.551342 7.051620 32,550 119 440 1536
2021-06-18 08:05:36 GMT 51.553299 7.045975 32,550 119 440 1536
2021-06-18 08:05:34 GMT 51.556370 7.037125 32,450 119 440 1600
2021-06-18 08:05:31 GMT 51.559444 7.028275 32,325 119 441 1536
2021-06-18 08:05:28 GMT 51.561726 7.021713 32,300 119 441 1536
2021-06-18 08:05:25 GMT 51.565063 7.012098 32,200 119 441 1536
2021-06-18 08:05:22 GMT 51.568195 7.003098 32,125 119 442 1536
2021-06-18 08:05:19 GMT 51.571747 6.992946 32,025 119 442 1472
2021-06-18 08:05:16 GMT 51.574722 6.984335 32,000 119 443 1472
2021-06-18 08:05:13 GMT 51.576344 6.979675 31,875 119 443 1472
2021-06-18 08:05:10 GMT 51.580490 6.967782 31,850 119 443 1472
2021-06-18 08:05:07 GMT 51.583282 6.959690 31,750 119 443 1472
2021-06-18 08:05:04 GMT 51.586212 6.951218 31,600 119 443 1408
2021-06-18 08:05:01 GMT 51.588821 6.943656 31,350 119 444 1408
2021-06-18 08:04:58 GMT 51.591339 6.936456 31,550 119 443 1344
2021-06-18 08:04:55 GMT 51.594727 6.926731 31,475 119 444 1408
2021-06-18 08:04:52 GMT 51.600815 6.909213 31,400 119 444 1408
2021-06-18 08:04:49 GMT 51.600815 6.909213 31,300 119 444 1408
2021-06-18 08:04:46 GMT 51.603760 6.900711 31,250 119 444 1344
2021-06-18 08:04:43 GMT 51.606491 6.892807 31,150 119 444 1216
2021-06-18 08:04:40 GMT 51.609879 6.883009 31,100 119 444 1216
2021-06-18 08:04:37 GMT 51.612442 6.875511 31,075 119 443 1280
2021-06-18 08:04:34 GMT 51.615967 6.865490 31,050 119 443 1344
2021-06-18 08:04:31 GMT 51.618565 6.857834 31,000 119 443 1344
2021-06-18 08:04:29 GMT 51.621170 6.850433 30,900 119 443 1344
2021-06-18 08:04:26 GMT 51.626476 6.835175 30,850 119 443 1408
2021-06-18 08:04:23 GMT 51.626476 6.835175 30,625 119 443 1344
2021-06-18 08:04:20 GMT 51.630615 6.823252 30,625 119 443 1344
2021-06-18 08:04:17 GMT 51.633320 6.815338 30,625 119 443 1408
2021-06-18 08:04:14 GMT 51.635788 6.808331 29,950 119 442 1472
2021-06-18 08:04:11 GMT 51.638672 6.800017 30,475 119 442 1472
2021-06-18 08:04:09 GMT 51.641052 6.793114 30,425 119 442 1472
2021-06-18 08:04:06 GMT 51.643707 6.785320 30,400 119 442 1408
2021-06-18 08:04:03 GMT 51.647053 6.775742 30,325 119 442 1408
2021-06-18 08:04:00 GMT 51.649567 6.768494 30,250 118 443 1472
2021-06-18 08:03:58 GMT 51.651615 6.762466 30,200 118 443 1472
2021-06-18 08:03:55 GMT 51.654640 6.753845 29,650 118 443 1472
2021-06-18 08:03:52 GMT 51.657623 6.745224 29,975 118 443 1472
2021-06-18 08:03:49 GMT 51.662975 6.729660 29,950 118 443 1536
2021-06-18 08:03:46 GMT 51.662975 6.729660 29,875 118 443 1536
2021-06-18 08:03:43 GMT 51.666412 6.719773 29,775 118 443 1600
2021-06-18 08:03:40 GMT 51.669479 6.710791 29,700 118 443 1472
2021-06-18 08:03:37 GMT 51.672089 6.703367 29,650 118 443 1728
2021-06-18 08:03:34 GMT 51.676254 6.691268 29,575 118 443 1408
2021-06-18 08:03:31 GMT 51.680061 6.680145 29,450 118 443 1472
2021-06-18 08:03:29 GMT 51.680061 6.680145 29,375 118 443 1600
2021-06-18 08:03:26 GMT 51.683643 6.669769 29,200 118 443 1856
2021-06-18 08:03:23 GMT 51.687149 6.659571 29,275 118 443 1792
2021-06-18 08:03:20 GMT 51.689976 6.651306 29,175 118 443 1856
2021-06-18 08:03:17 GMT 51.692722 6.643219 29,075 118 444 1856
2021-06-18 08:03:14 GMT 51.694908 6.636887 29,000 118 445 1856
2021-06-18 08:03:11 GMT 51.698357 6.626740 28,950 118 445 1856
2021-06-18 08:03:09 GMT 51.700470 6.620525 28,725 118 445 1472
2021-06-18 08:03:06 GMT 51.707016 6.601373 28,775 118 445 1472
2021-06-18 08:03:03 GMT 51.707016 6.601373 28,650 118 445 1344
2021-06-18 08:03:00 GMT 51.708969 6.595688 28,675 118 445 1344
2021-06-18 08:02:58 GMT 51.711857 6.587296 28,600 118 444 1216
2021-06-18 08:02:55 GMT 51.713791 6.581627 28,525 118 443 1088
2021-06-18 08:02:52 GMT 51.717396 6.571121 28,475 118 443 1280
2021-06-18 08:02:49 GMT 51.720840 6.560974 28,400 118 443 1408
2021-06-18 08:02:46 GMT 51.723679 6.552582 28,350 118 443 1536
2021-06-18 08:02:43 GMT 51.726013 6.545773 28,300 118 443 1536
2021-06-18 08:02:40 GMT 51.729675 6.535084 28,125 118 442 1472
2021-06-18 08:02:37 GMT 51.731594 6.529465 28,125 118 442 1472
2021-06-18 08:02:34 GMT 51.735306 6.518678 28,025 118 442 1472
2021-06-18 08:02:31 GMT 51.737225 6.513062 27,925 118 442 1536
2021-06-18 08:02:29 GMT 51.739243 6.507172 27,550 118 441 1536
2021-06-18 08:02:26 GMT 51.742172 6.498487 27,850 118 441 1536
2021-06-18 08:02:23 GMT 51.745834 6.487872 27,775 118 441 1536
2021-06-18 08:02:20 GMT 51.751007 6.472580 27,675 118 441 1472
2021-06-18 08:02:17 GMT 51.751007 6.472580 27,600 118 440 1472
2021-06-18 08:02:14 GMT 51.757095 6.454765 27,500 118 440 1600
2021-06-18 08:02:11 GMT 51.757095 6.454765 27,500 118 440 1664
2021-06-18 08:02:09 GMT 51.759247 6.448593 27,300 118 440 1664
2021-06-18 08:02:06 GMT 51.762737 6.438217 27,325 118 440 1664
2021-06-18 08:02:03 GMT 51.767952 6.422958 27,225 118 440 1600
2021-06-18 08:02:00 GMT 51.767952 6.422958 27,225 118 440 1600
2021-06-18 08:01:58 GMT 51.770603 6.415253 27,075 118 440 1536
2021-06-18 08:01:55 GMT 51.773026 6.408081 27,025 118 440 1600
2021-06-18 08:01:52 GMT 51.775864 6.399689 27,000 118 439 1664
2021-06-18 08:01:49 GMT 51.778797 6.391144 26,850 118 439 1664
2021-06-18 08:01:46 GMT 51.784801 6.373596 26,775 118 439 1600
2021-06-18 08:01:43 GMT 51.787643 6.365280 26,700 118 439 1472
2021-06-18 08:01:40 GMT 51.787643 6.365280 26,650 118 438 1536
2021-06-18 08:01:38 GMT 51.790009 6.358337 26,375 118 438 1664
2021-06-18 08:01:35 GMT 51.792904 6.349869 26,375 118 438 1728
2021-06-18 08:01:32 GMT 51.795929 6.341019 26,425 118 438 1792
2021-06-18 08:01:29 GMT 51.799046 6.331863 26,300 118 438 1728
2021-06-18 08:01:26 GMT 51.801701 6.324158 26,225 118 438 1728
2021-06-18 08:01:23 GMT 51.804291 6.316545 26,125 118 438 1728
2021-06-18 08:01:20 GMT 51.806774 6.309280 26,075 118 438 1728
2021-06-18 08:01:18 GMT 51.809288 6.301880 26,000 118 438 1728
2021-06-18 08:01:15 GMT 51.812256 6.293162 25,925 118 436 1728
2021-06-18 08:01:12 GMT 51.815155 6.284714 25,875 118 436 1728
2021-06-18 08:01:09 GMT 51.817856 6.276703 25,675 118 436 1792
2021-06-18 08:01:06 GMT 51.820908 6.267700 25,650 118 436 1792
2021-06-18 08:01:03 GMT 51.824295 6.257753 25,475 118 436 1728
2021-06-18 08:01:00 GMT 51.826374 6.251526 25,525 118 436 1728
2021-06-18 08:00:58 GMT 51.829239 6.243129 25,425 118 436 1856
2021-06-18 08:00:55 GMT 51.831306 6.237030 25,350 118 436 1856
2021-06-18 08:00:53 GMT 51.833771 6.229768 25,250 118 436 1728
2021-06-18 08:00:50 GMT 51.836014 6.223161 25,225 118 436 1664
2021-06-18 08:00:48 GMT 51.838848 6.214752 25,125 118 435 1472
2021-06-18 08:00:45 GMT 51.841316 6.207352 25,075 118 434 1472
2021-06-18 08:00:43 GMT 51.843887 6.199778 24,975 118 434 1664
2021-06-18 08:00:40 GMT 51.846176 6.192949 24,925 118 434 1792
2021-06-18 08:00:37 GMT 51.849335 6.183595 24,575 118 433 1600
2021-06-18 08:00:34 GMT 51.851746 6.176300 24,775 118 434 1792
2021-06-18 08:00:30 GMT 51.855701 6.164627 24,650 118 433 1600
2021-06-18 08:00:28 GMT 51.857471 6.159210 24,550 118 433 1664
2021-06-18 08:00:25 GMT 51.859753 6.152420 24,400 118 431 1792
2021-06-18 08:00:22 GMT 51.863941 6.139908 24,400 118 431 1792
2021-06-18 08:00:19 GMT 51.869247 6.124039 24,300 118 431 1728
2021-06-18 08:00:16 GMT 51.869247 6.124039 24,250 118 431 1728
2021-06-18 08:00:13 GMT 51.872181 6.115265 24,150 118 430 1792
2021-06-18 08:00:10 GMT 51.874786 6.107330 24,075 118 429 1792
2021-06-18 08:00:08 GMT 51.876278 6.102829 23,925 118 429 1664
2021-06-18 08:00:05 GMT 51.879547 6.093107 23,900 118 429 1664
2021-06-18 08:00:02 GMT 51.881607 6.086871 23,725 118 428 1600
2021-06-18 07:59:59 GMT 51.887833 6.067942 23,650 118 428 1664
2021-06-18 07:59:56 GMT 51.887833 6.067942 23,675 118 427 1792
2021-06-18 07:59:53 GMT 51.890102 6.061020 23,550 118 427 2048
2021-06-18 07:59:50 GMT 51.893360 6.051178 23,475 118 427 1984
2021-06-18 07:59:47 GMT 51.895641 6.044128 23,400 117 426 1792
2021-06-18 07:59:44 GMT 51.899273 6.033142 23,275 118 426 1664
2021-06-18 07:59:41 GMT 51.901657 6.026001 23,175 118 425 1600
2021-06-18 07:59:38 GMT 51.903976 6.018860 23,100 118 424 1600
2021-06-18 07:59:35 GMT 51.907288 6.008987 23,050 118 423 1600
2021-06-18 07:59:32 GMT 51.910446 5.999451 22,775 118 422 1664
2021-06-18 07:59:29 GMT 51.911797 5.995475 22,900 118 422 1728
2021-06-18 07:59:27 GMT 51.914429 5.987549 22,850 118 422 1728
2021-06-18 07:59:24 GMT 51.917404 5.978622 22,725 118 421 1536
2021-06-18 07:59:21 GMT 51.919693 5.971680 22,675 118 420 1472
2021-06-18 07:59:18 GMT 51.922485 5.963440 22,575 118 420 1472
2021-06-18 07:59:15 GMT 51.925297 5.954982 22,500 118 418 1536
2021-06-18 07:59:12 GMT 51.930450 5.939407 22,425 117 417 1536
2021-06-18 07:59:09 GMT 51.930450 5.939407 22,375 118 416 1536
2021-06-18 07:59:07 GMT 51.932693 5.932541 22,300 118 415 1408
2021-06-18 07:59:04 GMT 51.938553 5.915451 22,225 120 412 1216
2021-06-18 07:59:01 GMT 51.938553 5.915451 22,175 121 411 1216
2021-06-18 07:58:58 GMT 51.941635 5.907192 22,125 122 409 1344
2021-06-18 07:58:55 GMT 51.944687 5.899277 22,025 124 406 1408
2021-06-18 07:58:52 GMT 51.947800 5.891647 21,950 124 405 1344
2021-06-18 07:58:49 GMT 51.950527 5.885219 21,925 126 403 1152
2021-06-18 07:58:46 GMT 51.956177 5.872726 21,850 128 400 960
2021-06-18 07:58:44 GMT 51.956177 5.872726 21,825 128 400 960
2021-06-18 07:58:41 GMT 51.958302 5.868347 21,825 128 399 1024
2021-06-18 07:58:39 GMT 51.965473 5.854457 21,725 130 395 1216
2021-06-18 07:58:36 GMT 51.965473 5.854457 21,650 130 393 1344
2021-06-18 07:58:33 GMT 51.970825 5.844413 21,575 130 392 1472
2021-06-18 07:58:29 GMT 51.974270 5.837978 21,475 130 390 1536
2021-06-18 07:58:26 GMT 51.977737 5.831451 21,400 130 389 1600
2021-06-18 07:58:23 GMT 51.980274 5.826756 21,375 130 389 1600
2021-06-18 07:58:21 GMT 51.983673 5.820400 21,300 130 387 1664
2021-06-18 07:58:18 GMT 51.987030 5.814133 21,225 130 387 1792
2021-06-18 07:58:15 GMT 51.989773 5.808943 21,125 130 386 1920
2021-06-18 07:58:12 GMT 51.992752 5.803375 21,000 130 386 1856
2021-06-18 07:58:09 GMT 51.997501 5.794582 20,925 130 384 1664
2021-06-18 07:58:06 GMT 52.000580 5.788803 20,825 130 382 1728
2021-06-18 07:58:03 GMT 52.003601 5.783157 20,800 130 382 1792
2021-06-18 07:58:01 GMT 52.007446 5.775986 20,700 130 381 1984
2021-06-18 07:57:58 GMT 52.010330 5.770645 20,575 130 381 2048
2021-06-18 07:57:55 GMT 52.015778 5.760498 20,450 130 379 1408
2021-06-18 07:57:53 GMT 52.015778 5.760498 20,475 130 378 1024
2021-06-18 07:57:51 GMT 52.018261 5.755894 20,450 130 375 512
2021-06-18 07:57:48 GMT 52.020962 5.750793 20,425 130 372 448
2021-06-18 07:57:45 GMT 52.024406 5.744437 20,400 130 372 512
2021-06-18 07:57:43 GMT 52.027130 5.739212 20,375 130 370 640
2021-06-18 07:57:41 GMT 52.028961 5.735855 20,375 130 368 704
2021-06-18 07:57:39 GMT 52.031708 5.730667 20,325 130 365 704
2021-06-18 07:57:36 GMT 52.034321 5.725760 20,300 130 362 640
2021-06-18 07:57:33 GMT 52.040607 5.714068 20,250 130 359 576
2021-06-18 07:57:31 GMT 52.040607 5.714068 20,250 130 359 576
2021-06-18 07:57:28 GMT 52.043728 5.708182 20,200 130 354 704
2021-06-18 07:57:25 GMT 52.047043 5.702057 20,150 130 352 832
2021-06-18 07:57:22 GMT 52.050198 5.696176 20,100 130 348 704
2021-06-18 07:57:19 GMT 52.052757 5.691389 20,075 130 347 640
2021-06-18 07:57:17 GMT 52.055420 5.686340 20,075 129 346 512
2021-06-18 07:57:14 GMT 52.058624 5.680161 19,950 125 340 1664
2021-06-18 07:57:11 GMT 52.060764 5.675851 20,025 127 342 896
2021-06-18 07:57:08 GMT 52.064629 5.667690 19,925 125 339 1664
2021-06-18 07:57:05 GMT 52.066860 5.662746 19,875 125 340 1664
2021-06-18 07:57:02 GMT 52.069611 5.656546 19,825 125 339 1664
2021-06-18 07:56:59 GMT 52.074356 5.645796 19,700 125 337 1792
2021-06-18 07:56:57 GMT 52.074356 5.645796 19,650 125 337 1984
2021-06-18 07:56:54 GMT 52.079498 5.634155 19,525 125 336 1984
2021-06-18 07:56:51 GMT 52.079498 5.634155 19,175 125 336 1920
2021-06-18 07:56:48 GMT 52.082840 5.626526 19,225 125 335 1728
2021-06-18 07:56:45 GMT 52.085541 5.620422 19,275 125 333 1664
2021-06-18 07:56:42 GMT 52.089672 5.610953 18,950 125 331 2048
2021-06-18 07:56:40 GMT 52.089672 5.610953 19,100 125 331 1856
2021-06-18 07:56:37 GMT 52.092884 5.603655 19,025 125 331 1984
2021-06-18 07:56:34 GMT 52.094978 5.599025 18,875 125 330 2112
2021-06-18 07:56:31 GMT 52.097580 5.593109 18,800 125 330 2176
2021-06-18 07:56:28 GMT 52.101425 5.584488 18,675 125 328 2048
2021-06-18 07:56:25 GMT 52.103073 5.580673 18,625 125 327 2048
2021-06-18 07:56:22 GMT 52.105595 5.574934 18,550 125 327 2048
2021-06-18 07:56:19 GMT 52.108658 5.568085 18,325 125 325 1920
2021-06-18 07:56:16 GMT 52.111908 5.560684 18,275 125 326 1920
2021-06-18 07:56:13 GMT 52.113647 5.556806 18,225 125 323 2048
2021-06-18 07:56:11 GMT 52.115276 5.553040 18,075 125 323 2176
2021-06-18 07:56:09 GMT 52.118114 5.546762 17,825 125 323 2304
2021-06-18 07:56:06 GMT 52.120331 5.541763 17,950 125 323 2368
2021-06-18 07:56:03 GMT 52.121704 5.538559 17,875 125 323 2432
2021-06-18 07:56:01 GMT 52.123840 5.533735 17,775 125 323 2560
2021-06-18 07:55:59 GMT 52.126076 5.528634 17,600 125 322 2688
2021-06-18 07:55:57 GMT 52.128387 5.523376 17,475 125 323 2880
2021-06-18 07:55:54 GMT 52.129803 5.520159 17,375 125 323 2816
2021-06-18 07:55:51 GMT 52.132549 5.513803 17,275 125 324 2752
2021-06-18 07:55:49 GMT 52.134735 5.508780 17,200 125 324 2816
2021-06-18 07:55:47 GMT 52.136490 5.504761 17,050 125 324 2752
2021-06-18 07:55:44 GMT 52.139297 5.498265 16,950 125 324 2880
2021-06-18 07:55:41 GMT 52.141579 5.493086 16,025 125 324 3072
2021-06-18 07:55:39 GMT 52.143265 5.489197 16,675 125 325 3200
2021-06-18 07:55:37 GMT 52.144867 5.485458 16,475 125 326 3200
2021-06-18 07:55:34 GMT 52.147537 5.479353 16,450 125 326 3136
2021-06-18 07:55:31 GMT 52.150562 5.472290 16,250 125 327 3008
2021-06-18 07:55:27 GMT 52.154007 5.464521 16,025 125 326 2816
2021-06-18 07:55:24 GMT 52.156219 5.459442 15,900 125 326 2816
2021-06-18 07:55:21 GMT 52.158897 5.453299 15,800 125 327 2944
2021-06-18 07:55:18 GMT 52.161575 5.447235 15,550 125 327 2944
2021-06-18 07:55:15 GMT 52.166611 5.435562 15,450 125 327 2816
2021-06-18 07:55:12 GMT 52.166611 5.435562 15,375 125 327 2816
2021-06-18 07:55:10 GMT 52.168259 5.431747 15,325 125 327 2880
2021-06-18 07:55:07 GMT 52.171051 5.425339 15,075 125 325 2880
2021-06-18 07:55:04 GMT 52.176636 5.412521 14,925 125 325 2944
2021-06-18 07:55:01 GMT 52.176636 5.412521 14,800 125 325 2944
2021-06-18 07:54:59 GMT 52.177734 5.409927 14,675 125 325 2880
2021-06-18 07:54:56 GMT 52.180344 5.403900 14,525 125 325 3008
2021-06-18 07:54:53 GMT 52.182953 5.397949 14,450 125 325 3264
2021-06-18 07:54:51 GMT 52.185104 5.392914 14,300 125 325 3712
2021-06-18 07:54:49 GMT 52.186890 5.388718 14,050 125 325 3776
2021-06-18 07:54:46 GMT 52.189819 5.381927 13,675 124 328 3584
2021-06-18 07:54:43 GMT 52.191761 5.377337 13,825 125 327 3712
2021-06-18 07:54:41 GMT 52.193718 5.372942 13,675 124 328 3584
2021-06-18 07:54:39 GMT 52.195023 5.369882 13,425 124 329 3584
2021-06-18 07:54:36 GMT 52.197628 5.363839 13,275 125 330 3072
2021-06-18 07:54:33 GMT 52.201218 5.355453 13,175 124 329 3648
2021-06-18 07:54:30 GMT 52.202560 5.352304 13,050 124 330 3584
2021-06-18 07:54:28 GMT 52.204376 5.348129 12,925 125 330 3072
2021-06-18 07:54:26 GMT 52.206100 5.344142 12,700 125 330 3072
2021-06-18 07:54:23 GMT 52.209869 5.335312 12,625 125 330 3072
2021-06-18 07:54:20 GMT 52.211220 5.332136 12,500 125 330 3072
2021-06-18 07:54:18 GMT 52.213501 5.326878 12,400 125 328 2944
2021-06-18 07:54:16 GMT 52.218159 5.316127 12,125 125 327 2688
2021-06-18 07:54:13 GMT 52.218159 5.316127 12,050 125 327 2688
2021-06-18 07:54:11 GMT 52.219460 5.313145 12,125 125 327 2688
2021-06-18 07:54:09 GMT 52.221176 5.309219 12,025 125 327 2816
2021-06-18 07:54:07 GMT 52.222641 5.305786 11,925 125 326 3072
2021-06-18 07:54:05 GMT 52.224770 5.300825 11,725 125 326 3392
2021-06-18 07:54:02 GMT 52.226898 5.295944 11,675 125 326 3392
2021-06-18 07:54:00 GMT 52.229748 5.289525 11,450 124 326 3264
2021-06-18 07:53:57 GMT 52.231567 5.285416 11,300 122 325 2944
2021-06-18 07:53:54 GMT 52.234863 5.277252 11,175 121 325 2752
2021-06-18 07:53:51 GMT 52.236591 5.272731 11,100 120 324 2432
2021-06-18 07:53:49 GMT 52.238220 5.268258 11,025 118 324 2112
2021-06-18 07:53:47 GMT 52.239662 5.264021 10,925 116 322 1600
2021-06-18 07:53:44 GMT 52.242233 5.255661 10,875 114 318 1152
2021-06-18 07:53:41 GMT 52.243526 5.251229 10,825 113 316 1152
2021-06-18 07:53:38 GMT 52.245346 5.244522 10,775 111 313 1088
2021-06-18 07:53:35 GMT 52.247112 5.237418 10,700 108 307 704
2021-06-18 07:53:32 GMT 52.248554 5.230826 10,675 107 304 704
2021-06-18 07:53:30 GMT 52.249626 5.225333 10,650 106 302 896
2021-06-18 07:53:27 GMT 52.250565 5.220184 10,600 106 299 1152
2021-06-18 07:53:24 GMT 52.251801 5.213242 10,375 106 296 1920
2021-06-18 07:53:21 GMT 52.253036 5.206146 10,325 105 294 2880
2021-06-18 07:53:18 GMT 52.254364 5.198517 10,150 105 293 3200
2021-06-18 07:53:15 GMT 52.255306 5.193080 10,000 105 293 3200
2021-06-18 07:53:12 GMT 52.256424 5.186844 9,875 105 293 3200
2021-06-18 07:53:10 GMT 52.257168 5.182486 9,775 105 292 3136
2021-06-18 07:53:07 GMT 52.258026 5.177460 9,650 105 292 3200
2021-06-18 07:53:04 GMT 52.259171 5.171127 9,000 105 291 3328
2021-06-18 07:53:01 GMT 52.260040 5.166092 9,225 105 291 3392
2021-06-18 07:52:59 GMT 52.261032 5.160435 9,025 105 292 3392
2021-06-18 07:52:56 GMT 52.262146 5.154037 8,925 105 292 3136
2021-06-18 07:52:53 GMT 52.263428 5.146866 8,850 105 291 3008
2021-06-18 07:52:50 GMT 52.264343 5.141373 8,700 105 289 3136
2021-06-18 07:52:48 GMT 52.264942 5.138070 8,575 105 289 3200
2021-06-18 07:52:45 GMT 52.266037 5.131683 8,450 105 289 3264
2021-06-18 07:52:43 GMT 52.267136 5.125122 8,325 105 289 3264
2021-06-18 07:52:40 GMT 52.268051 5.119705 8,175 105 289 3136
2021-06-18 07:52:37 GMT 52.269039 5.113665 7,875 105 287 2880
2021-06-18 07:52:34 GMT 52.270061 5.107858 7,850 105 287 2880
2021-06-18 07:52:31 GMT 52.271164 5.101242 7,750 105 285 2880
2021-06-18 07:52:29 GMT 52.271713 5.097961 7,625 105 285 2944
2021-06-18 07:52:27 GMT 52.272766 5.091782 7,500 105 283 3008
2021-06-18 07:52:24 GMT 52.273415 5.087769 7,400 105 283 3136
2021-06-18 07:52:22 GMT 52.274391 5.082197 7,225 105 282 3136
2021-06-18 07:52:19 GMT 52.275101 5.077972 7,100 105 281 3072
2021-06-18 07:52:17 GMT 52.276245 5.071182 6,950 105 281 3072
2021-06-18 07:52:14 GMT 52.276886 5.067368 6,900 105 279 2944
2021-06-18 07:52:12 GMT 52.277977 5.060931 6,700 105 278 2752
2021-06-18 07:52:09 GMT 52.278534 5.057713 6,650 105 277 2688
2021-06-18 07:52:07 GMT 52.279419 5.052612 6,525 106 275 2624
2021-06-18 07:52:04 GMT 52.280582 5.046021 6,400 106 273 2752
2021-06-18 07:52:02 GMT 52.281097 5.043117 6,275 106 272 2880
2021-06-18 07:51:59 GMT 52.282211 5.036918 6,225 106 272 2880
2021-06-18 07:51:56 GMT 52.283283 5.031032 6,025 106 269 2624
2021-06-18 07:51:53 GMT 52.284401 5.024597 5,850 106 267 2560
2021-06-18 07:51:50 GMT 52.285583 5.018082 5,775 105 266 2560
2021-06-18 07:51:48 GMT 52.286087 5.014954 5,650 106 264 2688
2021-06-18 07:51:45 GMT 52.287102 5.009295 5,500 105 262 2688
2021-06-18 07:51:42 GMT 52.288330 5.002365 5,500 105 262 2752
2021-06-18 07:51:39 GMT 52.289570 4.995248 5,225 105 259 2944
2021-06-18 07:51:34 GMT 52.290733 4.988342 4,900 105 258 3200
2021-06-18 07:51:31 GMT 52.292679 4.976578 4,825 105 257 3264
2021-06-18 07:51:28 GMT 52.292679 4.976578 4,700 106 257 3200
2021-06-18 07:51:24 GMT 52.293900 4.969822 4,500 107 255 3136
2021-06-18 07:51:21 GMT 52.294968 4.964447 4,275 111 252 3136
2021-06-18 07:51:18 GMT 52.296066 4.959412 4,200 111 252 3136
2021-06-18 07:51:15 GMT 52.297714 4.952850 3,925 113 250 3200
2021-06-18 07:51:12 GMT 52.298786 4.948792 3,850 113 249 3264
2021-06-18 07:51:09 GMT 52.300648 4.941729 3,650 113 248 3648
2021-06-18 07:51:06 GMT 52.301346 4.939139 3,550 113 249 3904
2021-06-18 07:51:03 GMT 52.304604 4.927133 2,950 113 250 3456
2021-06-18 07:51:00 GMT 52.304604 4.927133 3,125 113 250 3456
2021-06-18 07:50:58 GMT 52.305542 4.923782 3,000 113 248 2816
2021-06-18 07:50:54 GMT 52.307537 4.916303 2,825 113 246 2304
2021-06-18 07:50:51 GMT 52.308514 4.912772 2,750 113 243 2304
2021-06-18 07:50:48 GMT 52.310143 4.906651 2,550 114 242 2496
2021-06-18 07:50:45 GMT 52.311543 4.901629 2,425 114 239 2304
2021-06-18 07:50:42 GMT 52.312752 4.897313 2,100 105 225 1600
2021-06-18 07:50:39 GMT 52.314148 4.892349 2,275 113 235 1600
2021-06-18 07:50:37 GMT 52.315033 4.889151 2,250 111 232 1600
2021-06-18 07:50:34 GMT 52.316662 4.882481 2,075 103 223 1600
2021-06-18 07:50:31 GMT 52.317314 4.879185 2,075 102 222 1600
2021-06-18 07:50:28 GMT 52.318104 4.874477 2,000 101 221 1600
2021-06-18 07:50:27 GMT 52.318405 4.872208 1,975 100 219 1536
2021-06-18 07:50:26 GMT 52.318756 4.869690 1,925 98 217 1408
2021-06-18 07:50:24 GMT 52.318943 4.867885 1,900 97 215 1344
2021-06-18 07:50:22 GMT 52.319229 4.864578 1,850 95 213 1280
2021-06-18 07:50:20 GMT 52.319454 4.861450 1,825 94 209 1216
2021-06-18 07:50:19 GMT 52.319550 4.859724 1,800 93 208 1216
2021-06-18 07:50:18 GMT 52.319733 4.855042 1,750 91 204 1152
2021-06-18 07:50:16 GMT 52.319733 4.855042 1,750 90 201 1024
2021-06-18 07:50:15 GMT 52.319782 4.853289 1,725 89 199 1024
2021-06-18 07:50:14 GMT 52.319828 4.851798 1,700 89 199 1024
2021-06-18 07:50:13 GMT 52.319824 4.850159 1,675 88 198 1024
2021-06-18 07:50:11 GMT 52.319828 4.847089 1,650 87 194 960
2021-06-18 07:50:10 GMT 52.319782 4.845755 1,625 87 192 960
2021-06-18 07:50:09 GMT 52.319733 4.844513 1,625 87 191 1024
2021-06-18 07:50:08 GMT 52.319687 4.843009 1,600 87 189 1088
2021-06-18 07:50:06 GMT 52.319641 4.840262 1,575 87 186 1152
2021-06-18 07:50:05 GMT 52.319595 4.838791 1,550 87 185 1152
2021-06-18 07:50:04 GMT 52.319550 4.837280 1,525 87 184 1152
2021-06-18 07:50:03 GMT 52.319504 4.835815 1,500 87 182 1088
2021-06-18 07:50:02 GMT 52.319412 4.832916 1,475 87 179 960
2021-06-18 07:50:00 GMT 52.319366 4.831619 1,450 87 177 960
2021-06-18 07:49:59 GMT 52.319321 4.830246 1,425 87 175 960
2021-06-18 07:49:58 GMT 52.319317 4.828962 1,425 87 173 960
2021-06-18 07:49:56 GMT 52.319229 4.825897 1,375 87 171 1344
2021-06-18 07:49:54 GMT 52.319183 4.823303 1,325 87 169 1792
2021-06-18 07:49:53 GMT 52.319130 4.822056 1,300 87 169 1920
2021-06-18 07:49:52 GMT 52.319092 4.820786 1,250 86 168 1984
2021-06-18 07:49:51 GMT 52.319000 4.818115 1,200 86 167 1984
2021-06-18 07:49:48 GMT 52.318989 4.816877 1,150 86 166 2048
2021-06-18 07:49:47 GMT 52.318943 4.815543 1,125 86 166 2176
2021-06-18 07:49:46 GMT 52.318897 4.814366 1,050 86 165 2240
2021-06-18 07:49:45 GMT 52.318851 4.813110 1,025 86 165 2432
2021-06-18 07:49:44 GMT 52.318817 4.812088 1,000 86 165 2496
2021-06-18 07:49:43 GMT 52.318665 4.808559 925 86 166 2624
2021-06-18 07:49:40 GMT 52.318634 4.807205 750 86 166 2624
2021-06-18 07:49:38 GMT 52.318542 4.804611 750 86 166 2624
2021-06-18 07:49:37 GMT 52.318451 4.802856 700 86 166 2624
2021-06-18 07:49:35 GMT 52.318382 4.800868 625 86 167 2560
2021-06-18 07:49:34 GMT 52.318314 4.798813 575 86 167 2560
2021-06-18 07:49:33 GMT 52.318291 4.797651 500 86 167 2560
2021-06-18 07:49:31 GMT 52.318199 4.794355 400 87 167 2432
2021-06-18 07:49:30 GMT 52.318199 4.794355 275 87 167 2112
2021-06-18 07:49:27 GMT 52.318085 4.790268 275 87 166 2048
2021-06-18 07:49:26 GMT 52.318039 4.788818 250 87 165 1920
2021-06-18 07:49:23 GMT 52.317966 4.785174 150 87 164 1664
2021-06-18 07:49:22 GMT 52.317902 4.783859 125 86 164 1664
2021-06-18 07:49:21 GMT 52.317780 4.779837 50 86 163 1344
2021-06-18 07:49:19 GMT 52.317780 4.779837 50 86 163 1344
2021-06-18 07:49:17 GMT 52.317734 4.778346 0 86 161 960
2021-06-18 07:49:07 GMT 52.317360 4.767046 0 86 120 0
2021-06-18 07:48:57 GMT 52.317036 4.757080 0 87 82
2021-06-18 07:48:52 GMT 52.316906 4.753704 35,400 87 78
2021-06-18 07:48:51 GMT 52.316895 4.753117 35,400 87 74
2021-06-18 07:48:49 GMT 52.316849 4.751881 35,400 87 65
2021-06-18 07:48:47 GMT 52.316814 4.750805 35,400 87 57
2021-06-18 07:48:46 GMT 52.316769 4.749507 35,400 87 44
2021-06-18 07:48:44 GMT 52.316769 4.749507 35,400 87 44
2021-06-18 07:48:42 GMT 52.316742 4.748860 35,400 87 36
2021-06-18 07:48:41 GMT 52.316730 4.748566 35,400 87 31
2021-06-18 07:48:39 GMT 52.316723 4.748077 35,400 87 22
2021-06-18 07:48:37 GMT 52.316711 4.747753 35,400 87 13
2021-06-18 07:48:36 GMT 52.316708 4.747722 35,400 87 13
2021-06-18 07:48:35 GMT 52.316696 4.747585 35,400 87 9
2021-06-18 07:48:33 GMT 52.316689 4.747448 35,400 87 4
2021-06-18 07:48:29 GMT 52.316689 4.747353 35,400 84 0
2021-06-18 07:48:24 GMT 52.316689 4.747334 35,400 84 0
2021-06-18 07:48:12 GMT 52.316689 4.747295 35,400 84 2
2021-06-18 07:48:00 GMT 52.316685 4.747016 35,400 39 7
2021-06-18 07:47:59 GMT 52.316666 4.746971 35,400 33 7
2021-06-18 07:47:58 GMT 52.316650 4.746937 35,400 28 8
2021-06-18 07:47:54 GMT 52.316540 4.746857 35,400 22 8
2021-06-18 07:47:53 GMT 52.316494 4.746819 35,400 22 9
2021-06-18 07:47:51 GMT 52.316414 4.746780 35,400 22 9
2021-06-18 07:47:50 GMT 52.316383 4.746761 35,400 22 9
2021-06-18 07:47:49 GMT 52.316345 4.746742 35,400 19 9
2021-06-18 07:47:48 GMT 52.316315 4.746702 35,400 19 9
2021-06-18 07:47:46 GMT 52.316242 4.746666 35,400 14 9
2021-06-18 07:47:44 GMT 52.316162 4.746628 35,400 8 8
2021-06-18 07:47:43 GMT 52.316128 4.746604 35,400 5 8
2021-06-18 07:47:42 GMT 52.316093 4.746604 35,400 2 7
2021-06-18 07:47:39 GMT 52.316013 4.746590 35,400 0 7
2021-06-18 07:47:30 GMT 52.315773 4.746590 35,400 357 4
2021-06-18 07:47:28 GMT 52.315739 4.746590 35,400 357 3
2021-06-18 07:47:25 GMT 52.315704 4.746609 35,400 357 0
2021-06-18 07:47:20 GMT 52.315662 4.746604 35,400 357 0
2021-06-18 07:47:15 GMT 52.315647 4.746609 35,400 357 0
2021-06-18 07:47:10 GMT 52.315647 4.746604 35,400 357 0
2021-06-18 07:46:58 GMT 52.315647 4.746604 35,400 357 0
2021-06-18 07:46:56 GMT 52.315647 4.746609 35,400 357 0
2021-06-18 07:46:55 GMT 52.315647 4.746604 35,400 357 0
2021-06-18 07:46:53 GMT 52.315647 4.746604 35,400 357 0
2021-06-18 07:46:51 GMT 52.315647 4.746609 35,400 357 0
2021-06-18 07:46:50 GMT 52.315647 4.746604 35,400 357 0
2021-06-18 07:46:48 GMT 52.315647 4.746609 35,400 357 0
2021-06-18 07:46:46 GMT 52.315647 4.746604 35,400 357 0
2021-06-18 07:46:45 GMT 52.315647 4.746609 35,400 357 0
2021-06-18 07:46:43 GMT 52.315647 4.746609 35,400 357 0
2021-06-18 07:46:40 GMT 52.315647 4.746604 35,400 357 0
2021-06-18 07:46:39 GMT 52.315647 4.746609 35,400 357 0
2021-06-18 07:46:37 GMT 52.315647 4.746604 35,400 357 0
2021-06-18 07:46:35 GMT 52.315647 4.746609 35,400 357 0
2021-06-18 07:46:33 GMT 52.315636 4.746609 35,400 357 1
2021-06-18 07:46:31 GMT 52.315624 4.746604 35,400 357 1
2021-06-18 07:46:30 GMT 52.315613 4.746609 35,400 357 1
2021-06-18 07:46:28 GMT 52.315601 4.746604 35,400 357 1
2021-06-18 07:46:26 GMT 52.315601 4.746604 35,400 357 1
2021-06-18 07:46:24 GMT 52.315590 4.746604 35,400 357 1
2021-06-18 07:46:23 GMT 52.315578 4.746604 35,400 357 3
2021-06-18 07:46:21 GMT 52.315567 4.746604 35,400 357 4
2021-06-18 07:46:19 GMT 52.315544 4.746604 35,400 357 5
2021-06-18 07:46:18 GMT 52.315521 4.746609 35,400 357 6
2021-06-18 07:46:17 GMT 52.315498 4.746604 35,400 354 7
2021-06-18 07:46:15 GMT 52.315441 4.746609 35,400 354 8
2021-06-18 07:46:13 GMT 52.315380 4.746623 35,400 348 8
2021-06-18 07:46:10 GMT 52.315281 4.746647 35,400 340 8
2021-06-18 07:46:09 GMT 52.315235 4.746666 35,400 337 8
2021-06-18 07:46:07 GMT 52.315155 4.746704 35,400 329 9
2021-06-18 07:46:00 GMT 52.314964 4.746957 35,400 292 11
2021-06-18 07:45:57 GMT 52.314903 4.747276 35,400 270 12
2021-06-18 07:45:56 GMT 52.314903 4.747349 35,400 270 13
2021-06-18 07:45:55 GMT 52.314903 4.747467 35,400 267 14
2021-06-18 07:45:54 GMT 52.314903 4.747543 35,400 267 14
2021-06-18 07:45:53 GMT 52.314926 4.747663 35,400 267 15
2021-06-18 07:45:50 GMT 52.314915 4.747879 35,400 267 16
2021-06-18 07:45:49 GMT 52.314915 4.747977 35,400 267 16
2021-06-18 07:45:48 GMT 52.314926 4.748096 35,400 267 16
2021-06-18 07:45:47 GMT 52.314926 4.748344 35,400 267 16
2021-06-18 07:45:45 GMT 52.314938 4.748440 35,400 267 17
2021-06-18 07:45:44 GMT 52.314938 4.748554 35,400 267 17
2021-06-18 07:45:43 GMT 52.314938 4.748669 35,400 267 18
2021-06-18 07:45:40 GMT 52.314960 4.749069 35,400 267 19
2021-06-18 07:45:38 GMT 52.314976 4.749429 35,400 267 21
2021-06-18 07:45:36 GMT 52.314972 4.749660 35,400 267 21
2021-06-18 07:45:35 GMT 52.314987 4.749821 35,400 267 21
2021-06-18 07:45:33 GMT 52.314995 4.750137 35,400 267 22
2021-06-18 07:45:32 GMT 52.314995 4.750328 35,400 267 22
2021-06-18 07:45:31 GMT 52.315006 4.750443 35,400 267 22
2021-06-18 07:45:29 GMT 52.315018 4.750805 35,400 267 22
2021-06-18 07:45:28 GMT 52.315022 4.751096 35,400 267 22
2021-06-18 07:45:25 GMT 52.315041 4.751358 35,400 267 22
2021-06-18 07:45:24 GMT 52.315044 4.751607 35,400 267 22
2021-06-18 07:45:23 GMT 52.315052 4.751949 35,400 267 22
2021-06-18 07:45:21 GMT 52.315063 4.752102 35,400 267 22
2021-06-18 07:45:19 GMT 52.315067 4.752450 35,400 267 23
2021-06-18 07:45:18 GMT 52.315075 4.752617 35,400 267 23
2021-06-18 07:45:17 GMT 52.315090 4.752784 35,400 267 23
2021-06-18 07:45:12 GMT 52.315125 4.753863 35,400 267 24
2021-06-18 07:45:10 GMT 52.315125 4.754020 35,400 267 24
2021-06-18 07:45:07 GMT 52.315144 4.754486 35,400 267 24
2021-06-18 07:45:06 GMT 52.315159 4.754765 35,400 267 25
2021-06-18 07:45:02 GMT 52.315178 4.755516 35,400 267 26
2021-06-18 07:45:00 GMT 52.315201 4.756107 35,400 267 26
2021-06-18 07:44:57 GMT 52.315212 4.756489 35,400 267 26
2021-06-18 07:44:56 GMT 52.315212 4.756660 35,400 267 27
2021-06-18 07:44:54 GMT 52.315224 4.757061 35,400 267 27
2021-06-18 07:44:50 GMT 52.315258 4.757824 35,400 267 27
2021-06-18 07:44:49 GMT 52.315258 4.758072 35,400 267 27
2021-06-18 07:44:38 GMT 52.315338 4.760208 35,400 267 26
2021-06-18 07:44:37 GMT 52.315346 4.760435 35,400 267 26
2021-06-18 07:44:35 GMT 52.315357 4.760808 35,400 267 25
2021-06-18 07:44:26 GMT 52.315418 4.762287 35,400 267 23
2021-06-18 07:44:25 GMT 52.315418 4.762459 35,400 267 23
2021-06-18 07:44:12 GMT 52.315498 4.764947 35,400 267 21
2021-06-18 07:44:10 GMT 52.315498 4.764947 35,400 267 21
2021-06-18 07:44:08 GMT 52.315510 4.765263 35,400 267 21
2021-06-18 07:44:01 GMT 52.315556 4.766320 35,400 267 21
2021-06-18 07:43:59 GMT 52.315567 4.766693 35,400 267 21
2021-06-18 07:43:54 GMT 52.315590 4.767360 35,400 267 20
2021-06-18 07:43:39 GMT 52.315662 4.769342 35,400 267 15
2021-06-18 07:43:33 GMT 52.315674 4.769950 35,400 267 14
2021-06-18 07:43:24 GMT 52.315708 4.770872 35,400 267 13
2021-06-18 07:43:23 GMT 52.315716 4.770985 35,400 270 13
2021-06-18 07:43:16 GMT 52.315662 4.771578 35,400 306 14
2021-06-18 07:43:15 GMT 52.315624 4.771671 35,400 315 14
2021-06-18 07:43:10 GMT 52.315361 4.771957 35,400 351 13
2021-06-18 07:43:07 GMT 52.315208 4.771990 35,400 0 12
2021-06-18 07:43:06 GMT 52.315098 4.771996 35,400 5 11
2021-06-18 07:43:04 GMT 52.315006 4.771976 35,400 5 11
2021-06-18 07:42:58 GMT 52.314720 4.771957 35,400 2 8
2021-06-18 07:42:56 GMT 52.314686 4.771938 35,400 2 8
2021-06-18 07:42:52 GMT 52.314526 4.771938 35,400 2 7
2021-06-18 07:42:44 GMT 52.314320 4.771919 35,400 2 4
2021-06-18 07:42:41 GMT 52.314278 4.771912 35,400 5 4
2021-06-18 07:42:40 GMT 52.314251 4.771919 35,400 5 3
2021-06-18 07:42:38 GMT 52.314228 4.771912 35,400 5 3
2021-06-18 07:42:37 GMT 52.314217 4.771912 35,400 5 3
2021-06-18 07:42:35 GMT 52.314194 4.771912 35,400 5 3
2021-06-18 07:42:34 GMT 52.314171 4.771900 35,400 5 3
2021-06-18 07:42:33 GMT 52.314159 4.771900 35,400 5 4
2021-06-18 07:42:32 GMT 52.314148 4.771892 35,400 5 4
2021-06-18 07:42:29 GMT 52.314102 4.771892 35,400 8 4
2021-06-18 07:42:28 GMT 52.314056 4.771892 35,400 8 4
2021-06-18 07:42:26 GMT 52.314056 4.771892 35,400 8 4
2021-06-18 07:42:24 GMT 52.314034 4.771881 35,400 8 4
2021-06-18 07:42:22 GMT 52.313984 4.771872 35,400 11 4
2021-06-18 07:42:21 GMT 52.313908 4.771862 35,400 16 4
2021-06-18 07:42:17 GMT 52.313908 4.771862 35,400 16 4
2021-06-18 07:42:15 GMT 52.313881 4.771853 35,400 19 4
2021-06-18 07:42:14 GMT 52.313774 4.771794 35,400 25 6
2021-06-18 07:42:09 GMT 52.313774 4.771794 35,400 28 6
2021-06-18 07:41:58 GMT 52.313496 4.771538 35,400 33 8
2021-06-18 07:41:50 GMT 52.313255 4.771271 35,400 33 10
2021-06-18 07:41:40 GMT 52.312832 4.770813 35,400 33 13
2021-06-18 07:41:28 GMT 52.312263 4.770185 35,400 33 15
2021-06-18 07:41:20 GMT 52.311779 4.769669 35,400 33 14
2021-06-18 07:41:10 GMT 52.311298 4.769154 35,400 33 12
2021-06-18 07:41:00 GMT 52.310890 4.768733 35,400 33 8
2021-06-18 07:39:31 GMT 52.310600 4.768410 35,400 33 0
2021-06-18 07:38:46 GMT 52.310596 4.768400 35,400 33 0
2021-06-18 07:38:25 GMT 52.310562 4.768380 0 33 4
2021-06-18 07:38:18 GMT 52.310493 4.768302 0 30 1
2021-06-18 07:38:07 GMT 52.310589 4.768314 0 14 4
2021-06-18 07:37:57 GMT 52.310726 4.768200 0 334 4
2021-06-18 07:37:45 GMT 52.310856 4.767909 0 303 4
2021-06-18 07:37:18 GMT 52.311077 4.767262 0 303 4
2021-06-18 07:37:15 GMT 52.311157 4.767184 0 300 4
2021-06-18 07:37:03 GMT 52.311161 4.767075 0 303 0
2021-06-18 07:36:57 GMT 52.311169 4.767085 0 303 0

Making use of Plane Finder data

You are free to use the raw flight data, aircraft information and images provided in this report for your own purposes provided the data is correctly attributed to Plane Finder. We ask that you please credit Plane Finder and link to planefinder.net in close proximity to the content.

Optionally one of the following logos (no smaller then 150x24px) can be used and must link to planefinder.net

Embedding the Plane Finder map

You are welcome to embed the Plane Finder playback map on your website to offer visitors a more interactive experience. We suggest using the following HTML code:

<iframe src="//planefinder.net/data/report/KL1905-PH-BCH-7700-squawk-2021-06-18/map" width="800" height="600" seamless="seamless"></iframe>

Where our data comes from

Plane Finder has a global network of data feeds and antenna radars that receive data broadcast directly from aircraft. The primary technologies used are ADS-B and MLAT. We also show feeds from the FAA and a FLARM glider feed.

Click here to find out more about the Plane Finder network.

How we collect our data